Wetterdaten: aktuell Dienstag, 09.08.2022 22:57
Datum Zeit Temp. 2m Feuchte 2m Luftdruck Regen Wind Richtung Richtung Sonnenschein ET UV Solar Taupunkt Windchill Windben Empfang
09.08.2022 22:57 20,4 C 52 % 1025,0 hPa 0,0 l/m 16,1 km/h (3 Bft) N-NW 337 0 min 0,000 mm 0,0 UV-I 0 W/m 10,2 C 20,4 C 17,7 km/h (3 Bft) 100,00 %
09.08.2022 22:56 20,4 C 52 % 1025,0 hPa 0,0 l/m 16,1 km/h (3 Bft) N-NW 337 0 min 0,000 mm 0,0 UV-I 0 W/m 10,2 C 20,4 C 17,7 km/h (3 Bft) 100,00 %
09.08.2022 22:55 20,5 C 52 % 1025,0 hPa 0,0 l/m 14,5 km/h (3 Bft) N-NW 337 0 min 0,000 mm 0,0 UV-I 0 W/m 10,3 C 20,5 C 16,1 km/h (3 Bft) 100,00 %
09.08.2022 22:54 20,5 C 52 % 1025,1 hPa 0,0 l/m 14,5 km/h (3 Bft) N-NW 337 0 min 0,000 mm 0,0 UV-I 0 W/m 10,3 C 20,5 C 17,7 km/h (3 Bft) 100,00 %
09.08.2022 22:53 20,6 C 52 % 1025,0 hPa 0,0 l/m 14,5 km/h (3 Bft) N-NW 337 0 min 0,000 mm 0,0 UV-I 0 W/m 10,4 C 20,6 C 17,7 km/h (3 Bft) 100,00 %
09.08.2022 22:52 20,6 C 52 % 1025,0 hPa 0,0 l/m 14,5 km/h (3 Bft) N-NW 337 0 min 0,000 mm 0,0 UV-I 0 W/m 10,4 C 20,6 C 17,7 km/h (3 Bft) 100,00 %
09.08.2022 22:51 20,6 C 52 % 1025,0 hPa 0,0 l/m 16,1 km/h (3 Bft) N-NW 337 0 min 0,000 mm 0,0 UV-I 0 W/m 10,4 C 20,6 C 17,7 km/h (3 Bft) 95,65 %
09.08.2022 22:50 20,6 C 52 % 1025,0 hPa 0,0 l/m 14,5 km/h (3 Bft) N-NW 337 0 min 0,000 mm 0,0 UV-I 0 W/m 10,4 C 20,6 C 17,7 km/h (3 Bft) 100,00 %
09.08.2022 22:49 20,6 C 52 % 1025,0 hPa 0,0 l/m 14,5 km/h (3 Bft) N-NW 337 0 min 0,000 mm 0,0 UV-I 0 W/m 10,4 C 20,6 C 17,7 km/h (3 Bft) 100,00 %
09.08.2022 22:48 20,6 C 52 % 1025,0 hPa 0,0 l/m 14,5 km/h (3 Bft) N-NW 337 0 min 0,000 mm 0,0 UV-I 0 W/m 10,4 C 20,6 C 16,1 km/h (3 Bft) 100,00 %
09.08.2022 22:47 20,7 C 52 % 1025,1 hPa 0,0 l/m 14,5 km/h (3 Bft) N-NW 337 0 min 0,000 mm 0,0 UV-I 0 W/m 10,5 C 20,7 C 19,3 km/h (3 Bft) 91,30 %
09.08.2022 22:46 20,7 C 52 % 1024,9 hPa 0,0 l/m 16,1 km/h (3 Bft) N-NW 337 0 min 0,000 mm 0,0 UV-I 0 W/m 10,5 C 20,7 C 19,3 km/h (3 Bft) 100,00 %
09.08.2022 22:45 20,7 C 52 % 1025,0 hPa 0,0 l/m 12,9 km/h (3 Bft) N-NW 337 0 min 0,000 mm 0,0 UV-I 0 W/m 10,5 C 20,7 C 14,5 km/h (3 Bft) 95,65 %
09.08.2022 22:44 20,7 C 51 % 1025,0 hPa 0,0 l/m 14,5 km/h (3 Bft) N-NW 337 0 min 0,000 mm 0,0 UV-I 0 W/m 10,2 C 20,7 C 17,7 km/h (3 Bft) 100,00 %
09.08.2022 22:43 20,7 C 51 % 1025,0 hPa 0,0 l/m 16,1 km/h (3 Bft) N-NW 337 0 min 0,000 mm 0,0 UV-I 0 W/m 10,2 C 20,7 C 17,7 km/h (3 Bft) 100,00 %
09.08.2022 22:42 20,7 C 51 % 1025,0 hPa 0,0 l/m 14,5 km/h (3 Bft) N-NW 337 0 min 0,000 mm 0,0 UV-I 0 W/m 10,2 C 20,7 C 16,1 km/h (3 Bft) 95,65 %
09.08.2022 22:41 20,7 C 51 % 1025,0 hPa 0,0 l/m 14,5 km/h (3 Bft) N-NW 337 0 min 0,000 mm 0,0 UV-I 0 W/m 10,2 C 20,7 C 16,1 km/h (3 Bft) 100,00 %
09.08.2022 22:40 20,7 C 51 % 1025,1 hPa 0,0 l/m 14,5 km/h (3 Bft) N-NW 337 0 min 0,000 mm 0,0 UV-I 0 W/m 10,2 C 20,7 C 16,1 km/h (3 Bft) 100,00 %
09.08.2022 22:39 20,7 C 51 % 1025,0 hPa 0,0 l/m 16,1 km/h (3 Bft) N-NW 337 0 min 0,000 mm 0,0 UV-I 0 W/m 10,2 C 20,7 C 17,7 km/h (3 Bft) 100,00 %
09.08.2022 22:38 20,7 C 51 % 1025,0 hPa 0,0 l/m 14,5 km/h (3 Bft) N-NW 337 0 min 0,000 mm 0,0 UV-I 0 W/m 10,2 C 20,7 C 17,7 km/h (3 Bft) 100,00 %
09.08.2022 22:37 20,8 C 51 % 1025,0 hPa 0,0 l/m 14,5 km/h (3 Bft) N-NW 337 0 min 0,000 mm 0,0 UV-I 0 W/m 10,3 C 20,8 C 16,1 km/h (3 Bft) 100,00 %
09.08.2022 22:36 20,8 C 51 % 1025,0 hPa 0,0 l/m 14,5 km/h (3 Bft) N-NW 337 0 min 0,000 mm 0,0 UV-I 0 W/m 10,3 C 20,8 C 17,7 km/h (3 Bft) 100,00 %
09.08.2022 22:35 20,8 C 51 % 1025,0 hPa 0,0 l/m 14,5 km/h (3 Bft) N-NW 337 0 min 0,000 mm 0,0 UV-I 0 W/m 10,3 C 20,8 C 16,1 km/h (3 Bft) 100,00 %
09.08.2022 22:34 20,8 C 51 % 1025,0 hPa 0,0 l/m 16,1 km/h (3 Bft) N-NW 337 0 min 0,000 mm 0,0 UV-I 0 W/m 10,3 C 20,8 C 16,1 km/h (3 Bft) 100,00 %
09.08.2022 22:33 20,8 C 51 % 1024,9 hPa 0,0 l/m 16,1 km/h (3 Bft) N-NW 337 0 min 0,000 mm 0,0 UV-I 0 W/m 10,3 C 20,8 C 19,3 km/h (3 Bft) 100,00 %
09.08.2022 22:32 20,8 C 51 % 1025,0 hPa 0,0 l/m 14,5 km/h (3 Bft) N-NW 337 0 min 0,000 mm 0,0 UV-I 0 W/m 10,3 C 20,8 C 17,7 km/h (3 Bft) 100,00 %
09.08.2022 22:31 20,8 C 51 % 1024,9 hPa 0,0 l/m 12,9 km/h (3 Bft) N-NW 337 0 min 0,000 mm 0,0 UV-I 0 W/m 10,3 C 20,8 C 17,7 km/h (3 Bft) 100,00 %
09.08.2022 22:30 20,8 C 51 % 1024,9 hPa 0,0 l/m 14,5 km/h (3 Bft) N-NW 337 0 min 0,000 mm 0,0 UV-I 0 W/m 10,3 C 20,8 C 17,7 km/h (3 Bft) 100,00 %
09.08.2022 22:29 20,8 C 51 % 1024,9 hPa 0,0 l/m 14,5 km/h (3 Bft) N-NW 337 0 min 0,000 mm 0,0 UV-I 0 W/m 10,3 C 20,8 C 17,7 km/h (3 Bft) 100,00 %
09.08.2022 22:28 20,8 C 51 % 1024,9 hPa 0,0 l/m 16,1 km/h (3 Bft) N-NW 337 0 min 0,000 mm 0,0 UV-I 0 W/m 10,3 C 20,8 C 17,7 km/h (3 Bft) 100,00 %
09.08.2022 22:27 20,8 C 51 % 1024,9 hPa 0,0 l/m 14,5 km/h (3 Bft) N-NW 337 0 min 0,000 mm 0,0 UV-I 0 W/m 10,3 C 20,8 C 17,7 km/h (3 Bft) 100,00 %
09.08.2022 22:26 20,8 C 51 % 1024,9 hPa 0,0 l/m 14,5 km/h (3 Bft) N-NW 337 0 min 0,000 mm 0,0 UV-I 0 W/m 10,3 C 20,8 C 17,7 km/h (3 Bft) 100,00 %
09.08.2022 22:25 20,8 C 51 % 1024,9 hPa 0,0 l/m 14,5 km/h (3 Bft) N-NW 337 0 min 0,000 mm 0,0 UV-I 0 W/m 10,3 C 20,8 C 16,1 km/h (3 Bft) 100,00 %
09.08.2022 22:24 20,8 C 51 % 1024,8 hPa 0,0 l/m 16,1 km/h (3 Bft) N-NW 337 0 min 0,000 mm 0,0 UV-I 0 W/m 10,3 C 20,8 C 17,7 km/h (3 Bft) 100,00 %
09.08.2022 22:23 20,8 C 51 % 1024,9 hPa 0,0 l/m 16,1 km/h (3 Bft) N-NW 337 0 min 0,000 mm 0,0 UV-I 0 W/m 10,3 C 20,8 C 17,7 km/h (3 Bft) 100,00 %
09.08.2022 22:22 20,8 C 51 % 1024,9 hPa 0,0 l/m 14,5 km/h (3 Bft) N-NW 337 0 min 0,000 mm 0,0 UV-I 0 W/m 10,3 C 20,8 C 17,7 km/h (3 Bft) 100,00 %
09.08.2022 22:21 20,8 C 51 % 1024,8 hPa 0,0 l/m 14,5 km/h (3 Bft) N-NW 337 0 min 0,000 mm 0,0 UV-I 0 W/m 10,3 C 20,8 C 16,1 km/h (3 Bft) 100,00 %
09.08.2022 22:20 20,9 C 51 % 1024,9 hPa 0,0 l/m 14,5 km/h (3 Bft) N-NW 337 0 min 0,000 mm 0,0 UV-I 0 W/m 10,4 C 20,9 C 17,7 km/h (3 Bft) 95,65 %
09.08.2022 22:19 20,9 C 51 % 1024,8 hPa 0,0 l/m 14,5 km/h (3 Bft) N-NW 337 0 min 0,000 mm 0,0 UV-I 0 W/m 10,4 C 20,9 C 16,1 km/h (3 Bft) 100,00 %
09.08.2022 22:18 20,9 C 51 % 1024,9 hPa 0,0 l/m 14,5 km/h (3 Bft) N-NW 337 0 min 0,000 mm 0,0 UV-I 0 W/m 10,4 C 20,9 C 16,1 km/h (3 Bft) 100,00 %
09.08.2022 22:17 20,9 C 51 % 1024,9 hPa 0,0 l/m 14,5 km/h (3 Bft) N-NW 337 0 min 0,000 mm 0,0 UV-I 0 W/m 10,4 C 20,9 C 16,1 km/h (3 Bft) 100,00 %
09.08.2022 22:16 20,9 C 51 % 1024,9 hPa 0,0 l/m 14,5 km/h (3 Bft) N-NW 337 0 min 0,000 mm 0,0 UV-I 0 W/m 10,4 C 20,9 C 16,1 km/h (3 Bft) 100,00 %
09.08.2022 22:15 20,9 C 51 % 1024,9 hPa 0,0 l/m 12,9 km/h (3 Bft) N-NW 337 0 min 0,000 mm 0,0 UV-I 0 W/m 10,4 C 20,9 C 16,1 km/h (3 Bft) 100,00 %
09.08.2022 22:14 20,9 C 51 % 1024,9 hPa 0,0 l/m 12,9 km/h (3 Bft) N-NW 337 0 min 0,000 mm 0,0 UV-I 0 W/m 10,4 C 20,9 C 14,5 km/h (3 Bft) 95,65 %
09.08.2022 22:13 21,0 C 51 % 1024,9 hPa 0,0 l/m 14,5 km/h (3 Bft) N-NW 337 0 min 0,000 mm 0,0 UV-I 0 W/m 10,5 C 21,0 C 16,1 km/h (3 Bft) 100,00 %
09.08.2022 22:12 21,0 C 50 % 1025,0 hPa 0,0 l/m 14,5 km/h (3 Bft) N-NW 337 0 min 0,000 mm 0,0 UV-I 0 W/m 10,2 C 21,0 C 17,7 km/h (3 Bft) 100,00 %
09.08.2022 22:11 21,0 C 51 % 1024,9 hPa 0,0 l/m 12,9 km/h (3 Bft) N-NW 337 0 min 0,000 mm 0,0 UV-I 0 W/m 10,5 C 21,0 C 16,1 km/h (3 Bft) 100,00 %
09.08.2022 22:10 21,1 C 50 % 1024,9 hPa 0,0 l/m 14,5 km/h (3 Bft) N-NW 337 0 min 0,000 mm 0,0 UV-I 0 W/m 10,3 C 21,1 C 16,1 km/h (3 Bft) 100,00 %
09.08.2022 22:09 21,1 C 50 % 1025,0 hPa 0,0 l/m 16,1 km/h (3 Bft) N-NW 337 0 min 0,000 mm 0,0 UV-I 0 W/m 10,3 C 21,1 C 19,3 km/h (3 Bft) 100,00 %
09.08.2022 22:08 21,1 C 51 % 1024,9 hPa 0,0 l/m 12,9 km/h (3 Bft) N-NW 337 0 min 0,000 mm 0,0 UV-I 0 W/m 10,6 C 21,1 C 14,5 km/h (3 Bft) 100,00 %
09.08.2022 22:07 21,1 C 50 % 1024,9 hPa 0,0 l/m 11,3 km/h (2 Bft) N-NW 337 0 min 0,000 mm 0,0 UV-I 0 W/m 10,3 C 21,1 C 14,5 km/h (3 Bft) 100,00 %
09.08.2022 22:06 21,1 C 50 % 1024,9 hPa 0,0 l/m 12,9 km/h (3 Bft) N-NW 337 0 min 0,000 mm 0,0 UV-I 0 W/m 10,3 C 21,1 C 16,1 km/h (3 Bft) 100,00 %
09.08.2022 22:05 21,1 C 50 % 1024,9 hPa 0,0 l/m 14,5 km/h (3 Bft) N-NW 337 0 min 0,000 mm 0,0 UV-I 0 W/m 10,3 C 21,1 C 17,7 km/h (3 Bft) 100,00 %
09.08.2022 22:04 21,1 C 50 % 1025,0 hPa 0,0 l/m 12,9 km/h (3 Bft) N-NW 337 0 min 0,000 mm 0,0 UV-I 0 W/m 10,3 C 21,1 C 14,5 km/h (3 Bft) 100,00 %
09.08.2022 22:03 21,1 C 50 % 1024,9 hPa 0,0 l/m 12,9 km/h (3 Bft) N-NW 337 0 min 0,000 mm 0,0 UV-I 0 W/m 10,3 C 21,1 C 14,5 km/h (3 Bft) 100,00 %
09.08.2022 22:02 21,2 C 50 % 1024,9 hPa 0,0 l/m 14,5 km/h (3 Bft) N-NW 337 0 min 0,000 mm 0,0 UV-I 0 W/m 10,4 C 21,2 C 17,7 km/h (3 Bft) 100,00 %
09.08.2022 22:01 21,2 C 50 % 1024,9 hPa 0,0 l/m 14,5 km/h (3 Bft) N-NW 337 0 min 0,000 mm 0,0 UV-I 0 W/m 10,4 C 21,2 C 17,7 km/h (3 Bft) 95,65 %
09.08.2022 22:00 21,2 C 50 % 1024,9 hPa 0,0 l/m 14,5 km/h (3 Bft) N-NW 337 0 min 0,102 mm 0,0 UV-I 0 W/m 10,4 C 21,2 C 17,7 km/h (3 Bft) 100,00 %
09.08.2022 21:59 21,2 C 50 % 1025,0 hPa 0,0 l/m 12,9 km/h (3 Bft) N-NW 337 0 min 0,000 mm 0,0 UV-I 0 W/m 10,4 C 21,2 C 16,1 km/h (3 Bft) 100,00 %
09.08.2022 21:58 21,2 C 50 % 1024,9 hPa 0,0 l/m 16,1 km/h (3 Bft) N-NW 337 0 min 0,000 mm 0,0 UV-I 0 W/m 10,4 C 21,2 C 19,3 km/h (3 Bft) 100,00 %
09.08.2022 21:57 21,2 C 50 % 1024,9 hPa 0,0 l/m 14,5 km/h (3 Bft) N-NW 337 0 min 0,000 mm 0,0 UV-I 0 W/m 10,4 C 21,2 C 16,1 km/h (3 Bft) 100,00 %
09.08.2022 21:56 21,2 C 50 % 1024,9 hPa 0,0 l/m 14,5 km/h (3 Bft) N-NW 337 0 min 0,000 mm 0,0 UV-I 0 W/m 10,4 C 21,2 C 17,7 km/h (3 Bft) 100,00 %
09.08.2022 21:55 21,2 C 50 % 1024,8 hPa 0,0 l/m 14,5 km/h (3 Bft) N-NW 337 0 min 0,000 mm 0,0 UV-I 0 W/m 10,4 C 21,2 C 16,1 km/h (3 Bft) 100,00 %
09.08.2022 21:54 21,2 C 50 % 1024,9 hPa 0,0 l/m 16,1 km/h (3 Bft) N-NW 337 0 min 0,000 mm 0,0 UV-I 0 W/m 10,4 C 21,2 C 17,7 km/h (3 Bft) 95,65 %
09.08.2022 21:53 21,3 C 50 % 1024,8 hPa 0,0 l/m 14,5 km/h (3 Bft) N-NW 337 0 min 0,000 mm 0,0 UV-I 0 W/m 10,4 C 21,3 C 17,7 km/h (3 Bft) 100,00 %
09.08.2022 21:52 21,3 C 50 % 1024,8 hPa 0,0 l/m 14,5 km/h (3 Bft) N-NW 337 0 min 0,000 mm 0,0 UV-I 0 W/m 10,4 C 21,3 C 16,1 km/h (3 Bft) 100,00 %
09.08.2022 21:51 21,3 C 50 % 1024,9 hPa 0,0 l/m 14,5 km/h (3 Bft) N-NW 337 0 min 0,000 mm 0,0 UV-I 0 W/m 10,4 C 21,3 C 16,1 km/h (3 Bft) 100,00 %
09.08.2022 21:50 21,3 C 50 % 1024,9 hPa 0,0 l/m 16,1 km/h (3 Bft) N-NW 337 0 min 0,000 mm 0,0 UV-I 0 W/m 10,4 C 21,3 C 17,7 km/h (3 Bft) 100,00 %
09.08.2022 21:49 21,3 C 50 % 1024,8 hPa 0,0 l/m 12,9 km/h (3 Bft) N-NW 337 0 min 0,000 mm 0,0 UV-I 0 W/m 10,4 C 21,3 C 16,1 km/h (3 Bft) 100,00 %
09.08.2022 21:48 21,3 C 49 % 1024,8 hPa 0,0 l/m 12,9 km/h (3 Bft) N-NW 337 0 min 0,000 mm 0,0 UV-I 0 W/m 10,1 C 21,3 C 16,1 km/h (3 Bft) 100,00 %
09.08.2022 21:47 21,4 C 49 % 1024,8 hPa 0,0 l/m 14,5 km/h (3 Bft) N-NW 337 0 min 0,000 mm 0,0 UV-I 0 W/m 10,2 C 21,4 C 17,7 km/h (3 Bft) 100,00 %
09.08.2022 21:46 21,4 C 49 % 1024,8 hPa 0,0 l/m 14,5 km/h (3 Bft) N-NW 337 0 min 0,000 mm 0,0 UV-I 0 W/m 10,2 C 21,4 C 17,7 km/h (3 Bft) 100,00 %
09.08.2022 21:45 21,4 C 49 % 1024,9 hPa 0,0 l/m 12,9 km/h (3 Bft) N 360 0 min 0,000 mm 0,0 UV-I 0 W/m 10,2 C 21,4 C 16,1 km/h (3 Bft) 100,00 %
09.08.2022 21:44 21,4 C 49 % 1024,8 hPa 0,0 l/m 14,5 km/h (3 Bft) N 360 0 min 0,000 mm 0,0 UV-I 0 W/m 10,2 C 21,4 C 17,7 km/h (3 Bft) 100,00 %
09.08.2022 21:43 21,4 C 49 % 1024,8 hPa 0,0 l/m 16,1 km/h (3 Bft) N 360 0 min 0,000 mm 0,0 UV-I 0 W/m 10,2 C 21,4 C 19,3 km/h (3 Bft) 100,00 %
09.08.2022 21:42 21,4 C 49 % 1024,9 hPa 0,0 l/m 12,9 km/h (3 Bft) N-NW 337 0 min 0,000 mm 0,0 UV-I 0 W/m 10,2 C 21,4 C 14,5 km/h (3 Bft) 100,00 %
09.08.2022 21:41 21,4 C 49 % 1024,8 hPa 0,0 l/m 16,1 km/h (3 Bft) N-NW 337 0 min 0,000 mm 0,0 UV-I 0 W/m 10,2 C 21,4 C 17,7 km/h (3 Bft) 100,00 %
09.08.2022 21:40 21,4 C 49 % 1024,8 hPa 0,0 l/m 12,9 km/h (3 Bft) N-NW 337 0 min 0,000 mm 0,0 UV-I 0 W/m 10,2 C 21,4 C 16,1 km/h (3 Bft) 95,65 %
09.08.2022 21:39 21,4 C 49 % 1024,8 hPa 0,0 l/m 11,3 km/h (2 Bft) N-NW 337 0 min 0,000 mm 0,0 UV-I 0 W/m 10,2 C 21,4 C 12,9 km/h (3 Bft) 100,00 %
09.08.2022 21:38 21,5 C 49 % 1024,8 hPa 0,0 l/m 12,9 km/h (3 Bft) N-NW 337 0 min 0,000 mm 0,0 UV-I 0 W/m 10,3 C 21,5 C 14,5 km/h (3 Bft) 100,00 %
09.08.2022 21:37 21,6 C 49 % 1024,9 hPa 0,0 l/m 12,9 km/h (3 Bft) N-NW 337 0 min 0,000 mm 0,0 UV-I 0 W/m 10,4 C 21,6 C 16,1 km/h (3 Bft) 100,00 %
09.08.2022 21:36 21,6 C 49 % 1024,7 hPa 0,0 l/m 11,3 km/h (2 Bft) N-NW 337 0 min 0,000 mm 0,0 UV-I 0 W/m 10,4 C 21,6 C 14,5 km/h (3 Bft) 100,00 %
09.08.2022 21:35 21,6 C 48 % 1024,8 hPa 0,0 l/m 16,1 km/h (3 Bft) N-NW 337 0 min 0,000 mm 0,0 UV-I 0 W/m 10,1 C 21,6 C 17,7 km/h (3 Bft) 100,00 %
09.08.2022 21:34 21,6 C 49 % 1024,8 hPa 0,0 l/m 11,3 km/h (2 Bft) N-NW 337 0 min 0,000 mm 0,0 UV-I 0 W/m 10,4 C 21,6 C 14,5 km/h (3 Bft) 100,00 %
09.08.2022 21:33 21,6 C 48 % 1024,8 hPa 0,0 l/m 12,9 km/h (3 Bft) N-NW 337 0 min 0,000 mm 0,0 UV-I 0 W/m 10,1 C 21,6 C 16,1 km/h (3 Bft) 95,65 %
09.08.2022 21:32 21,6 C 49 % 1024,8 hPa 0,0 l/m 12,9 km/h (3 Bft) N-NW 337 0 min 0,000 mm 0,0 UV-I 0 W/m 10,4 C 21,6 C 14,5 km/h (3 Bft) 100,00 %
09.08.2022 21:31 21,7 C 49 % 1024,8 hPa 0,0 l/m 12,9 km/h (3 Bft) N-NW 337 0 min 0,000 mm 0,0 UV-I 0 W/m 10,5 C 21,7 C 14,5 km/h (3 Bft) 100,00 %
09.08.2022 21:30 21,7 C 48 % 1024,8 hPa 0,0 l/m 12,9 km/h (3 Bft) N-NW 337 0 min 0,000 mm 0,0 UV-I 0 W/m 10,2 C 21,7 C 16,1 km/h (3 Bft) 100,00 %
09.08.2022 21:29 21,7 C 48 % 1024,8 hPa 0,0 l/m 12,9 km/h (3 Bft) N-NW 337 0 min 0,000 mm 0,0 UV-I 0 W/m 10,2 C 21,7 C 16,1 km/h (3 Bft) 100,00 %
09.08.2022 21:28 21,7 C 48 % 1024,8 hPa 0,0 l/m 11,3 km/h (2 Bft) N-NW 337 0 min 0,000 mm 0,0 UV-I 0 W/m 10,2 C 21,7 C 14,5 km/h (3 Bft) 95,65 %
09.08.2022 21:27 21,7 C 48 % 1024,8 hPa 0,0 l/m 14,5 km/h (3 Bft) N-NW 337 0 min 0,000 mm 0,0 UV-I 0 W/m 10,2 C 21,7 C 17,7 km/h (3 Bft) 100,00 %
09.08.2022 21:26 21,7 C 48 % 1024,8 hPa 0,0 l/m 12,9 km/h (3 Bft) N-NW 337 0 min 0,000 mm 0,0 UV-I 0 W/m 10,2 C 21,7 C 16,1 km/h (3 Bft) 100,00 %
09.08.2022 21:25 21,8 C 48 % 1024,8 hPa 0,0 l/m 12,9 km/h (3 Bft) N-NW 337 0 min 0,000 mm 0,0 UV-I 0 W/m 10,3 C 21,8 C 14,5 km/h (3 Bft) 100,00 %
09.08.2022 21:24 21,8 C 48 % 1024,9 hPa 0,0 l/m 12,9 km/h (3 Bft) N-NW 337 0 min 0,000 mm 0,0 UV-I 0 W/m 10,3 C 21,8 C 16,1 km/h (3 Bft) 100,00 %
09.08.2022 21:23 21,8 C 48 % 1024,8 hPa 0,0 l/m 14,5 km/h (3 Bft) N-NW 337 0 min 0,000 mm 0,0 UV-I 0 W/m 10,3 C 21,8 C 16,1 km/h (3 Bft) 100,00 %
09.08.2022 21:22 21,8 C 48 % 1024,9 hPa 0,0 l/m 11,3 km/h (2 Bft) N-NW 337 0 min 0,000 mm 0,0 UV-I 0 W/m 10,3 C 21,8 C 14,5 km/h (3 Bft) 100,00 %
09.08.2022 21:21 21,8 C 48 % 1024,9 hPa 0,0 l/m 11,3 km/h (2 Bft) N-NW 337 0 min 0,000 mm 0,0 UV-I 0 W/m 10,3 C 21,8 C 12,9 km/h (3 Bft) 100,00 %
09.08.2022 21:20 21,8 C 48 % 1024,9 hPa 0,0 l/m 11,3 km/h (2 Bft) N-NW 337 0 min 0,000 mm 0,0 UV-I 0 W/m 10,3 C 21,8 C 14,5 km/h (3 Bft) 95,65 %
09.08.2022 21:19 21,8 C 48 % 1024,9 hPa 0,0 l/m 11,3 km/h (2 Bft) N-NW 337 0 min 0,000 mm 0,0 UV-I 0 W/m 10,3 C 21,8 C 14,5 km/h (3 Bft) 100,00 %
09.08.2022 21:18 21,9 C 48 % 1024,9 hPa 0,0 l/m 11,3 km/h (2 Bft) N-NW 337 0 min 0,000 mm 0,0 UV-I 0 W/m 10,4 C 21,9 C 14,5 km/h (3 Bft) 95,65 %
09.08.2022 21:17 21,9 C 48 % 1024,9 hPa 0,0 l/m 14,5 km/h (3 Bft) N-NW 337 0 min 0,000 mm 0,0 UV-I 0 W/m 10,4 C 21,9 C 17,7 km/h (3 Bft) 100,00 %
09.08.2022 21:16 21,9 C 48 % 1024,9 hPa 0,0 l/m 11,3 km/h (2 Bft) N-NW 337 0 min 0,000 mm 0,0 UV-I 0 W/m 10,4 C 21,9 C 14,5 km/h (3 Bft) 91,30 %
09.08.2022 21:15 21,9 C 48 % 1024,8 hPa 0,0 l/m 12,9 km/h (3 Bft) N-NW 337 0 min 0,000 mm 0,0 UV-I 0 W/m 10,4 C 21,9 C 16,1 km/h (3 Bft) 100,00 %
09.08.2022 21:14 21,9 C 48 % 1024,9 hPa 0,0 l/m 12,9 km/h (3 Bft) N-NW 337 0 min 0,000 mm 0,0 UV-I 0 W/m 10,4 C 21,9 C 14,5 km/h (3 Bft) 100,00 %
09.08.2022 21:13 21,9 C 48 % 1024,9 hPa 0,0 l/m 12,9 km/h (3 Bft) N-NW 337 0 min 0,000 mm 0,0 UV-I 0 W/m 10,4 C 21,9 C 14,5 km/h (3 Bft) 100,00 %
09.08.2022 21:12 21,9 C 48 % 1024,8 hPa 0,0 l/m 11,3 km/h (2 Bft) N-NW 337 0 min 0,000 mm 0,0 UV-I 0 W/m 10,4 C 21,9 C 14,5 km/h (3 Bft) 100,00 %
09.08.2022 21:11 22,0 C 48 % 1024,8 hPa 0,0 l/m 14,5 km/h (3 Bft) N-NW 337 0 min 0,000 mm 0,0 UV-I 0 W/m 10,5 C 22,0 C 17,7 km/h (3 Bft) 100,00 %
09.08.2022 21:10 21,9 C 47 % 1024,8 hPa 0,0 l/m 14,5 km/h (3 Bft) N-NW 337 0 min 0,000 mm 0,0 UV-I 0 W/m 10,1 C 21,9 C 17,7 km/h (3 Bft) 100,00 %
09.08.2022 21:09 22,0 C 48 % 1024,8 hPa 0,0 l/m 11,3 km/h (2 Bft) N-NW 337 0 min 0,000 mm 0,0 UV-I 0 W/m 10,5 C 22,0 C 16,1 km/h (3 Bft) 91,30 %
09.08.2022 21:08 21,9 C 48 % 1024,7 hPa 0,0 l/m 12,9 km/h (3 Bft) N-NW 337 0 min 0,000 mm 0,0 UV-I 0 W/m 10,4 C 21,9 C 14,5 km/h (3 Bft) 100,00 %
09.08.2022 21:07 22,0 C 47 % 1024,7 hPa 0,0 l/m 16,1 km/h (3 Bft) N-NW 337 0 min 0,000 mm 0,0 UV-I 0 W/m 10,2 C 22,0 C 17,7 km/h (3 Bft) 100,00 %
09.08.2022 21:06 22,0 C 48 % 1024,8 hPa 0,0 l/m 12,9 km/h (3 Bft) N-NW 337 0 min 0,000 mm 0,0 UV-I 0 W/m 10,5 C 22,0 C 17,7 km/h (3 Bft) 95,65 %
09.08.2022 21:05 22,0 C 48 % 1024,7 hPa 0,0 l/m 11,3 km/h (2 Bft) N-NW 337 0 min 0,000 mm 0,0 UV-I 0 W/m 10,5 C 22,0 C 16,1 km/h (3 Bft) 100,00 %
09.08.2022 21:04 22,1 C 48 % 1024,8 hPa 0,0 l/m 9,7 km/h (2 Bft) N-NW 337 0 min 0,000 mm 0,0 UV-I 0 W/m 10,6 C 22,1 C 12,9 km/h (3 Bft) 100,00 %
09.08.2022 21:03 22,1 C 48 % 1024,8 hPa 0,0 l/m 8,0 km/h (2 Bft) N-NW 337 0 min 0,000 mm 0,0 UV-I 0 W/m 10,6 C 22,1 C 9,7 km/h (2 Bft) 100,00 %
09.08.2022 21:02 22,0 C 47 % 1024,7 hPa 0,0 l/m 11,3 km/h (2 Bft) N-NW 337 0 min 0,000 mm 0,0 UV-I 0 W/m 10,2 C 22,0 C 14,5 km/h (3 Bft) 100,00 %
09.08.2022 21:01 22,1 C 47 % 1024,6 hPa 0,0 l/m 11,3 km/h (2 Bft) N-NW 337 0 min 0,000 mm 0,0 UV-I 0 W/m 10,3 C 22,1 C 12,9 km/h (3 Bft) 100,00 %
09.08.2022 21:00 22,1 C 47 % 1024,6 hPa 0,0 l/m 9,7 km/h (2 Bft) N-NW 337 0 min 0,076 mm 0,0 UV-I 0 W/m 10,3 C 22,1 C 12,9 km/h (3 Bft) 100,00 %
09.08.2022 20:59 22,1 C 47 % 1024,6 hPa 0,0 l/m 11,3 km/h (2 Bft) N-NW 337 0 min 0,000 mm 0,0 UV-I 0 W/m 10,3 C 22,1 C 14,5 km/h (3 Bft) 100,00 %
09.08.2022 20:58 22,1 C 47 % 1024,6 hPa 0,0 l/m 12,9 km/h (3 Bft) N-NW 337 0 min 0,000 mm 0,0 UV-I 0 W/m 10,3 C 22,1 C 14,5 km/h (3 Bft) 100,00 %
09.08.2022 20:57 22,1 C 48 % 1024,6 hPa 0,0 l/m 9,7 km/h (2 Bft) N-NW 337 0 min 0,000 mm 0,0 UV-I 0 W/m 10,6 C 22,1 C 14,5 km/h (3 Bft) 100,00 %
09.08.2022 20:56 22,1 C 47 % 1024,4 hPa 0,0 l/m 11,3 km/h (2 Bft) N-NW 337 0 min 0,000 mm 0,0 UV-I 0 W/m 10,3 C 22,1 C 14,5 km/h (3 Bft) 100,00 %
09.08.2022 20:55 22,1 C 47 % 1024,6 hPa 0,0 l/m 12,9 km/h (3 Bft) N-NW 337 0 min 0,000 mm 0,0 UV-I 0 W/m 10,3 C 22,1 C 17,7 km/h (3 Bft) 100,00 %
09.08.2022 20:54 22,1 C 48 % 1024,4 hPa 0,0 l/m 11,3 km/h (2 Bft) N-NW 337 0 min 0,000 mm 0,0 UV-I 0 W/m 10,6 C 22,1 C 12,9 km/h (3 Bft) 100,00 %
09.08.2022 20:53 22,1 C 47 % 1024,4 hPa 0,0 l/m 12,9 km/h (3 Bft) NW 315 0 min 0,000 mm 0,0 UV-I 0 W/m 10,3 C 22,1 C 16,1 km/h (3 Bft) 100,00 %
09.08.2022 20:52 22,1 C 48 % 1024,4 hPa 0,0 l/m 9,7 km/h (2 Bft) N-NW 337 0 min 0,000 mm 0,0 UV-I 0 W/m 10,6 C 22,1 C 14,5 km/h (3 Bft) 100,00 %
09.08.2022 20:51 22,1 C 47 % 1024,3 hPa 0,0 l/m 8,0 km/h (2 Bft) N-NW 337 0 min 0,000 mm 0,0 UV-I 0 W/m 10,3 C 22,1 C 9,7 km/h (2 Bft) 100,00 %
09.08.2022 20:50 22,2 C 47 % 1024,2 hPa 0,0 l/m 12,9 km/h (3 Bft) N-NW 337 0 min 0,000 mm 0,0 UV-I 0 W/m 10,3 C 22,2 C 14,5 km/h (3 Bft) 100,00 %
09.08.2022 20:49 22,2 C 47 % 1024,2 hPa 0,0 l/m 11,3 km/h (2 Bft) N 360 0 min 0,000 mm 0,0 UV-I 0 W/m 10,3 C 22,2 C 14,5 km/h (3 Bft) 100,00 %
09.08.2022 20:48 22,2 C 47 % 1024,2 hPa 0,0 l/m 9,7 km/h (2 Bft) N-NW 337 0 min 0,000 mm 0,0 UV-I 0 W/m 10,3 C 22,2 C 14,5 km/h (3 Bft) 100,00 %
09.08.2022 20:47 22,2 C 47 % 1024,2 hPa 0,0 l/m 8,0 km/h (2 Bft) N-NW 337 0 min 0,000 mm 0,0 UV-I 0 W/m 10,3 C 22,2 C 9,7 km/h (2 Bft) 100,00 %
09.08.2022 20:46 22,2 C 47 % 1024,2 hPa 0,0 l/m 9,7 km/h (2 Bft) N-NW 337 0 min 0,000 mm 0,0 UV-I 0 W/m 10,3 C 22,2 C 12,9 km/h (3 Bft) 100,00 %
09.08.2022 20:45 22,2 C 47 % 1024,2 hPa 0,0 l/m 9,7 km/h (2 Bft) N-NW 337 0 min 0,000 mm 0,0 UV-I 0 W/m 10,3 C 22,2 C 12,9 km/h (3 Bft) 95,65 %
09.08.2022 20:44 22,2 C 47 % 1024,1 hPa 0,0 l/m 8,0 km/h (2 Bft) N-NW 337 0 min 0,000 mm 0,0 UV-I 0 W/m 10,3 C 22,2 C 12,9 km/h (3 Bft) 100,00 %
09.08.2022 20:43 22,2 C 47 % 1024,2 hPa 0,0 l/m 9,7 km/h (2 Bft) N 360 0 min 0,000 mm 0,0 UV-I 0 W/m 10,3 C 22,2 C 12,9 km/h (3 Bft) 100,00 %
09.08.2022 20:42 22,2 C 47 % 1024,1 hPa 0,0 l/m 12,9 km/h (3 Bft) N-NW 337 0 min 0,000 mm 0,0 UV-I 0 W/m 10,3 C 22,2 C 16,1 km/h (3 Bft) 100,00 %
09.08.2022 20:41 22,2 C 47 % 1024,0 hPa 0,0 l/m 12,9 km/h (3 Bft) N-NW 337 0 min 0,000 mm 0,0 UV-I 0 W/m 10,3 C 22,2 C 16,1 km/h (3 Bft) 100,00 %
09.08.2022 20:40 22,2 C 47 % 1024,1 hPa 0,0 l/m 12,9 km/h (3 Bft) N-NW 337 0 min 0,000 mm 0,0 UV-I 0 W/m 10,3 C 22,2 C 16,1 km/h (3 Bft) 100,00 %
09.08.2022 20:39 22,2 C 47 % 1024,0 hPa 0,0 l/m 12,9 km/h (3 Bft) N-NW 337 0 min 0,000 mm 0,0 UV-I 0 W/m 10,3 C 22,2 C 16,1 km/h (3 Bft) 100,00 %
09.08.2022 20:38 22,3 C 47 % 1024,0 hPa 0,0 l/m 9,7 km/h (2 Bft) N-NW 337 0 min 0,000 mm 0,0 UV-I 0 W/m 10,4 C 22,3 C 12,9 km/h (3 Bft) 100,00 %
09.08.2022 20:37 22,3 C 47 % 1024,1 hPa 0,0 l/m 9,7 km/h (2 Bft) N-NW 337 0 min 0,000 mm 0,0 UV-I 0 W/m 10,4 C 22,3 C 12,9 km/h (3 Bft) 100,00 %
09.08.2022 20:36 22,3 C 47 % 1024,1 hPa 0,0 l/m 9,7 km/h (2 Bft) N-NW 337 0 min 0,000 mm 0,0 UV-I 0 W/m 10,4 C 22,3 C 14,5 km/h (3 Bft) 100,00 %
09.08.2022 20:35 22,3 C 47 % 1024,0 hPa 0,0 l/m 11,3 km/h (2 Bft) N-NW 337 0 min 0,000 mm 0,0 UV-I 0 W/m 10,4 C 22,3 C 14,5 km/h (3 Bft) 100,00 %
09.08.2022 20:34 22,3 C 47 % 1024,2 hPa 0,0 l/m 12,9 km/h (3 Bft) N-NW 337 0 min 0,000 mm 0,0 UV-I 0 W/m 10,4 C 22,3 C 14,5 km/h (3 Bft) 100,00 %
09.08.2022 20:33 22,4 C 47 % 1024,2 hPa 0,0 l/m 11,3 km/h (2 Bft) N-NW 337 0 min 0,000 mm 0,0 UV-I 0 W/m 10,5 C 22,4 C 14,5 km/h (3 Bft) 100,00 %
09.08.2022 20:32 22,4 C 47 % 1024,1 hPa 0,0 l/m 11,3 km/h (2 Bft) N-NW 337 0 min 0,000 mm 0,0 UV-I 0 W/m 10,5 C 22,4 C 14,5 km/h (3 Bft) 100,00 %
09.08.2022 20:31 22,4 C 47 % 1024,1 hPa 0,0 l/m 12,9 km/h (3 Bft) N-NW 337 0 min 0,000 mm 0,0 UV-I 0 W/m 10,5 C 22,4 C 16,1 km/h (3 Bft) 100,00 %
09.08.2022 20:30 22,4 C 47 % 1024,2 hPa 0,0 l/m 11,3 km/h (2 Bft) N-NW 337 0 min 0,000 mm 0,0 UV-I 0 W/m 10,5 C 22,4 C 14,5 km/h (3 Bft) 95,65 %
09.08.2022 20:29 22,4 C 47 % 1024,1 hPa 0,0 l/m 11,3 km/h (2 Bft) N-NW 337 0 min 0,000 mm 0,0 UV-I 5 W/m 10,5 C 22,4 C 12,9 km/h (3 Bft) 100,00 %
09.08.2022 20:28 22,4 C 47 % 1024,1 hPa 0,0 l/m 11,3 km/h (2 Bft) N-NW 337 0 min 0,000 mm 0,0 UV-I 5 W/m 10,5 C 22,4 C 14,5 km/h (3 Bft) 91,30 %
09.08.2022 20:27 22,4 C 47 % 1024,1 hPa 0,0 l/m 11,3 km/h (2 Bft) N-NW 337 0 min 0,000 mm 0,0 UV-I 5 W/m 10,5 C 22,4 C 14,5 km/h (3 Bft) 100,00 %
09.08.2022 20:26 22,4 C 47 % 1024,1 hPa 0,0 l/m 9,7 km/h (2 Bft) N-NW 337 0 min 0,000 mm 0,0 UV-I 5 W/m 10,5 C 22,4 C 14,5 km/h (3 Bft) 100,00 %
09.08.2022 20:25 22,4 C 47 % 1024,1 hPa 0,0 l/m 9,7 km/h (2 Bft) N-NW 337 0 min 0,000 mm 0,0 UV-I 5 W/m 10,5 C 22,4 C 14,5 km/h (3 Bft) 100,00 %
09.08.2022 20:24 22,4 C 47 % 1024,1 hPa 0,0 l/m 9,7 km/h (2 Bft) N-NW 337 0 min 0,000 mm 0,0 UV-I 5 W/m 10,5 C 22,4 C 12,9 km/h (3 Bft) 100,00 %
09.08.2022 20:23 22,4 C 47 % 1024,1 hPa 0,0 l/m 9,7 km/h (2 Bft) N-NW 337 0 min 0,000 mm 0,0 UV-I 5 W/m 10,5 C 22,4 C 12,9 km/h (3 Bft) 100,00 %
09.08.2022 20:22 22,4 C 47 % 1024,1 hPa 0,0 l/m 9,7 km/h (2 Bft) N-NW 337 0 min 0,000 mm 0,0 UV-I 7 W/m 10,5 C 22,4 C 14,5 km/h (3 Bft) 100,00 %
09.08.2022 20:21 22,5 C 46 % 1024,1 hPa 0,0 l/m 11,3 km/h (2 Bft) N-NW 337 0 min 0,000 mm 0,0 UV-I 7 W/m 10,3 C 22,5 C 14,5 km/h (3 Bft) 100,00 %
09.08.2022 20:20 22,4 C 46 % 1024,2 hPa 0,0 l/m 11,3 km/h (2 Bft) N-NW 337 0 min 0,000 mm 0,0 UV-I 7 W/m 10,2 C 22,4 C 14,5 km/h (3 Bft) 100,00 %
09.08.2022 20:19 22,4 C 46 % 1024,1 hPa 0,0 l/m 12,9 km/h (3 Bft) N-NW 337 0 min 0,000 mm 0,0 UV-I 7 W/m 10,2 C 22,4 C 14,5 km/h (3 Bft) 100,00 %
09.08.2022 20:18 22,4 C 46 % 1024,2 hPa 0,0 l/m 12,9 km/h (3 Bft) N-NW 337 0 min 0,000 mm 0,0 UV-I 9 W/m 10,2 C 22,4 C 16,1 km/h (3 Bft) 100,00 %
09.08.2022 20:17 22,4 C 46 % 1024,2 hPa 0,0 l/m 9,7 km/h (2 Bft) N-NW 337 0 min 0,000 mm 0,0 UV-I 9 W/m 10,2 C 22,4 C 12,9 km/h (3 Bft) 100,00 %
09.08.2022 20:16 22,4 C 46 % 1024,1 hPa 0,0 l/m 9,7 km/h (2 Bft) N-NW 337 0 min 0,000 mm 0,0 UV-I 9 W/m 10,2 C 22,4 C 12,9 km/h (3 Bft) 100,00 %
09.08.2022 20:15 22,5 C 46 % 1024,2 hPa 0,0 l/m 11,3 km/h (2 Bft) N-NW 337 0 min 0,000 mm 0,0 UV-I 11 W/m 10,3 C 22,5 C 14,5 km/h (3 Bft) 100,00 %
09.08.2022 20:14 22,5 C 47 % 1024,1 hPa 0,0 l/m 9,7 km/h (2 Bft) N-NW 337 0 min 0,000 mm 0,0 UV-I 11 W/m 10,6 C 22,5 C 14,5 km/h (3 Bft) 100,00 %
09.08.2022 20:13 22,6 C 46 % 1024,0 hPa 0,0 l/m 11,3 km/h (2 Bft) N-NW 337 0 min 0,000 mm 0,0 UV-I 11 W/m 10,4 C 22,6 C 14,5 km/h (3 Bft) 100,00 %
09.08.2022 20:12 22,5 C 47 % 1024,1 hPa 0,0 l/m 9,7 km/h (2 Bft) N-NW 337 0 min 0,000 mm 0,0 UV-I 12 W/m 10,6 C 22,5 C 12,9 km/h (3 Bft) 100,00 %
09.08.2022 20:11 22,5 C 47 % 1024,1 hPa 0,0 l/m 8,0 km/h (2 Bft) N-NW 337 0 min 0,000 mm 0,0 UV-I 12 W/m 10,6 C 22,5 C 9,7 km/h (2 Bft) 100,00 %
09.08.2022 20:10 22,6 C 46 % 1024,0 hPa 0,0 l/m 9,7 km/h (2 Bft) N-NW 337 0 min 0,000 mm 0,0 UV-I 12 W/m 10,4 C 22,6 C 14,5 km/h (3 Bft) 95,65 %
09.08.2022 20:09 22,6 C 47 % 1024,0 hPa 0,0 l/m 11,3 km/h (2 Bft) N-NW 337 0 min 0,000 mm 0,0 UV-I 12 W/m 10,7 C 22,6 C 14,5 km/h (3 Bft) 100,00 %
09.08.2022 20:08 22,5 C 47 % 1024,0 hPa 0,0 l/m 12,9 km/h (3 Bft) N-NW 337 0 min 0,000 mm 0,0 UV-I 12 W/m 10,6 C 22,5 C 14,5 km/h (3 Bft) 95,65 %
09.08.2022 20:07 22,6 C 47 % 1023,9 hPa 0,0 l/m 11,3 km/h (2 Bft) N-NW 337 0 min 0,000 mm 0,0 UV-I 14 W/m 10,7 C 22,6 C 14,5 km/h (3 Bft) 100,00 %
09.08.2022 20:06 22,6 C 47 % 1024,0 hPa 0,0 l/m 11,3 km/h (2 Bft) N-NW 337 0 min 0,000 mm 0,0 UV-I 14 W/m 10,7 C 22,6 C 14,5 km/h (3 Bft) 100,00 %
09.08.2022 20:05 22,6 C 47 % 1024,0 hPa 0,0 l/m 9,7 km/h (2 Bft) N-NW 337 0 min 0,000 mm 0,0 UV-I 14 W/m 10,7 C 22,6 C 12,9 km/h (3 Bft) 100,00 %
09.08.2022 20:04 22,6 C 47 % 1024,0 hPa 0,0 l/m 9,7 km/h (2 Bft) N 360 0 min 0,000 mm 0,0 UV-I 14 W/m 10,7 C 22,6 C 12,9 km/h (3 Bft) 100,00 %
09.08.2022 20:03 22,6 C 47 % 1024,0 hPa 0,0 l/m 9,7 km/h (2 Bft) N-NW 337 0 min 0,000 mm 0,0 UV-I 16 W/m 10,7 C 22,6 C 14,5 km/h (3 Bft) 100,00 %
09.08.2022 20:02 22,6 C 47 % 1024,0 hPa 0,0 l/m 11,3 km/h (2 Bft) N-NW 337 0 min 0,000 mm 0,0 UV-I 16 W/m 10,7 C 22,6 C 12,9 km/h (3 Bft) 100,00 %
09.08.2022 20:01 22,6 C 47 % 1024,1 hPa 0,0 l/m 12,9 km/h (3 Bft) N-NW 337 0 min 0,000 mm 0,0 UV-I 16 W/m 10,7 C 22,6 C 14,5 km/h (3 Bft) 95,65 %
09.08.2022 20:00 22,6 C 47 % 1024,0 hPa 0,0 l/m 11,3 km/h (2 Bft) N 360 0 min 0,076 mm 0,0 UV-I 18 W/m 10,7 C 22,6 C 14,5 km/h (3 Bft) 100,00 %
09.08.2022 19:59 22,6 C 47 % 1024,0 hPa 0,0 l/m 11,3 km/h (2 Bft) N-NW 337 0 min 0,000 mm 0,0 UV-I 18 W/m 10,7 C 22,6 C 12,9 km/h (3 Bft) 100,00 %
09.08.2022 19:58 22,7 C 47 % 1024,0 hPa 0,0 l/m 8,0 km/h (2 Bft) N-NW 337 0 min 0,000 mm 0,0 UV-I 18 W/m 10,8 C 22,7 C 9,7 km/h (2 Bft) 95,65 %
09.08.2022 19:57 22,7 C 47 % 1024,0 hPa 0,0 l/m 8,0 km/h (2 Bft) N-NW 337 0 min 0,000 mm 0,0 UV-I 18 W/m 10,8 C 22,7 C 9,7 km/h (2 Bft) 100,00 %
09.08.2022 19:56 22,7 C 47 % 1024,0 hPa 0,0 l/m 11,3 km/h (2 Bft) N-NW 337 0 min 0,000 mm 0,0 UV-I 18 W/m 10,8 C 22,7 C 14,5 km/h (3 Bft) 95,65 %
09.08.2022 19:55 22,7 C 47 % 1024,0 hPa 0,0 l/m 11,3 km/h (2 Bft) N-NW 337 0 min 0,000 mm 0,0 UV-I 19 W/m 10,8 C 22,7 C 12,9 km/h (3 Bft) 100,00 %
09.08.2022 19:54 22,7 C 47 % 1024,0 hPa 0,0 l/m 9,7 km/h (2 Bft) N-NW 337 0 min 0,000 mm 0,0 UV-I 19 W/m 10,8 C 22,7 C 12,9 km/h (3 Bft) 100,00 %
09.08.2022 19:53 22,7 C 47 % 1024,0 hPa 0,0 l/m 8,0 km/h (2 Bft) N-NW 337 0 min 0,000 mm 0,0 UV-I 21 W/m 10,8 C 22,7 C 12,9 km/h (3 Bft) 100,00 %
09.08.2022 19:52 22,7 C 47 % 1023,9 hPa 0,0 l/m 9,7 km/h (2 Bft) N-NW 337 0 min 0,000 mm 0,0 UV-I 21 W/m 10,8 C 22,7 C 12,9 km/h (3 Bft) 100,00 %
09.08.2022 19:51 22,8 C 47 % 1024,0 hPa 0,0 l/m 8,0 km/h (2 Bft) N-NW 337 0 min 0,000 mm 0,0 UV-I 21 W/m 10,9 C 22,8 C 12,9 km/h (3 Bft) 100,00 %
09.08.2022 19:50 22,8 C 48 % 1024,0 hPa 0,0 l/m 9,7 km/h (2 Bft) N 360 0 min 0,000 mm 0,0 UV-I 21 W/m 11,2 C 22,8 C 12,9 km/h (3 Bft) 100,00 %
09.08.2022 19:49 22,8 C 49 % 1023,9 hPa 0,0 l/m 8,0 km/h (2 Bft) N-NW 337 0 min 0,000 mm 0,0 UV-I 23 W/m 11,5 C 22,8 C 8,0 km/h (2 Bft) 100,00 %
09.08.2022 19:48 22,8 C 48 % 1024,0 hPa 0,0 l/m 8,0 km/h (2 Bft) N-NW 337 0 min 0,000 mm 0,0 UV-I 23 W/m 11,2 C 22,8 C 12,9 km/h (3 Bft) 100,00 %
09.08.2022 19:47 22,9 C 48 % 1024,0 hPa 0,0 l/m 6,4 km/h (2 Bft) NW 315 0 min 0,000 mm 0,0 UV-I 25 W/m 11,3 C 22,9 C 8,0 km/h (2 Bft) 95,65 %
09.08.2022 19:46 22,9 C 48 % 1024,0 hPa 0,0 l/m 9,7 km/h (2 Bft) N-NW 337 0 min 0,000 mm 0,0 UV-I 25 W/m 11,3 C 22,9 C 11,3 km/h (2 Bft) 100,00 %
09.08.2022 19:45 22,9 C 48 % 1024,1 hPa 0,0 l/m 8,0 km/h (2 Bft) N-NW 337 0 min 0,000 mm 0,0 UV-I 25 W/m 11,3 C 22,9 C 9,7 km/h (2 Bft) 100,00 %
09.08.2022 19:44 22,9 C 48 % 1024,0 hPa 0,0 l/m 6,4 km/h (2 Bft) N-NW 337 0 min 0,000 mm 0,0 UV-I 26 W/m 11,3 C 22,9 C 9,7 km/h (2 Bft) 100,00 %
09.08.2022 19:43 22,9 C 48 % 1024,0 hPa 0,0 l/m 8,0 km/h (2 Bft) N-NW 337 0 min 0,000 mm 0,0 UV-I 26 W/m 11,3 C 22,9 C 9,7 km/h (2 Bft) 100,00 %
09.08.2022 19:42 22,9 C 48 % 1024,0 hPa 0,0 l/m 8,0 km/h (2 Bft) N-NW 337 0 min 0,000 mm 0,0 UV-I 26 W/m 11,3 C 22,9 C 9,7 km/h (2 Bft) 95,65 %
09.08.2022 19:41 22,9 C 48 % 1024,0 hPa 0,0 l/m 6,4 km/h (2 Bft) N-NW 337 0 min 0,000 mm 0,0 UV-I 26 W/m 11,3 C 22,9 C 8,0 km/h (2 Bft) 100,00 %
09.08.2022 19:40 22,9 C 48 % 1024,0 hPa 0,0 l/m 6,4 km/h (2 Bft) N-NW 337 0 min 0,000 mm 0,0 UV-I 28 W/m 11,3 C 22,9 C 8,0 km/h (2 Bft) 100,00 %
09.08.2022 19:39 22,9 C 48 % 1023,9 hPa 0,0 l/m 6,4 km/h (2 Bft) N-NW 337 0 min 0,000 mm 0,0 UV-I 28 W/m 11,3 C 22,9 C 8,0 km/h (2 Bft) 95,65 %
09.08.2022 19:38 22,9 C 48 % 1023,9 hPa 0,0 l/m 6,4 km/h (2 Bft) N-NW 337 0 min 0,000 mm 0,0 UV-I 28 W/m 11,3 C 22,9 C 8,0 km/h (2 Bft) 100,00 %
09.08.2022 19:37 22,9 C 48 % 1023,9 hPa 0,0 l/m 6,4 km/h (2 Bft) N-NW 337 0 min 0,000 mm 0,0 UV-I 28 W/m 11,3 C 22,9 C 8,0 km/h (2 Bft) 95,65 %
09.08.2022 19:36 22,9 C 47 % 1024,0 hPa 0,0 l/m 6,4 km/h (2 Bft) N-NW 337 0 min 0,000 mm 0,0 UV-I 28 W/m 11,0 C 22,9 C 8,0 km/h (2 Bft) 100,00 %
09.08.2022 19:35 22,9 C 47 % 1023,9 hPa 0,0 l/m 6,4 km/h (2 Bft) N-NW 337 0 min 0,000 mm 0,0 UV-I 28 W/m 11,0 C 22,9 C 8,0 km/h (2 Bft) 100,00 %
09.08.2022 19:34 22,9 C 48 % 1024,0 hPa 0,0 l/m 6,4 km/h (2 Bft) N-NW 337 0 min 0,000 mm 0,0 UV-I 28 W/m 11,3 C 22,9 C 8,0 km/h (2 Bft) 100,00 %
09.08.2022 19:33 22,9 C 48 % 1023,9 hPa 0,0 l/m 6,4 km/h (2 Bft) N-NW 337 0 min 0,000 mm 0,0 UV-I 28 W/m 11,3 C 22,9 C 8,0 km/h (2 Bft) 100,00 %
09.08.2022 19:32 22,9 C 48 % 1024,0 hPa 0,0 l/m 4,8 km/h (1 Bft) N-NW 337 0 min 0,000 mm 0,0 UV-I 28 W/m 11,3 C 22,9 C 8,0 km/h (2 Bft) 100,00 %
09.08.2022 19:31 22,9 C 48 % 1023,9 hPa 0,0 l/m 6,4 km/h (2 Bft) N-NW 337 0 min 0,000 mm 0,0 UV-I 28 W/m 11,3 C 22,9 C 6,4 km/h (2 Bft) 100,00 %
09.08.2022 19:30 22,9 C 48 % 1023,9 hPa 0,0 l/m 6,4 km/h (2 Bft) N-NW 337 0 min 0,000 mm 0,0 UV-I 28 W/m 11,3 C 22,9 C 6,4 km/h (2 Bft) 100,00 %
09.08.2022 19:29 23,0 C 49 % 1024,0 hPa 0,0 l/m 4,8 km/h (1 Bft) N-NW 337 0 min 0,000 mm 0,0 UV-I 30 W/m 11,7 C 23,0 C 6,4 km/h (2 Bft) 100,00 %
09.08.2022 19:28 23,0 C 48 % 1023,9 hPa 0,0 l/m 6,4 km/h (2 Bft) N-NW 337 0 min 0,000 mm 0,0 UV-I 30 W/m 11,4 C 23,0 C 8,0 km/h (2 Bft) 100,00 %
09.08.2022 19:27 23,0 C 48 % 1023,9 hPa 0,0 l/m 6,4 km/h (2 Bft) NW 315 0 min 0,000 mm 0,0 UV-I 32 W/m 11,4 C 23,0 C 6,4 km/h (2 Bft) 100,00 %
09.08.2022 19:26 23,0 C 48 % 1023,9 hPa 0,0 l/m 6,4 km/h (2 Bft) N-NW 337 0 min 0,000 mm 0,0 UV-I 32 W/m 11,4 C 23,0 C 8,0 km/h (2 Bft) 100,00 %
09.08.2022 19:25 23,1 C 48 % 1023,9 hPa 0,0 l/m 6,4 km/h (2 Bft) N-NW 337 0 min 0,000 mm 0,0 UV-I 33 W/m 11,5 C 23,1 C 8,0 km/h (2 Bft) 95,65 %
09.08.2022 19:24 23,1 C 48 % 1023,9 hPa 0,0 l/m 6,4 km/h (2 Bft) N-NW 337 0 min 0,000 mm 0,0 UV-I 39 W/m 11,5 C 23,1 C 8,0 km/h (2 Bft) 100,00 %
09.08.2022 19:23 23,1 C 48 % 1023,9 hPa 0,0 l/m 6,4 km/h (2 Bft) N-NW 337 0 min 0,000 mm 0,0 UV-I 40 W/m 11,5 C 23,1 C 8,0 km/h (2 Bft) 95,65 %
09.08.2022 19:22 23,1 C 48 % 1023,9 hPa 0,0 l/m 6,4 km/h (2 Bft) N-NW 337 0 min 0,000 mm 0,0 UV-I 33 W/m 11,5 C 23,1 C 8,0 km/h (2 Bft) 100,00 %
09.08.2022 19:21 23,1 C 48 % 1023,8 hPa 0,0 l/m 6,4 km/h (2 Bft) N-NW 337 0 min 0,000 mm 0,0 UV-I 33 W/m 11,5 C 23,1 C 8,0 km/h (2 Bft) 100,00 %
09.08.2022 19:20 23,1 C 48 % 1023,8 hPa 0,0 l/m 4,8 km/h (1 Bft) N-NW 337 0 min 0,000 mm 0,0 UV-I 33 W/m 11,5 C 23,1 C 6,4 km/h (2 Bft) 100,00 %
09.08.2022 19:19 23,1 C 47 % 1023,8 hPa 0,0 l/m 6,4 km/h (2 Bft) N-NW 337 0 min 0,000 mm 0,0 UV-I 51 W/m 11,2 C 23,1 C 6,4 km/h (2 Bft) 100,00 %
09.08.2022 19:18 23,1 C 47 % 1023,7 hPa 0,0 l/m 6,4 km/h (2 Bft) N-NW 337 0 min 0,000 mm 0,0 UV-I 53 W/m 11,2 C 23,1 C 6,4 km/h (2 Bft) 100,00 %
09.08.2022 19:17 23,1 C 47 % 1023,8 hPa 0,0 l/m 4,8 km/h (1 Bft) N-NW 337 0 min 0,000 mm 0,0 UV-I 40 W/m 11,2 C 23,1 C 6,4 km/h (2 Bft) 100,00 %
09.08.2022 19:16 23,1 C 47 % 1023,8 hPa 0,0 l/m 4,8 km/h (1 Bft) N-NW 337 0 min 0,000 mm 0,0 UV-I 40 W/m 11,2 C 23,1 C 6,4 km/h (2 Bft) 100,00 %
09.08.2022 19:15 23,1 C 47 % 1023,7 hPa 0,0 l/m 6,4 km/h (2 Bft) N-NW 337 0 min 0,000 mm 0,0 UV-I 44 W/m 11,2 C 23,1 C 8,0 km/h (2 Bft) 100,00 %
09.08.2022 19:14 23,1 C 47 % 1023,7 hPa 0,0 l/m 6,4 km/h (2 Bft) N-NW 337 0 min 0,000 mm 0,0 UV-I 40 W/m 11,2 C 23,1 C 8,0 km/h (2 Bft) 100,00 %
09.08.2022 19:13 23,1 C 47 % 1023,7 hPa 0,0 l/m 6,4 km/h (2 Bft) N-NW 337 0 min 0,000 mm 0,0 UV-I 49 W/m 11,2 C 23,1 C 8,0 km/h (2 Bft) 100,00 %
09.08.2022 19:12 23,1 C 47 % 1023,8 hPa 0,0 l/m 6,4 km/h (2 Bft) N-NW 337 0 min 0,000 mm 0,0 UV-I 42 W/m 11,2 C 23,1 C 8,0 km/h (2 Bft) 100,00 %
09.08.2022 19:11 23,2 C 48 % 1023,8 hPa 0,0 l/m 3,2 km/h (1 Bft) N 360 0 min 0,000 mm 0,0 UV-I 37 W/m 11,6 C 23,2 C 4,8 km/h (1 Bft) 100,00 %
09.08.2022 19:10 23,2 C 47 % 1023,8 hPa 0,0 l/m 4,8 km/h (1 Bft) N 360 0 min 0,000 mm 0,0 UV-I 39 W/m 11,3 C 23,2 C 4,8 km/h (1 Bft) 100,00 %
09.08.2022 19:09 23,1 C 47 % 1023,7 hPa 0,0 l/m 6,4 km/h (2 Bft) NW 315 0 min 0,000 mm 0,0 UV-I 39 W/m 11,2 C 23,1 C 6,4 km/h (2 Bft) 100,00 %
09.08.2022 19:08 23,1 C 48 % 1023,8 hPa 0,0 l/m 4,8 km/h (1 Bft) N-NW 337 0 min 0,000 mm 0,0 UV-I 37 W/m 11,5 C 23,1 C 6,4 km/h (2 Bft) 100,00 %
09.08.2022 19:07 23,1 C 47 % 1023,8 hPa 0,0 l/m 4,8 km/h (1 Bft) N-NW 337 0 min 0,000 mm 0,0 UV-I 37 W/m 11,2 C 23,1 C 8,0 km/h (2 Bft) 100,00 %
09.08.2022 19:06 23,1 C 47 % 1023,8 hPa 0,0 l/m 3,2 km/h (1 Bft) N-NW 337 0 min 0,000 mm 0,0 UV-I 39 W/m 11,2 C 23,1 C 4,8 km/h (1 Bft) 100,00 %
09.08.2022 19:05 23,2 C 47 % 1023,8 hPa 0,0 l/m 6,4 km/h (2 Bft) N 360 0 min 0,000 mm 0,0 UV-I 42 W/m 11,3 C 23,2 C 8,0 km/h (2 Bft) 100,00 %
09.08.2022 19:04 23,2 C 47 % 1023,8 hPa 0,0 l/m 6,4 km/h (2 Bft) N 360 0 min 0,000 mm 0,0 UV-I 49 W/m 11,3 C 23,2 C 8,0 km/h (2 Bft) 100,00 %
09.08.2022 19:03 23,1 C 48 % 1023,8 hPa 0,0 l/m 6,4 km/h (2 Bft) N-NW 337 0 min 0,000 mm 0,0 UV-I 47 W/m 11,5 C 23,1 C 8,0 km/h (2 Bft) 100,00 %
09.08.2022 19:02 23,2 C 48 % 1023,8 hPa 0,0 l/m 4,8 km/h (1 Bft) N-NW 337 0 min 0,000 mm 0,0 UV-I 42 W/m 11,6 C 23,2 C 6,4 km/h (2 Bft) 100,00 %
09.08.2022 19:01 23,2 C 48 % 1023,8 hPa 0,0 l/m 4,8 km/h (1 Bft) N-NW 337 0 min 0,000 mm 0,0 UV-I 42 W/m 11,6 C 23,2 C 6,4 km/h (2 Bft) 100,00 %
09.08.2022 19:00 23,2 C 48 % 1023,8 hPa 0,0 l/m 6,4 km/h (2 Bft) N-NW 337 0 min 0,203 mm 0,0 UV-I 46 W/m 11,6 C 23,2 C 8,0 km/h (2 Bft) 100,00 %
09.08.2022 18:59 23,2 C 47 % 1023,8 hPa 0,0 l/m 6,4 km/h (2 Bft) N 360 0 min 0,000 mm 0,0 UV-I 44 W/m 11,3 C 23,2 C 8,0 km/h (2 Bft) 95,65 %
09.08.2022 18:58 23,2 C 47 % 1023,8 hPa 0,0 l/m 6,4 km/h (2 Bft) N 360 0 min 0,000 mm 0,0 UV-I 46 W/m 11,3 C 23,2 C 9,7 km/h (2 Bft) 95,65 %
09.08.2022 18:57 23,2 C 47 % 1023,7 hPa 0,0 l/m 9,7 km/h (2 Bft) N 360 0 min 0,000 mm 0,0 UV-I 56 W/m 11,3 C 23,2 C 12,9 km/h (3 Bft) 100,00 %
09.08.2022 18:56 23,2 C 47 % 1023,8 hPa 0,0 l/m 9,7 km/h (2 Bft) N-NW 337 0 min 0,000 mm 0,0 UV-I 65 W/m 11,3 C 23,2 C 12,9 km/h (3 Bft) 95,65 %
09.08.2022 18:55 23,2 C 47 % 1023,7 hPa 0,0 l/m 9,7 km/h (2 Bft) N-NW 337 0 min 0,000 mm 0,0 UV-I 72 W/m 11,3 C 23,2 C 12,9 km/h (3 Bft) 100,00 %
09.08.2022 18:54 23,1 C 48 % 1023,8 hPa 0,0 l/m 9,7 km/h (2 Bft) N-NW 337 0 min 0,000 mm 0,0 UV-I 95 W/m 11,5 C 23,1 C 12,9 km/h (3 Bft) 100,00 %
09.08.2022 18:53 23,1 C 49 % 1023,8 hPa 0,0 l/m 9,7 km/h (2 Bft) N-NW 337 0 min 0,000 mm 0,0 UV-I 111 W/m 11,8 C 23,1 C 14,5 km/h (3 Bft) 100,00 %
09.08.2022 18:52 23,1 C 49 % 1023,8 hPa 0,0 l/m 9,7 km/h (2 Bft) N-NW 337 0 min 0,000 mm 0,0 UV-I 121 W/m 11,8 C 23,1 C 12,9 km/h (3 Bft) 100,00 %
09.08.2022 18:51 23,1 C 49 % 1023,8 hPa 0,0 l/m 6,4 km/h (2 Bft) N-NW 337 1 min 0,000 mm 0,0 UV-I 167 W/m 11,8 C 23,1 C 8,0 km/h (2 Bft) 100,00 %
09.08.2022 18:50 23,1 C 49 % 1023,8 hPa 0,0 l/m 8,0 km/h (2 Bft) N 360 1 min 0,000 mm 0,0 UV-I 183 W/m 11,8 C 23,1 C 9,7 km/h (2 Bft) 100,00 %
09.08.2022 18:49 23,2 C 49 % 1023,8 hPa 0,0 l/m 8,0 km/h (2 Bft) N 360 0 min 0,000 mm 0,0 UV-I 132 W/m 11,9 C 23,2 C 11,3 km/h (2 Bft) 100,00 %
09.08.2022 18:48 23,2 C 49 % 1023,9 hPa 0,0 l/m 8,0 km/h (2 Bft) N 360 0 min 0,000 mm 0,0 UV-I 121 W/m 11,9 C 23,2 C 11,3 km/h (2 Bft) 100,00 %
09.08.2022 18:47 23,2 C 48 % 1023,9 hPa 0,0 l/m 6,4 km/h (2 Bft) N 360 0 min 0,000 mm 0,5 UV-I 114 W/m 11,6 C 23,2 C 8,0 km/h (2 Bft) 100,00 %
09.08.2022 18:46 23,2 C 48 % 1023,9 hPa 0,0 l/m 6,4 km/h (2 Bft) N 360 0 min 0,000 mm 0,5 UV-I 104 W/m 11,6 C 23,2 C 8,0 km/h (2 Bft) 100,00 %
09.08.2022 18:45 23,2 C 48 % 1023,9 hPa 0,0 l/m 6,4 km/h (2 Bft) N-NW 337 0 min 0,000 mm 0,5 UV-I 105 W/m 11,6 C 23,2 C 6,4 km/h (2 Bft) 100,00 %
09.08.2022 18:44 23,2 C 48 % 1023,8 hPa 0,0 l/m 6,4 km/h (2 Bft) N-NW 337 0 min 0,000 mm 0,5 UV-I 130 W/m 11,6 C 23,2 C 6,4 km/h (2 Bft) 100,00 %
09.08.2022 18:43 23,2 C 48 % 1023,9 hPa 0,0 l/m 6,4 km/h (2 Bft) N-NW 337 1 min 0,000 mm 0,5 UV-I 167 W/m 11,6 C 23,2 C 6,4 km/h (2 Bft) 100,00 %
09.08.2022 18:42 23,2 C 47 % 1023,9 hPa 0,0 l/m 6,4 km/h (2 Bft) N-NW 337 1 min 0,000 mm 0,5 UV-I 209 W/m 11,3 C 23,2 C 8,0 km/h (2 Bft) 100,00 %
09.08.2022 18:41 23,2 C 48 % 1023,8 hPa 0,0 l/m 6,4 km/h (2 Bft) N-NW 337 1 min 0,000 mm 0,5 UV-I 225 W/m 11,6 C 23,2 C 8,0 km/h (2 Bft) 95,65 %
09.08.2022 18:40 23,2 C 47 % 1023,8 hPa 0,0 l/m 8,0 km/h (2 Bft) N-NW 337 1 min 0,000 mm 0,5 UV-I 229 W/m 11,3 C 23,2 C 9,7 km/h (2 Bft) 100,00 %
09.08.2022 18:39 23,2 C 47 % 1023,8 hPa 0,0 l/m 8,0 km/h (2 Bft) N-NW 337 1 min 0,000 mm 0,6 UV-I 230 W/m 11,3 C 23,2 C 9,7 km/h (2 Bft) 100,00 %
09.08.2022 18:38 23,2 C 48 % 1023,8 hPa 0,0 l/m 9,7 km/h (2 Bft) N-NW 337 1 min 0,000 mm 0,6 UV-I 236 W/m 11,6 C 23,2 C 9,7 km/h (2 Bft) 100,00 %
09.08.2022 18:37 23,2 C 48 % 1023,8 hPa 0,0 l/m 8,0 km/h (2 Bft) N-NW 337 1 min 0,000 mm 0,6 UV-I 223 W/m 11,6 C 23,2 C 9,7 km/h (2 Bft) 100,00 %
09.08.2022 18:36 23,1 C 48 % 1023,7 hPa 0,0 l/m 8,0 km/h (2 Bft) N-NW 337 1 min 0,000 mm 0,6 UV-I 200 W/m 11,5 C 23,1 C 8,0 km/h (2 Bft) 100,00 %
09.08.2022 18:35 23,1 C 48 % 1023,9 hPa 0,0 l/m 9,7 km/h (2 Bft) N-NW 337 1 min 0,000 mm 0,6 UV-I 206 W/m 11,5 C 23,1 C 12,9 km/h (3 Bft) 100,00 %
09.08.2022 18:34 23,1 C 48 % 1023,8 hPa 0,0 l/m 6,4 km/h (2 Bft) N-NW 337 1 min 0,000 mm 0,6 UV-I 174 W/m 11,5 C 23,1 C 8,0 km/h (2 Bft) 100,00 %
09.08.2022 18:33 23,0 C 48 % 1023,9 hPa 0,0 l/m 4,8 km/h (1 Bft) N-NW 337 0 min 0,000 mm 0,6 UV-I 130 W/m 11,4 C 23,0 C 6,4 km/h (2 Bft) 100,00 %
09.08.2022 18:32 23,1 C 49 % 1023,9 hPa 0,0 l/m 6,4 km/h (2 Bft) N-NW 337 0 min 0,000 mm 0,6 UV-I 116 W/m 11,8 C 23,1 C 6,4 km/h (2 Bft) 100,00 %
09.08.2022 18:31 23,1 C 49 % 1023,9 hPa 0,0 l/m 6,4 km/h (2 Bft) N-NW 337 0 min 0,000 mm 0,6 UV-I 98 W/m 11,8 C 23,1 C 8,0 km/h (2 Bft) 100,00 %
09.08.2022 18:30 23,1 C 49 % 1023,9 hPa 0,0 l/m 6,4 km/h (2 Bft) N-NW 337 1 min 0,000 mm 0,6 UV-I 153 W/m 11,8 C 23,1 C 8,0 km/h (2 Bft) 95,65 %
09.08.2022 18:29 23,1 C 49 % 1023,9 hPa 0,0 l/m 6,4 km/h (2 Bft) N-NW 337 1 min 0,000 mm 0,6 UV-I 236 W/m 11,8 C 23,1 C 6,4 km/h (2 Bft) 100,00 %
09.08.2022 18:28 23,2 C 49 % 1023,9 hPa 0,0 l/m 4,8 km/h (1 Bft) N-NW 337 1 min 0,000 mm 0,7 UV-I 260 W/m 11,9 C 23,2 C 6,4 km/h (2 Bft) 100,00 %
09.08.2022 18:27 23,3 C 48 % 1023,8 hPa 0,0 l/m 6,4 km/h (2 Bft) N 360 1 min 0,000 mm 0,7 UV-I 269 W/m 11,7 C 23,3 C 6,4 km/h (2 Bft) 100,00 %
09.08.2022 18:26 23,3 C 48 % 1023,8 hPa 0,0 l/m 8,0 km/h (2 Bft) N-NO 22 1 min 0,000 mm 0,7 UV-I 276 W/m 11,7 C 23,3 C 8,0 km/h (2 Bft) 100,00 %
09.08.2022 18:25 23,3 C 48 % 1023,9 hPa 0,0 l/m 8,0 km/h (2 Bft) N-NO 22 0 min 0,000 mm 0,7 UV-I 46 W/m 11,7 C 23,3 C 11,3 km/h (2 Bft) 100,00 %
09.08.2022 18:24 23,3 C 47 % 1023,9 hPa 0,0 l/m 8,0 km/h (2 Bft) N 360 0 min 0,000 mm 0,0 UV-I 46 W/m 11,3 C 23,3 C 9,7 km/h (2 Bft) 100,00 %
09.08.2022 18:23 23,3 C 48 % 1023,9 hPa 0,0 l/m 8,0 km/h (2 Bft) N 360 0 min 0,000 mm 0,0 UV-I 46 W/m 11,7 C 23,3 C 11,3 km/h (2 Bft) 100,00 %
09.08.2022 18:22 23,3 C 49 % 1023,8 hPa 0,0 l/m 9,7 km/h (2 Bft) N-NO 22 0 min 0,000 mm 0,7 UV-I 46 W/m 12,0 C 23,3 C 11,3 km/h (2 Bft) 100,00 %
09.08.2022 18:21 23,3 C 48 % 1023,9 hPa 0,0 l/m 9,7 km/h (2 Bft) N 360 1 min 0,000 mm 0,8 UV-I 290 W/m 11,7 C 23,3 C 12,9 km/h (3 Bft) 100,00 %
09.08.2022 18:20 23,3 C 48 % 1023,9 hPa 0,0 l/m 8,0 km/h (2 Bft) N 360 1 min 0,000 mm 0,8 UV-I 292 W/m 11,7 C 23,3 C 12,9 km/h (3 Bft) 100,00 %
09.08.2022 18:19 23,3 C 49 % 1023,9 hPa 0,0 l/m 6,4 km/h (2 Bft) N 360 1 min 0,000 mm 0,8 UV-I 294 W/m 12,0 C 23,3 C 8,0 km/h (2 Bft) 100,00 %
09.08.2022 18:18 23,3 C 48 % 1023,9 hPa 0,0 l/m 6,4 km/h (2 Bft) N-NO 22 1 min 0,000 mm 0,9 UV-I 295 W/m 11,7 C 23,3 C 8,0 km/h (2 Bft) 100,00 %
09.08.2022 18:17 23,3 C 47 % 1023,9 hPa 0,0 l/m 6,4 km/h (2 Bft) N 360 1 min 0,000 mm 0,9 UV-I 299 W/m 11,3 C 23,3 C 8,0 km/h (2 Bft) 100,00 %
09.08.2022 18:16 23,3 C 47 % 1023,9 hPa 0,0 l/m 4,8 km/h (1 Bft) N 360 1 min 0,000 mm 0,9 UV-I 299 W/m 11,3 C 23,3 C 8,0 km/h (2 Bft) 100,00 %
09.08.2022 18:15 23,3 C 47 % 1023,9 hPa 0,0 l/m 6,4 km/h (2 Bft) N-NW 337 1 min 0,000 mm 0,9 UV-I 304 W/m 11,3 C 23,3 C 8,0 km/h (2 Bft) 100,00 %
09.08.2022 18:14 23,3 C 48 % 1023,9 hPa 0,0 l/m 4,8 km/h (1 Bft) N-NW 337 1 min 0,000 mm 0,9 UV-I 304 W/m 11,7 C 23,3 C 6,4 km/h (2 Bft) 100,00 %
09.08.2022 18:13 23,3 C 48 % 1023,8 hPa 0,0 l/m 8,0 km/h (2 Bft) N 360 1 min 0,000 mm 0,9 UV-I 306 W/m 11,7 C 23,3 C 11,3 km/h (2 Bft) 100,00 %
09.08.2022 18:12 23,3 C 47 % 1023,9 hPa 0,0 l/m 11,3 km/h (2 Bft) N-NO 22 1 min 0,000 mm 0,9 UV-I 308 W/m 11,3 C 23,3 C 12,9 km/h (3 Bft) 100,00 %
09.08.2022 18:11 23,3 C 48 % 1023,9 hPa 0,0 l/m 9,7 km/h (2 Bft) N 360 1 min 0,000 mm 1,0 UV-I 311 W/m 11,7 C 23,3 C 12,9 km/h (3 Bft) 95,65 %
09.08.2022 18:10 23,3 C 48 % 1023,9 hPa 0,0 l/m 9,7 km/h (2 Bft) N-NW 337 1 min 0,000 mm 1,0 UV-I 311 W/m 11,7 C 23,3 C 12,9 km/h (3 Bft) 95,65 %
09.08.2022 18:09 23,4 C 47 % 1023,9 hPa 0,0 l/m 8,0 km/h (2 Bft) N-NW 337 1 min 0,000 mm 1,0 UV-I 313 W/m 11,4 C 23,4 C 9,7 km/h (2 Bft) 100,00 %
09.08.2022 18:08 23,4 C 47 % 1023,8 hPa 0,0 l/m 8,0 km/h (2 Bft) N 360 1 min 0,000 mm 1,0 UV-I 313 W/m 11,4 C 23,4 C 9,7 km/h (2 Bft) 100,00 %
09.08.2022 18:07 23,5 C 46 % 1023,9 hPa 0,0 l/m 11,3 km/h (2 Bft) N 360 1 min 0,000 mm 1,0 UV-I 316 W/m 11,2 C 23,5 C 14,5 km/h (3 Bft) 100,00 %
09.08.2022 18:06 23,5 C 45 % 1023,9 hPa 0,0 l/m 9,7 km/h (2 Bft) N 360 1 min 0,000 mm 1,0 UV-I 320 W/m 10,9 C 23,5 C 12,9 km/h (3 Bft) 100,00 %
09.08.2022 18:05 23,5 C 45 % 1023,9 hPa 0,0 l/m 12,9 km/h (3 Bft) N 360 1 min 0,000 mm 1,0 UV-I 322 W/m 10,9 C 23,5 C 16,1 km/h (3 Bft) 100,00 %
09.08.2022 18:04 23,5 C 47 % 1023,9 hPa 0,0 l/m 11,3 km/h (2 Bft) N-NO 22 1 min 0,000 mm 1,1 UV-I 325 W/m 11,5 C 23,5 C 12,9 km/h (3 Bft) 100,00 %
09.08.2022 18:03 23,5 C 46 % 1023,8 hPa 0,0 l/m 9,7 km/h (2 Bft) N-NO 22 1 min 0,000 mm 1,1 UV-I 330 W/m 11,2 C 23,5 C 12,9 km/h (3 Bft) 100,00 %
09.08.2022 18:02 23,5 C 47 % 1023,8 hPa 0,0 l/m 12,9 km/h (3 Bft) N-NW 337 1 min 0,000 mm 1,1 UV-I 332 W/m 11,5 C 23,5 C 16,1 km/h (3 Bft) 100,00 %
09.08.2022 18:01 23,5 C 47 % 1023,8 hPa 0,0 l/m 12,9 km/h (3 Bft) N-NW 337 1 min 0,000 mm 1,1 UV-I 338 W/m 11,5 C 23,5 C 16,1 km/h (3 Bft) 100,00 %
09.08.2022 18:00 23,6 C 46 % 1023,8 hPa 0,0 l/m 11,3 km/h (2 Bft) N 360 1 min 0,305 mm 1,1 UV-I 339 W/m 11,3 C 23,6 C 14,5 km/h (3 Bft) 100,00 %
09.08.2022 17:59 23,6 C 46 % 1023,9 hPa 0,0 l/m 12,9 km/h (3 Bft) N 360 1 min 0,000 mm 1,1 UV-I 343 W/m 11,3 C 23,6 C 16,1 km/h (3 Bft) 95,65 %
09.08.2022 17:58 23,6 C 47 % 1023,8 hPa 0,0 l/m 8,0 km/h (2 Bft) N-NO 22 1 min 0,000 mm 1,2 UV-I 343 W/m 11,6 C 23,6 C 9,7 km/h (2 Bft) 95,65 %
09.08.2022 17:57 23,6 C 47 % 1023,8 hPa 0,0 l/m 11,3 km/h (2 Bft) N-NO 22 1 min 0,000 mm 1,2 UV-I 350 W/m 11,6 C 23,6 C 12,9 km/h (3 Bft) 100,00 %
09.08.2022 17:56 23,6 C 47 % 1023,8 hPa 0,0 l/m 6,4 km/h (2 Bft) N-NO 22 1 min 0,000 mm 1,2 UV-I 353 W/m 11,6 C 23,6 C 9,7 km/h (2 Bft) 95,65 %
09.08.2022 17:55 23,6 C 46 % 1023,8 hPa 0,0 l/m 9,7 km/h (2 Bft) NO 45 1 min 0,000 mm 1,2 UV-I 359 W/m 11,3 C 23,6 C 14,5 km/h (3 Bft) 100,00 %
09.08.2022 17:54 23,6 C 48 % 1023,8 hPa 0,0 l/m 9,7 km/h (2 Bft) N 360 1 min 0,000 mm 1,2 UV-I 362 W/m 11,9 C 23,6 C 11,3 km/h (2 Bft) 95,65 %
09.08.2022 17:53 23,4 C 48 % 1023,8 hPa 0,0 l/m 11,3 km/h (2 Bft) N 360 1 min 0,000 mm 1,3 UV-I 364 W/m 11,8 C 23,4 C 14,5 km/h (3 Bft) 100,00 %
09.08.2022 17:52 23,5 C 47 % 1023,8 hPa 0,0 l/m 6,4 km/h (2 Bft) N-NO 22 1 min 0,000 mm 1,3 UV-I 366 W/m 11,5 C 23,5 C 9,7 km/h (2 Bft) 100,00 %
09.08.2022 17:51 23,4 C 46 % 1023,8 hPa 0,0 l/m 9,7 km/h (2 Bft) NO 45 1 min 0,000 mm 1,3 UV-I 371 W/m 11,1 C 23,4 C 14,5 km/h (3 Bft) 100,00 %
09.08.2022 17:50 23,4 C 46 % 1023,8 hPa 0,0 l/m 4,8 km/h (1 Bft) N-NO 22 1 min 0,000 mm 1,3 UV-I 374 W/m 11,1 C 23,4 C 6,4 km/h (2 Bft) 100,00 %
09.08.2022 17:49 23,4 C 46 % 1023,8 hPa 0,0 l/m 6,4 km/h (2 Bft) N-NO 22 1 min 0,000 mm 1,3 UV-I 376 W/m 11,1 C 23,4 C 9,7 km/h (2 Bft) 100,00 %
09.08.2022 17:48 23,4 C 46 % 1023,9 hPa 0,0 l/m 11,3 km/h (2 Bft) N-NO 22 1 min 0,000 mm 1,3 UV-I 378 W/m 11,1 C 23,4 C 14,5 km/h (3 Bft) 100,00 %
09.08.2022 17:47 23,4 C 46 % 1023,9 hPa 0,0 l/m 9,7 km/h (2 Bft) N 360 1 min 0,000 mm 1,4 UV-I 380 W/m 11,1 C 23,4 C 14,5 km/h (3 Bft) 100,00 %
09.08.2022 17:46 23,4 C 47 % 1023,9 hPa 0,0 l/m 11,3 km/h (2 Bft) N 360 1 min 0,000 mm 1,4 UV-I 381 W/m 11,4 C 23,4 C 12,9 km/h (3 Bft) 100,00 %
09.08.2022 17:45 23,4 C 46 % 1023,9 hPa 0,0 l/m 6,4 km/h (2 Bft) N 360 1 min 0,000 mm 1,4 UV-I 385 W/m 11,1 C 23,4 C 8,0 km/h (2 Bft) 95,65 %
09.08.2022 17:44 23,4 C 46 % 1024,0 hPa 0,0 l/m 8,0 km/h (2 Bft) N 360 1 min 0,000 mm 1,4 UV-I 387 W/m 11,1 C 23,4 C 9,7 km/h (2 Bft) 100,00 %
09.08.2022 17:43 23,4 C 46 % 1023,9 hPa 0,0 l/m 9,7 km/h (2 Bft) N 360 1 min 0,000 mm 1,4 UV-I 388 W/m 11,1 C 23,4 C 12,9 km/h (3 Bft) 100,00 %
09.08.2022 17:42 23,5 C 46 % 1023,9 hPa 0,0 l/m 11,3 km/h (2 Bft) N 360 1 min 0,000 mm 1,5 UV-I 392 W/m 11,2 C 23,5 C 12,9 km/h (3 Bft) 100,00 %
09.08.2022 17:41 23,6 C 46 % 1023,9 hPa 0,0 l/m 14,5 km/h (3 Bft) N 360 1 min 0,000 mm 1,5 UV-I 394 W/m 11,3 C 23,6 C 16,1 km/h (3 Bft) 100,00 %
09.08.2022 17:40 23,6 C 47 % 1023,9 hPa 0,0 l/m 14,5 km/h (3 Bft) N 360 1 min 0,000 mm 1,5 UV-I 397 W/m 11,6 C 23,6 C 16,1 km/h (3 Bft) 100,00 %
09.08.2022 17:39 23,6 C 47 % 1024,0 hPa 0,0 l/m 8,0 km/h (2 Bft) N-NO 22 1 min 0,000 mm 1,5 UV-I 397 W/m 11,6 C 23,6 C 16,1 km/h (3 Bft) 95,65 %
09.08.2022 17:38 23,6 C 47 % 1023,9 hPa 0,0 l/m 4,8 km/h (1 Bft) NO 45 1 min 0,000 mm 1,5 UV-I 401 W/m 11,6 C 23,6 C 8,0 km/h (2 Bft) 100,00 %
09.08.2022 17:37 23,6 C 46 % 1024,0 hPa 0,0 l/m 8,0 km/h (2 Bft) NO 45 1 min 0,000 mm 1,5 UV-I 403 W/m 11,3 C 23,6 C 9,7 km/h (2 Bft) 100,00 %
09.08.2022 17:36 23,5 C 46 % 1024,0 hPa 0,0 l/m 8,0 km/h (2 Bft) NO 45 1 min 0,000 mm 1,6 UV-I 404 W/m 11,2 C 23,5 C 9,7 km/h (2 Bft) 100,00 %
09.08.2022 17:35 23,4 C 46 % 1024,1 hPa 0,0 l/m 4,8 km/h (1 Bft) N-NO 22 1 min 0,000 mm 1,6 UV-I 408 W/m 11,1 C 23,4 C 6,4 km/h (2 Bft) 100,00 %
09.08.2022 17:34 23,4 C 47 % 1024,1 hPa 0,0 l/m 4,8 km/h (1 Bft) N 360 1 min 0,000 mm 1,6 UV-I 417 W/m 11,4 C 23,4 C 6,4 km/h (2 Bft) 100,00 %
09.08.2022 17:33 23,4 C 48 % 1024,0 hPa 0,0 l/m 3,2 km/h (1 Bft) NO 45 1 min 0,000 mm 1,6 UV-I 420 W/m 11,8 C 23,4 C 4,8 km/h (1 Bft) 95,65 %
09.08.2022 17:32 23,4 C 47 % 1024,1 hPa 0,0 l/m 4,8 km/h (1 Bft) NO 45 1 min 0,000 mm 1,7 UV-I 422 W/m 11,4 C 23,4 C 8,0 km/h (2 Bft) 100,00 %
09.08.2022 17:31 23,4 C 46 % 1024,1 hPa 0,0 l/m 9,7 km/h (2 Bft) N-NO 22 1 min 0,000 mm 1,7 UV-I 424 W/m 11,1 C 23,4 C 12,9 km/h (3 Bft) 100,00 %
09.08.2022 17:30 23,4 C 48 % 1024,2 hPa 0,0 l/m 11,3 km/h (2 Bft) N-NO 22 1 min 0,000 mm 1,7 UV-I 424 W/m 11,8 C 23,4 C 12,9 km/h (3 Bft) 100,00 %
09.08.2022 17:29 23,3 C 47 % 1024,1 hPa 0,0 l/m 9,7 km/h (2 Bft) N 360 1 min 0,000 mm 1,7 UV-I 424 W/m 11,3 C 23,3 C 14,5 km/h (3 Bft) 100,00 %
09.08.2022 17:28 23,3 C 48 % 1024,3 hPa 0,0 l/m 8,0 km/h (2 Bft) N-NO 22 1 min 0,000 mm 1,7 UV-I 436 W/m 11,7 C 23,3 C 11,3 km/h (2 Bft) 100,00 %
09.08.2022 17:27 23,3 C 49 % 1024,3 hPa 0,0 l/m 8,0 km/h (2 Bft) N 360 1 min 0,000 mm 1,7 UV-I 431 W/m 12,0 C 23,3 C 9,7 km/h (2 Bft) 100,00 %
09.08.2022 17:26 23,2 C 46 % 1024,3 hPa 0,0 l/m 6,4 km/h (2 Bft) N-NO 22 1 min 0,000 mm 1,7 UV-I 434 W/m 10,9 C 23,2 C 9,7 km/h (2 Bft) 100,00 %
09.08.2022 17:25 23,2 C 48 % 1024,3 hPa 0,0 l/m 11,3 km/h (2 Bft) N-NO 22 1 min 0,000 mm 1,8 UV-I 438 W/m 11,6 C 23,2 C 12,9 km/h (3 Bft) 100,00 %
09.08.2022 17:24 23,1 C 48 % 1024,3 hPa 0,0 l/m 9,7 km/h (2 Bft) N 360 1 min 0,000 mm 1,8 UV-I 434 W/m 11,5 C 23,1 C 12,9 km/h (3 Bft) 95,65 %
09.08.2022 17:23 23,1 C 47 % 1024,4 hPa 0,0 l/m 8,0 km/h (2 Bft) N 360 0 min 0,000 mm 1,8 UV-I 146 W/m 11,2 C 23,1 C 8,0 km/h (2 Bft) 100,00 %
09.08.2022 17:22 23,1 C 49 % 1024,4 hPa 0,0 l/m 8,0 km/h (2 Bft) N 360 0 min 0,000 mm 1,4 UV-I 146 W/m 11,8 C 23,1 C 11,3 km/h (2 Bft) 86,96 %
09.08.2022 17:21 23,2 C 49 % 1024,4 hPa 0,0 l/m 6,4 km/h (2 Bft) N 360 0 min 0,000 mm 1,4 UV-I 95 W/m 11,9 C 23,2 C 8,0 km/h (2 Bft) 100,00 %
09.08.2022 17:20 23,2 C 49 % 1024,4 hPa 0,0 l/m 6,4 km/h (2 Bft) N 360 0 min 0,000 mm 1,5 UV-I 95 W/m 11,9 C 23,2 C 9,7 km/h (2 Bft) 100,00 %
09.08.2022 17:19 23,2 C 48 % 1024,4 hPa 0,0 l/m 11,3 km/h (2 Bft) N 360 0 min 0,000 mm 1,9 UV-I 95 W/m 11,6 C 23,2 C 14,5 km/h (3 Bft) 100,00 %
09.08.2022 17:18 23,2 C 47 % 1024,3 hPa 0,0 l/m 8,0 km/h (2 Bft) N 360 0 min 0,000 mm 1,9 UV-I 95 W/m 11,3 C 23,2 C 11,3 km/h (2 Bft) 100,00 %
09.08.2022 17:17 23,3 C 47 % 1024,3 hPa 0,0 l/m 8,0 km/h (2 Bft) N-NO 22 0 min 0,000 mm 1,5 UV-I 95 W/m 11,3 C 23,3 C 11,3 km/h (2 Bft) 100,00 %
09.08.2022 17:16 23,3 C 47 % 1024,4 hPa 0,0 l/m 9,7 km/h (2 Bft) N-NO 22 0 min 0,000 mm 1,5 UV-I 93 W/m 11,3 C 23,3 C 12,9 km/h (3 Bft) 100,00 %
09.08.2022 17:15 23,3 C 47 % 1024,4 hPa 0,0 l/m 11,3 km/h (2 Bft) N-NO 22 0 min 0,000 mm 1,5 UV-I 93 W/m 11,3 C 23,3 C 12,9 km/h (3 Bft) 100,00 %
09.08.2022 17:14 23,4 C 48 % 1024,5 hPa 0,0 l/m 8,0 km/h (2 Bft) N 360 0 min 0,000 mm 1,5 UV-I 97 W/m 11,8 C 23,4 C 11,3 km/h (2 Bft) 100,00 %
09.08.2022 17:13 23,4 C 47 % 1024,4 hPa 0,0 l/m 4,8 km/h (1 Bft) N-NW 337 0 min 0,000 mm 1,5 UV-I 91 W/m 11,4 C 23,4 C 6,4 km/h (2 Bft) 95,65 %
09.08.2022 17:12 23,5 C 50 % 1024,5 hPa 0,0 l/m 3,2 km/h (1 Bft) N-NW 337 0 min 0,000 mm 1,5 UV-I 88 W/m 12,5 C 23,5 C 4,8 km/h (1 Bft) 100,00 %
09.08.2022 17:11 23,6 C 48 % 1024,4 hPa 0,0 l/m 3,2 km/h (1 Bft) NO 45 0 min 0,000 mm 1,5 UV-I 90 W/m 11,9 C 23,6 C 4,8 km/h (1 Bft) 100,00 %
09.08.2022 17:10 23,6 C 47 % 1024,4 hPa 0,0 l/m 3,2 km/h (1 Bft) NO 45 0 min 0,000 mm 1,5 UV-I 98 W/m 11,6 C 23,6 C 4,8 km/h (1 Bft) 100,00 %
09.08.2022 17:09 23,7 C 46 % 1024,5 hPa 0,0 l/m 3,2 km/h (1 Bft) O-NO 67 1 min 0,000 mm 2,0 UV-I 512 W/m 11,4 C 23,7 C 6,4 km/h (2 Bft) 100,00 %
09.08.2022 17:08 23,7 C 46 % 1024,5 hPa 0,0 l/m 6,4 km/h (2 Bft) O-NO 67 1 min 0,000 mm 2,1 UV-I 512 W/m 11,4 C 23,7 C 9,7 km/h (2 Bft) 100,00 %
09.08.2022 17:07 23,6 C 45 % 1024,6 hPa 0,0 l/m 4,8 km/h (1 Bft) O-NO 67 1 min 0,000 mm 2,1 UV-I 522 W/m 11,0 C 23,6 C 8,0 km/h (2 Bft) 100,00 %
09.08.2022 17:06 23,6 C 46 % 1024,6 hPa 0,0 l/m 8,0 km/h (2 Bft) O-NO 67 1 min 0,000 mm 2,2 UV-I 538 W/m 11,3 C 23,6 C 9,7 km/h (2 Bft) 95,65 %
09.08.2022 17:05 23,7 C 45 % 1024,5 hPa 0,0 l/m 6,4 km/h (2 Bft) NO 45 1 min 0,000 mm 2,2 UV-I 547 W/m 11,1 C 23,7 C 8,0 km/h (2 Bft) 100,00 %
09.08.2022 17:04 23,7 C 45 % 1024,5 hPa 0,0 l/m 8,0 km/h (2 Bft) NO 45 1 min 0,000 mm 2,2 UV-I 550 W/m 11,1 C 23,7 C 9,7 km/h (2 Bft) 100,00 %
09.08.2022 17:03 23,7 C 45 % 1024,7 hPa 0,0 l/m 9,7 km/h (2 Bft) NO 45 1 min 0,000 mm 2,3 UV-I 552 W/m 11,1 C 23,7 C 11,3 km/h (2 Bft) 95,65 %
09.08.2022 17:02 23,7 C 48 % 1024,5 hPa 0,0 l/m 6,4 km/h (2 Bft) N-NO 22 1 min 0,000 mm 2,3 UV-I 559 W/m 12,0 C 23,7 C 8,0 km/h (2 Bft) 100,00 %
09.08.2022 17:01 23,6 C 46 % 1024,5 hPa 0,0 l/m 6,4 km/h (2 Bft) N-NO 22 1 min 0,000 mm 2,3 UV-I 570 W/m 11,3 C 23,6 C 11,3 km/h (2 Bft) 100,00 %
09.08.2022 17:00 23,6 C 46 % 1024,5 hPa 0,0 l/m 6,4 km/h (2 Bft) N-NO 22 1 min 0,381 mm 2,4 UV-I 575 W/m 11,3 C 23,6 C 11,3 km/h (2 Bft) 95,65 %
09.08.2022 16:59 23,5 C 48 % 1024,4 hPa 0,0 l/m 8,0 km/h (2 Bft) N 360 1 min 0,000 mm 2,4 UV-I 589 W/m 11,8 C 23,5 C 12,9 km/h (3 Bft) 100,00 %
09.08.2022 16:58 23,4 C 46 % 1024,5 hPa 0,0 l/m 9,7 km/h (2 Bft) NO 45 1 min 0,000 mm 2,4 UV-I 592 W/m 11,1 C 23,4 C 14,5 km/h (3 Bft) 100,00 %
09.08.2022 16:57 23,4 C 46 % 1024,4 hPa 0,0 l/m 9,7 km/h (2 Bft) NO 45 1 min 0,000 mm 2,5 UV-I 598 W/m 11,1 C 23,4 C 14,5 km/h (3 Bft) 100,00 %
09.08.2022 16:56 23,4 C 46 % 1024,5 hPa 0,0 l/m 8,0 km/h (2 Bft) NO 45 1 min 0,000 mm 2,4 UV-I 587 W/m 11,1 C 23,4 C 9,7 km/h (2 Bft) 100,00 %
09.08.2022 16:55 23,5 C 46 % 1024,5 hPa 0,0 l/m 9,7 km/h (2 Bft) NO 45 1 min 0,000 mm 2,4 UV-I 204 W/m 11,2 C 23,5 C 14,5 km/h (3 Bft) 100,00 %
09.08.2022 16:54 23,6 C 48 % 1024,4 hPa 0,0 l/m 9,7 km/h (2 Bft) N-NO 22 1 min 0,000 mm 2,1 UV-I 204 W/m 11,9 C 23,6 C 16,1 km/h (3 Bft) 100,00 %
09.08.2022 16:53 23,6 C 48 % 1024,5 hPa 0,0 l/m 6,4 km/h (2 Bft) N-NO 22 0 min 0,000 mm 1,9 UV-I 149 W/m 11,9 C 23,6 C 8,0 km/h (2 Bft) 100,00 %
09.08.2022 16:52 23,6 C 47 % 1024,4 hPa 0,0 l/m 4,8 km/h (1 Bft) N-NO 22 0 min 0,000 mm 1,9 UV-I 151 W/m 11,6 C 23,6 C 6,4 km/h (2 Bft) 100,00 %
09.08.2022 16:51 23,6 C 50 % 1024,4 hPa 0,0 l/m 3,2 km/h (1 Bft) NO 45 0 min 0,000 mm 1,9 UV-I 151 W/m 12,6 C 23,6 C 4,8 km/h (1 Bft) 100,00 %
09.08.2022 16:50 23,7 C 46 % 1024,4 hPa 0,0 l/m 1,6 km/h (1 Bft) O-NO 67 0 min 0,000 mm 2,4 UV-I 151 W/m 11,4 C 23,7 C 3,2 km/h (1 Bft) 100,00 %
09.08.2022 16:49 23,8 C 47 % 1024,4 hPa 0,0 l/m 3,2 km/h (1 Bft) O-NO 67 0 min 0,000 mm 1,9 UV-I 151 W/m 11,8 C 23,8 C 3,2 km/h (1 Bft) 100,00 %
09.08.2022 16:48 23,8 C 45 % 1024,4 hPa 0,0 l/m 3,2 km/h (1 Bft) O 90 1 min 0,000 mm 2,4 UV-I 522 W/m 11,1 C 23,8 C 4,8 km/h (1 Bft) 100,00 %
09.08.2022 16:47 23,8 C 45 % 1024,4 hPa 0,0 l/m 4,8 km/h (1 Bft) NO 45 1 min 0,000 mm 2,6 UV-I 598 W/m 11,1 C 23,8 C 8,0 km/h (2 Bft) 100,00 %
09.08.2022 16:46 23,9 C 44 % 1024,4 hPa 0,0 l/m 11,3 km/h (2 Bft) NO 45 1 min 0,000 mm 2,7 UV-I 589 W/m 10,9 C 23,9 C 16,1 km/h (3 Bft) 100,00 %
09.08.2022 16:45 23,9 C 50 % 1024,5 hPa 0,0 l/m 3,2 km/h (1 Bft) O-NO 67 1 min 0,000 mm 2,6 UV-I 596 W/m 12,8 C 23,9 C 8,0 km/h (2 Bft) 100,00 %
09.08.2022 16:44 23,8 C 49 % 1024,5 hPa 0,0 l/m 1,6 km/h (1 Bft) NO 45 1 min 0,000 mm 2,8 UV-I 596 W/m 12,4 C 23,8 C 4,8 km/h (1 Bft) 100,00 %
09.08.2022 16:43 23,6 C 47 % 1024,5 hPa 0,0 l/m 3,2 km/h (1 Bft) N-NO 22 1 min 0,000 mm 2,8 UV-I 578 W/m 11,6 C 23,6 C 6,4 km/h (2 Bft) 100,00 %
09.08.2022 16:42 23,6 C 46 % 1024,5 hPa 0,0 l/m 3,2 km/h (1 Bft) NO 45 1 min 0,000 mm 2,8 UV-I 575 W/m 11,3 C 23,6 C 6,4 km/h (2 Bft) 95,65 %
09.08.2022 16:41 23,7 C 47 % 1024,4 hPa 0,0 l/m 3,2 km/h (1 Bft) NO 45 1 min 0,000 mm 2,8 UV-I 575 W/m 11,7 C 23,7 C 4,8 km/h (1 Bft) 100,00 %
09.08.2022 16:40 23,6 C 47 % 1024,4 hPa 0,0 l/m 3,2 km/h (1 Bft) O-NO 67 1 min 0,000 mm 2,9 UV-I 566 W/m 11,6 C 23,6 C 4,8 km/h (1 Bft) 100,00 %
09.08.2022 16:39 23,5 C 49 % 1024,4 hPa 0,0 l/m 1,6 km/h (1 Bft) O 90 1 min 0,000 mm 2,8 UV-I 563 W/m 12,2 C 23,5 C 3,2 km/h (1 Bft) 100,00 %
09.08.2022 16:38 23,4 C 46 % 1024,5 hPa 0,0 l/m 4,8 km/h (1 Bft) N-NO 22 0 min 0,000 mm 2,9 UV-I 111 W/m 11,1 C 23,4 C 6,4 km/h (2 Bft) 100,00 %
09.08.2022 16:37 23,6 C 45 % 1024,4 hPa 0,0 l/m 8,0 km/h (2 Bft) NO 45 0 min 0,000 mm 2,8 UV-I 111 W/m 11,0 C 23,6 C 8,0 km/h (2 Bft) 100,00 %
09.08.2022 16:36 23,7 C 46 % 1024,4 hPa 0,0 l/m 8,0 km/h (2 Bft) NO 45 0 min 0,000 mm 2,1 UV-I 111 W/m 11,4 C 23,7 C 11,3 km/h (2 Bft) 100,00 %
09.08.2022 16:35 23,8 C 45 % 1024,5 hPa 0,0 l/m 4,8 km/h (1 Bft) NO 45 0 min 0,000 mm 2,1 UV-I 118 W/m 11,1 C 23,8 C 8,0 km/h (2 Bft) 100,00 %
09.08.2022 16:34 23,9 C 49 % 1024,6 hPa 0,0 l/m 4,8 km/h (1 Bft) NO 45 1 min 0,000 mm 2,2 UV-I 585 W/m 12,5 C 23,9 C 4,8 km/h (1 Bft) 95,65 %
09.08.2022 16:33 23,8 C 48 % 1024,5 hPa 0,0 l/m 3,2 km/h (1 Bft) O 90 1 min 0,000 mm 2,9 UV-I 585 W/m 12,1 C 23,8 C 6,4 km/h (2 Bft) 100,00 %
09.08.2022 16:32 23,6 C 47 % 1024,6 hPa 0,0 l/m 1,6 km/h (1 Bft) O 90 1 min 0,000 mm 3,0 UV-I 619 W/m 11,6 C 23,6 C 6,4 km/h (2 Bft) 95,65 %
09.08.2022 16:31 23,4 C 46 % 1024,6 hPa 0,0 l/m 0,0 km/h (0 Bft) NO 45 1 min 0,000 mm 3,1 UV-I 606 W/m 11,1 C 23,4 C 1,6 km/h (1 Bft) 100,00 %
09.08.2022 16:30 23,4 C 47 % 1024,6 hPa 0,0 l/m 3,2 km/h (1 Bft) NO 45 1 min 0,000 mm 3,1 UV-I 606 W/m 11,4 C 23,4 C 4,8 km/h (1 Bft) 100,00 %
09.08.2022 16:29 23,4 C 46 % 1024,5 hPa 0,0 l/m 4,8 km/h (1 Bft) NO 45 1 min 0,000 mm 3,2 UV-I 640 W/m 11,1 C 23,4 C 8,0 km/h (2 Bft) 100,00 %
09.08.2022 16:28 23,4 C 46 % 1024,6 hPa 0,0 l/m 8,0 km/h (2 Bft) N-NO 22 1 min 0,000 mm 2,4 UV-I 204 W/m 11,1 C 23,4 C 12,9 km/h (3 Bft) 100,00 %
09.08.2022 16:27 23,5 C 46 % 1024,5 hPa 0,0 l/m 14,5 km/h (3 Bft) NO 45 1 min 0,000 mm 2,3 UV-I 287 W/m 11,2 C 23,5 C 17,7 km/h (3 Bft) 100,00 %
09.08.2022 16:26 23,6 C 48 % 1024,5 hPa 0,0 l/m 11,3 km/h (2 Bft) N-NO 22 1 min 0,000 mm 2,4 UV-I 287 W/m 11,9 C 23,6 C 14,5 km/h (3 Bft) 100,00 %
09.08.2022 16:25 23,6 C 47 % 1024,6 hPa 0,0 l/m 3,2 km/h (1 Bft) N-NO 22 1 min 0,000 mm 2,8 UV-I 631 W/m 11,6 C 23,6 C 6,4 km/h (2 Bft) 100,00 %
09.08.2022 16:24 23,6 C 46 % 1024,6 hPa 0,0 l/m 1,6 km/h (1 Bft) NO 45 1 min 0,000 mm 3,2 UV-I 631 W/m 11,3 C 23,6 C 4,8 km/h (1 Bft) 100,00 %
09.08.2022 16:23 23,6 C 48 % 1024,5 hPa 0,0 l/m 6,4 km/h (2 Bft) O-NO 67 1 min 0,000 mm 3,3 UV-I 631 W/m 11,9 C 23,6 C 8,0 km/h (2 Bft) 100,00 %
09.08.2022 16:22 23,7 C 48 % 1024,6 hPa 0,0 l/m 4,8 km/h (1 Bft) N-NO 22 1 min 0,000 mm 2,7 UV-I 617 W/m 12,0 C 23,7 C 8,0 km/h (2 Bft) 95,65 %
09.08.2022 16:21 23,6 C 48 % 1024,6 hPa 0,0 l/m 6,4 km/h (2 Bft) NO 45 1 min 0,000 mm 2,8 UV-I 617 W/m 11,9 C 23,6 C 8,0 km/h (2 Bft) 100,00 %
09.08.2022 16:20 23,7 C 47 % 1024,6 hPa 0,0 l/m 8,0 km/h (2 Bft) NO 45 1 min 0,000 mm 3,4 UV-I 619 W/m 11,7 C 23,7 C 9,7 km/h (2 Bft) 100,00 %
09.08.2022 16:19 23,7 C 46 % 1024,7 hPa 0,0 l/m 8,0 km/h (2 Bft) NO 45 1 min 0,000 mm 3,4 UV-I 606 W/m 11,4 C 23,7 C 14,5 km/h (3 Bft) 100,00 %
09.08.2022 16:18 23,8 C 45 % 1024,6 hPa 0,0 l/m 8,0 km/h (2 Bft) NO 45 1 min 0,000 mm 3,4 UV-I 606 W/m 11,1 C 23,8 C 12,9 km/h (3 Bft) 100,00 %
09.08.2022 16:17 23,9 C 48 % 1024,6 hPa 0,0 l/m 9,7 km/h (2 Bft) O-NO 67 1 min 0,000 mm 3,5 UV-I 606 W/m 12,2 C 23,9 C 16,1 km/h (3 Bft) 100,00 %
09.08.2022 16:16 23,9 C 47 % 1024,5 hPa 0,0 l/m 3,2 km/h (1 Bft) O-NO 67 1 min 0,000 mm 3,5 UV-I 606 W/m 11,9 C 23,9 C 6,4 km/h (2 Bft) 100,00 %
09.08.2022 16:15 23,9 C 47 % 1024,5 hPa 0,0 l/m 8,0 km/h (2 Bft) O-NO 67 1 min 0,000 mm 3,5 UV-I 598 W/m 11,9 C 23,9 C 11,3 km/h (2 Bft) 100,00 %
09.08.2022 16:14 23,9 C 49 % 1024,5 hPa 0,0 l/m 3,2 km/h (1 Bft) O-NO 67 1 min 0,000 mm 3,5 UV-I 599 W/m 12,5 C 23,9 C 9,7 km/h (2 Bft) 100,00 %
09.08.2022 16:13 23,8 C 48 % 1024,6 hPa 0,0 l/m 1,6 km/h (1 Bft) O 90 1 min 0,000 mm 3,6 UV-I 599 W/m 12,1 C 23,8 C 4,8 km/h (1 Bft) 100,00 %
09.08.2022 16:12 23,6 C 51 % 1024,6 hPa 0,0 l/m 1,6 km/h (1 Bft) N 360 1 min 0,000 mm 3,6 UV-I 612 W/m 12,9 C 23,6 C 4,8 km/h (1 Bft) 100,00 %
09.08.2022 16:11 23,4 C 46 % 1024,6 hPa 0,0 l/m 1,6 km/h (1 Bft) N 360 1 min 0,000 mm 3,7 UV-I 612 W/m 11,1 C 23,4 C 3,2 km/h (1 Bft) 100,00 %
09.08.2022 16:10 23,4 C 46 % 1024,5 hPa 0,0 l/m 0,0 km/h (0 Bft) N-NO 22 1 min 0,000 mm 3,7 UV-I 613 W/m 11,1 C 23,4 C 3,2 km/h (1 Bft) 100,00 %
09.08.2022 16:09 23,4 C 46 % 1024,6 hPa 0,0 l/m 0,0 km/h (0 Bft) N-NO 22 1 min 0,000 mm 3,7 UV-I 612 W/m 11,1 C 23,4 C 1,6 km/h (1 Bft) 100,00 %
09.08.2022 16:08 23,4 C 47 % 1024,5 hPa 0,0 l/m 1,6 km/h (1 Bft) NO 45 1 min 0,000 mm 3,7 UV-I 613 W/m 11,4 C 23,4 C 3,2 km/h (1 Bft) 100,00 %
09.08.2022 16:07 23,4 C 48 % 1024,6 hPa 0,0 l/m 1,6 km/h (1 Bft) NO 45 1 min 0,000 mm 3,8 UV-I 615 W/m 11,8 C 23,4 C 3,2 km/h (1 Bft) 100,00 %
09.08.2022 16:06 23,4 C 47 % 1024,4 hPa 0,0 l/m 0,0 km/h (0 Bft) NO 45 1 min 0,000 mm 3,8 UV-I 619 W/m 11,4 C 23,4 C 1,6 km/h (1 Bft) 100,00 %
09.08.2022 16:05 23,4 C 46 % 1024,5 hPa 0,0 l/m 3,2 km/h (1 Bft) NO 45 1 min 0,000 mm 3,8 UV-I 615 W/m 11,1 C 23,4 C 4,8 km/h (1 Bft) 95,65 %
09.08.2022 16:04 23,4 C 46 % 1024,5 hPa 0,0 l/m 4,8 km/h (1 Bft) O-NO 67 1 min 0,000 mm 3,8 UV-I 621 W/m 11,1 C 23,4 C 6,4 km/h (2 Bft) 100,00 %
09.08.2022 16:03 23,6 C 49 % 1024,6 hPa 0,0 l/m 4,8 km/h (1 Bft) N-NO 22 1 min 0,000 mm 3,8 UV-I 610 W/m 12,2 C 23,6 C 6,4 km/h (2 Bft) 100,00 %
09.08.2022 16:02 23,6 C 48 % 1024,5 hPa 0,0 l/m 4,8 km/h (1 Bft) N 360 1 min 0,000 mm 3,9 UV-I 622 W/m 11,9 C 23,6 C 6,4 km/h (2 Bft) 100,00 %
09.08.2022 16:01 23,6 C 47 % 1024,6 hPa 0,0 l/m 4,8 km/h (1 Bft) N 360 1 min 0,000 mm 3,9 UV-I 628 W/m 11,6 C 23,6 C 8,0 km/h (2 Bft) 100,00 %
09.08.2022 16:00 23,7 C 48 % 1024,6 hPa 0,0 l/m 3,2 km/h (1 Bft) NW 315 1 min 0,508 mm 4,0 UV-I 633 W/m 12,0 C 23,7 C 4,8 km/h (1 Bft) 95,65 %
09.08.2022 15:59 23,7 C 46 % 1024,6 hPa 0,0 l/m 1,6 km/h (1 Bft) N-NW 337 1 min 0,000 mm 3,9 UV-I 622 W/m 11,4 C 23,7 C 4,8 km/h (1 Bft) 100,00 %
09.08.2022 15:58 23,6 C 46 % 1024,7 hPa 0,0 l/m 1,6 km/h (1 Bft) W 270 1 min 0,000 mm 3,9 UV-I 628 W/m 11,3 C 23,6 C 3,2 km/h (1 Bft) 100,00 %
09.08.2022 15:57 23,5 C 46 % 1024,5 hPa 0,0 l/m 4,8 km/h (1 Bft) SW 225 1 min 0,000 mm 3,9 UV-I 631 W/m 11,2 C 23,5 C 6,4 km/h (2 Bft) 100,00 %
09.08.2022 15:56 23,4 C 47 % 1024,6 hPa 0,0 l/m 6,4 km/h (2 Bft) S-SW 202 1 min 0,000 mm 4,0 UV-I 633 W/m 11,4 C 23,4 C 8,0 km/h (2 Bft) 100,00 %
09.08.2022 15:55 23,3 C 47 % 1024,6 hPa 0,0 l/m 4,8 km/h (1 Bft) W 270 1 min 0,000 mm 3,9 UV-I 629 W/m 11,3 C 23,3 C 6,4 km/h (2 Bft) 100,00 %
09.08.2022 15:54 23,3 C 46 % 1024,6 hPa 0,0 l/m 11,3 km/h (2 Bft) N-NW 337 1 min 0,000 mm 4,0 UV-I 640 W/m 11,0 C 23,3 C 14,5 km/h (3 Bft) 100,00 %
09.08.2022 15:53 23,3 C 48 % 1024,6 hPa 0,0 l/m 8,0 km/h (2 Bft) N 360 1 min 0,000 mm 4,0 UV-I 640 W/m 11,7 C 23,3 C 11,3 km/h (2 Bft) 95,65 %
09.08.2022 15:52 23,2 C 45 % 1024,4 hPa 0,0 l/m 6,4 km/h (2 Bft) N 360 1 min 0,000 mm 4,0 UV-I 640 W/m 10,6 C 23,2 C 8,0 km/h (2 Bft) 100,00 %
09.08.2022 15:51 23,3 C 45 % 1024,5 hPa 0,0 l/m 8,0 km/h (2 Bft) NW 315 1 min 0,000 mm 4,0 UV-I 643 W/m 10,7 C 23,3 C 12,9 km/h (3 Bft) 100,00 %
09.08.2022 15:50 23,3 C 45 % 1024,5 hPa 0,0 l/m 11,3 km/h (2 Bft) NW 315 1 min 0,000 mm 4,1 UV-I 652 W/m 10,7 C 23,3 C 14,5 km/h (3 Bft) 100,00 %
09.08.2022 15:49 23,4 C 47 % 1024,5 hPa 0,0 l/m 9,7 km/h (2 Bft) NW 315 1 min 0,000 mm 4,2 UV-I 657 W/m 11,4 C 23,4 C 12,9 km/h (3 Bft) 100,00 %
09.08.2022 15:48 23,4 C 45 % 1024,5 hPa 0,0 l/m 4,8 km/h (1 Bft) N-NW 337 1 min 0,000 mm 4,3 UV-I 664 W/m 10,8 C 23,4 C 9,7 km/h (2 Bft) 95,65 %
09.08.2022 15:47 23,3 C 45 % 1024,6 hPa 0,0 l/m 0,0 km/h (0 Bft) O-SO 112 1 min 0,000 mm 4,2 UV-I 657 W/m 10,7 C 23,3 C 1,6 km/h (1 Bft) 100,00 %
09.08.2022 15:46 23,3 C 46 % 1024,6 hPa 0,0 l/m 1,6 km/h (1 Bft) O-NO 67 1 min 0,000 mm 4,3 UV-I 670 W/m 11,0 C 23,3 C 6,4 km/h (2 Bft) 100,00 %
09.08.2022 15:45 23,2 C 46 % 1024,6 hPa 0,0 l/m 3,2 km/h (1 Bft) O-NO 67 1 min 0,000 mm 4,4 UV-I 668 W/m 10,9 C 23,2 C 6,4 km/h (2 Bft) 100,00 %
09.08.2022 15:44 23,2 C 46 % 1024,7 hPa 0,0 l/m 3,2 km/h (1 Bft) O-NO 67 1 min 0,000 mm 4,3 UV-I 668 W/m 10,9 C 23,2 C 6,4 km/h (2 Bft) 100,00 %
09.08.2022 15:43 23,2 C 46 % 1024,6 hPa 0,0 l/m 4,8 km/h (1 Bft) NO 45 1 min 0,000 mm 4,3 UV-I 663 W/m 10,9 C 23,2 C 6,4 km/h (2 Bft) 100,00 %
09.08.2022 15:42 23,2 C 46 % 1024,7 hPa 0,0 l/m 8,0 km/h (2 Bft) O-NO 67 1 min 0,000 mm 4,3 UV-I 670 W/m 10,9 C 23,2 C 9,7 km/h (2 Bft) 100,00 %
09.08.2022 15:41 23,2 C 47 % 1024,6 hPa 0,0 l/m 6,4 km/h (2 Bft) N-NO 22 1 min 0,000 mm 4,3 UV-I 673 W/m 11,3 C 23,2 C 8,0 km/h (2 Bft) 95,65 %
09.08.2022 15:40 23,1 C 47 % 1024,6 hPa 0,0 l/m 8,0 km/h (2 Bft) N 360 1 min 0,000 mm 4,4 UV-I 679 W/m 11,2 C 23,1 C 12,9 km/h (3 Bft) 100,00 %
09.08.2022 15:39 23,2 C 46 % 1024,7 hPa 0,0 l/m 11,3 km/h (2 Bft) N 360 1 min 0,000 mm 4,4 UV-I 680 W/m 10,9 C 23,2 C 14,5 km/h (3 Bft) 100,00 %
09.08.2022 15:38 23,2 C 45 % 1024,6 hPa 0,0 l/m 11,3 km/h (2 Bft) N 360 1 min 0,000 mm 4,5 UV-I 684 W/m 10,6 C 23,2 C 14,5 km/h (3 Bft) 100,00 %
09.08.2022 15:37 23,2 C 48 % 1024,6 hPa 0,0 l/m 14,5 km/h (3 Bft) N 360 1 min 0,000 mm 4,5 UV-I 684 W/m 11,6 C 23,2 C 16,1 km/h (3 Bft) 100,00 %
09.08.2022 15:36 23,3 C 46 % 1024,6 hPa 0,0 l/m 9,7 km/h (2 Bft) N-NW 337 1 min 0,000 mm 4,5 UV-I 679 W/m 11,0 C 23,3 C 14,5 km/h (3 Bft) 95,65 %
09.08.2022 15:35 23,3 C 47 % 1024,6 hPa 0,0 l/m 11,3 km/h (2 Bft) N 360 1 min 0,000 mm 4,4 UV-I 682 W/m 11,3 C 23,3 C 14,5 km/h (3 Bft) 100,00 %
09.08.2022 15:34 23,3 C 45 % 1024,7 hPa 0,0 l/m 12,9 km/h (3 Bft) N 360 1 min 0,000 mm 4,5 UV-I 691 W/m 10,7 C 23,3 C 17,7 km/h (3 Bft) 95,65 %
09.08.2022 15:33 23,3 C 46 % 1024,7 hPa 0,0 l/m 8,0 km/h (2 Bft) NO 45 1 min 0,000 mm 4,6 UV-I 700 W/m 11,0 C 23,3 C 11,3 km/h (2 Bft) 100,00 %
09.08.2022 15:32 23,3 C 47 % 1024,6 hPa 0,0 l/m 9,7 km/h (2 Bft) NO 45 1 min 0,000 mm 4,6 UV-I 700 W/m 11,3 C 23,3 C 14,5 km/h (3 Bft) 100,00 %
09.08.2022 15:31 23,2 C 47 % 1024,7 hPa 0,0 l/m 6,4 km/h (2 Bft) O-NO 67 1 min 0,000 mm 4,7 UV-I 701 W/m 11,3 C 23,2 C 12,9 km/h (3 Bft) 100,00 %
09.08.2022 15:30 23,1 C 47 % 1024,6 hPa 0,0 l/m 4,8 km/h (1 Bft) O-NO 67 1 min 0,000 mm 4,7 UV-I 700 W/m 11,2 C 23,1 C 9,7 km/h (2 Bft) 100,00 %
09.08.2022 15:29 23,2 C 46 % 1024,7 hPa 0,0 l/m 4,8 km/h (1 Bft) NO 45 1 min 0,000 mm 4,6 UV-I 731 W/m 10,9 C 23,2 C 4,8 km/h (1 Bft) 100,00 %
09.08.2022 15:28 23,3 C 45 % 1024,7 hPa 0,0 l/m 6,4 km/h (2 Bft) N-NO 22 1 min 0,000 mm 3,9 UV-I 731 W/m 10,7 C 23,3 C 9,7 km/h (2 Bft) 100,00 %
09.08.2022 15:27 23,3 C 46 % 1024,7 hPa 0,0 l/m 8,0 km/h (2 Bft) NO 45 1 min 0,000 mm 4,6 UV-I 731 W/m 11,0 C 23,3 C 11,3 km/h (2 Bft) 100,00 %
09.08.2022 15:26 23,3 C 50 % 1024,7 hPa 0,0 l/m 6,4 km/h (2 Bft) NO 45 1 min 0,000 mm 4,8 UV-I 733 W/m 12,3 C 23,3 C 14,5 km/h (3 Bft) 100,00 %
09.08.2022 15:25 23,3 C 45 % 1024,7 hPa 0,0 l/m 8,0 km/h (2 Bft) NO 45 1 min 0,000 mm 4,8 UV-I 733 W/m 10,7 C 23,3 C 11,3 km/h (2 Bft) 100,00 %
09.08.2022 15:24 23,4 C 47 % 1024,7 hPa 0,0 l/m 4,8 km/h (1 Bft) NO 45 1 min 0,000 mm 4,8 UV-I 729 W/m 11,4 C 23,4 C 11,3 km/h (2 Bft) 100,00 %
09.08.2022 15:23 23,4 C 45 % 1024,7 hPa 0,0 l/m 6,4 km/h (2 Bft) N-NO 22 1 min 0,000 mm 4,9 UV-I 724 W/m 10,8 C 23,4 C 8,0 km/h (2 Bft) 100,00 %
09.08.2022 15:22 23,6 C 47 % 1024,6 hPa 0,0 l/m 3,2 km/h (1 Bft) O-SO 112 1 min 0,000 mm 4,9 UV-I 722 W/m 11,6 C 23,6 C 6,4 km/h (2 Bft) 100,00 %
09.08.2022 15:21 23,7 C 47 % 1024,7 hPa 0,0 l/m 3,2 km/h (1 Bft) O-SO 112 1 min 0,000 mm 4,9 UV-I 714 W/m 11,7 C 23,7 C 9,7 km/h (2 Bft) 100,00 %
09.08.2022 15:20 23,7 C 45 % 1024,6 hPa 0,0 l/m 6,4 km/h (2 Bft) O-SO 112 1 min 0,000 mm 4,9 UV-I 712 W/m 11,1 C 23,7 C 11,3 km/h (2 Bft) 100,00 %
09.08.2022 15:19 23,7 C 49 % 1024,6 hPa 0,0 l/m 4,8 km/h (1 Bft) O-NO 67 1 min 0,000 mm 4,9 UV-I 712 W/m 12,3 C 23,7 C 6,4 km/h (2 Bft) 100,00 %
09.08.2022 15:18 23,6 C 47 % 1024,6 hPa 0,0 l/m 4,8 km/h (1 Bft) NO 45 1 min 0,000 mm 4,9 UV-I 708 W/m 11,6 C 23,6 C 8,0 km/h (2 Bft) 100,00 %
09.08.2022 15:17 23,4 C 49 % 1024,6 hPa 0,0 l/m 1,6 km/h (1 Bft) O 90 1 min 0,000 mm 4,9 UV-I 710 W/m 12,1 C 23,4 C 4,8 km/h (1 Bft) 95,65 %
09.08.2022 15:16 23,3 C 46 % 1024,7 hPa 0,0 l/m 1,6 km/h (1 Bft) O-SO 112 1 min 0,000 mm 4,9 UV-I 708 W/m 11,0 C 23,3 C 3,2 km/h (1 Bft) 100,00 %
09.08.2022 15:15 23,3 C 51 % 1024,7 hPa 0,0 l/m 1,6 km/h (1 Bft) O 90 1 min 0,000 mm 4,9 UV-I 708 W/m 12,6 C 23,3 C 4,8 km/h (1 Bft) 100,00 %
09.08.2022 15:14 23,1 C 46 % 1024,6 hPa 0,0 l/m 1,6 km/h (1 Bft) O 90 1 min 0,000 mm 4,9 UV-I 714 W/m 10,8 C 23,1 C 4,8 km/h (1 Bft) 100,00 %
09.08.2022 15:13 23,1 C 47 % 1024,6 hPa 0,0 l/m 1,6 km/h (1 Bft) O 90 1 min 0,000 mm 4,9 UV-I 722 W/m 11,2 C 23,1 C 4,8 km/h (1 Bft) 95,65 %
09.08.2022 15:12 23,1 C 47 % 1024,7 hPa 0,0 l/m 1,6 km/h (1 Bft) O-SO 112 1 min 0,000 mm 4,9 UV-I 717 W/m 11,2 C 23,1 C 4,8 km/h (1 Bft) 100,00 %
09.08.2022 15:11 22,9 C 49 % 1024,7 hPa 0,0 l/m 3,2 km/h (1 Bft) O 90 1 min 0,000 mm 4,9 UV-I 715 W/m 11,6 C 22,9 C 6,4 km/h (2 Bft) 100,00 %
09.08.2022 15:10 22,9 C 46 % 1024,7 hPa 0,0 l/m 8,0 km/h (2 Bft) O-NO 67 1 min 0,000 mm 4,9 UV-I 728 W/m 10,7 C 22,9 C 14,5 km/h (3 Bft) 100,00 %
09.08.2022 15:09 22,9 C 47 % 1024,7 hPa 0,0 l/m 12,9 km/h (3 Bft) NO 45 0 min 0,000 mm 4,9 UV-I 127 W/m 11,0 C 22,9 C 16,1 km/h (3 Bft) 100,00 %
09.08.2022 15:08 23,1 C 46 % 1024,7 hPa 0,0 l/m 9,7 km/h (2 Bft) NO 45 0 min 0,000 mm 3,1 UV-I 127 W/m 10,8 C 23,1 C 12,9 km/h (3 Bft) 100,00 %
09.08.2022 15:07 23,1 C 48 % 1024,7 hPa 0,0 l/m 4,8 km/h (1 Bft) O-NO 67 0 min 0,000 mm 3,2 UV-I 127 W/m 11,5 C 23,1 C 9,7 km/h (2 Bft) 100,00 %
09.08.2022 15:06 23,1 C 47 % 1024,7 hPa 0,0 l/m 3,2 km/h (1 Bft) NO 45 1 min 0,000 mm 4,0 UV-I 752 W/m 11,2 C 23,1 C 6,4 km/h (2 Bft) 100,00 %
09.08.2022 15:05 23,1 C 48 % 1024,8 hPa 0,0 l/m 1,6 km/h (1 Bft) W 270 1 min 0,000 mm 5,0 UV-I 752 W/m 11,5 C 23,1 C 6,4 km/h (2 Bft) 100,00 %
09.08.2022 15:04 23,1 C 47 % 1024,7 hPa 0,0 l/m 6,4 km/h (2 Bft) NW 315 1 min 0,000 mm 5,2 UV-I 763 W/m 11,2 C 23,1 C 8,0 km/h (2 Bft) 100,00 %
09.08.2022 15:03 23,1 C 47 % 1024,8 hPa 0,0 l/m 6,4 km/h (2 Bft) N-NO 22 1 min 0,000 mm 5,3 UV-I 759 W/m 11,2 C 23,1 C 8,0 km/h (2 Bft) 95,65 %
09.08.2022 15:02 23,1 C 47 % 1024,7 hPa 0,0 l/m 9,7 km/h (2 Bft) N-NW 337 1 min 0,000 mm 5,4 UV-I 752 W/m 11,2 C 23,1 C 16,1 km/h (3 Bft) 100,00 %
09.08.2022 15:01 23,2 C 46 % 1024,7 hPa 0,0 l/m 12,9 km/h (3 Bft) N 360 1 min 0,000 mm 5,4 UV-I 744 W/m 10,9 C 23,2 C 16,1 km/h (3 Bft) 95,65 %
09.08.2022 15:00 23,1 C 47 % 1024,7 hPa 0,0 l/m 9,7 km/h (2 Bft) N-NW 337 1 min 0,584 mm 5,4 UV-I 738 W/m 11,2 C 23,1 C 14,5 km/h (3 Bft) 95,65 %
09.08.2022 14:59 23,1 C 47 % 1024,8 hPa 0,0 l/m 8,0 km/h (2 Bft) NW 315 1 min 0,000 mm 5,4 UV-I 737 W/m 11,2 C 23,1 C 12,9 km/h (3 Bft) 100,00 %
09.08.2022 14:58 22,9 C 47 % 1024,8 hPa 0,0 l/m 1,6 km/h (1 Bft) NW 315 1 min 0,000 mm 5,4 UV-I 731 W/m 11,0 C 22,9 C 4,8 km/h (1 Bft) 95,65 %
09.08.2022 14:57 22,9 C 48 % 1024,8 hPa 0,0 l/m 1,6 km/h (1 Bft) S-SW 202 1 min 0,000 mm 5,4 UV-I 728 W/m 11,3 C 22,9 C 4,8 km/h (1 Bft) 100,00 %
09.08.2022 14:56 22,8 C 47 % 1024,8 hPa 0,0 l/m 4,8 km/h (1 Bft) NO 45 1 min 0,000 mm 5,2 UV-I 728 W/m 10,9 C 22,8 C 9,7 km/h (2 Bft) 100,00 %
09.08.2022 14:55 22,8 C 47 % 1024,8 hPa 0,0 l/m 8,0 km/h (2 Bft) N-NO 22 1 min 0,000 mm 5,3 UV-I 715 W/m 10,9 C 22,8 C 12,9 km/h (3 Bft) 100,00 %
09.08.2022 14:54 22,8 C 47 % 1024,8 hPa 0,0 l/m 11,3 km/h (2 Bft) N 360 1 min 0,000 mm 5,3 UV-I 719 W/m 10,9 C 22,8 C 14,5 km/h (3 Bft) 100,00 %
09.08.2022 14:53 22,9 C 46 % 1024,7 hPa 0,0 l/m 8,0 km/h (2 Bft) N 360 1 min 0,000 mm 5,3 UV-I 717 W/m 10,7 C 22,9 C 12,9 km/h (3 Bft) 100,00 %
09.08.2022 14:52 22,9 C 47 % 1024,8 hPa 0,0 l/m 12,9 km/h (3 Bft) N 360 1 min 0,000 mm 5,4 UV-I 722 W/m 11,0 C 22,9 C 16,1 km/h (3 Bft) 100,00 %
09.08.2022 14:51 22,9 C 50 % 1024,9 hPa 0,0 l/m 12,9 km/h (3 Bft) N 360 1 min 0,000 mm 5,4 UV-I 728 W/m 11,9 C 22,9 C 19,3 km/h (3 Bft) 100,00 %
09.08.2022 14:50 22,9 C 47 % 1024,8 hPa 0,0 l/m 11,3 km/h (2 Bft) NW 315 1 min 0,000 mm 5,5 UV-I 731 W/m 11,0 C 22,9 C 12,9 km/h (3 Bft) 100,00 %
09.08.2022 14:49 22,9 C 47 % 1024,9 hPa 0,0 l/m 8,0 km/h (2 Bft) N-NW 337 1 min 0,000 mm 5,5 UV-I 735 W/m 11,0 C 22,9 C 12,9 km/h (3 Bft) 100,00 %
09.08.2022 14:48 23,0 C 47 % 1024,8 hPa 0,0 l/m 12,9 km/h (3 Bft) N-NW 337 1 min 0,000 mm 5,5 UV-I 735 W/m 11,1 C 23,0 C 14,5 km/h (3 Bft) 100,00 %
09.08.2022 14:47 23,0 C 47 % 1024,9 hPa 0,0 l/m 12,9 km/h (3 Bft) N-NW 337 1 min 0,000 mm 5,6 UV-I 740 W/m 11,1 C 23,0 C 16,1 km/h (3 Bft) 100,00 %
09.08.2022 14:46 23,1 C 51 % 1024,9 hPa 0,0 l/m 9,7 km/h (2 Bft) N-NW 337 1 min 0,000 mm 5,6 UV-I 742 W/m 12,4 C 23,1 C 14,5 km/h (3 Bft) 100,00 %
09.08.2022 14:45 22,9 C 51 % 1024,9 hPa 0,0 l/m 8,0 km/h (2 Bft) N-NW 337 1 min 0,000 mm 5,7 UV-I 744 W/m 12,2 C 22,9 C 12,9 km/h (3 Bft) 100,00 %
09.08.2022 14:44 22,9 C 47 % 1024,9 hPa 0,0 l/m 9,7 km/h (2 Bft) N 360 1 min 0,000 mm 5,6 UV-I 744 W/m 11,0 C 22,9 C 12,9 km/h (3 Bft) 100,00 %
09.08.2022 14:43 22,9 C 48 % 1024,9 hPa 0,0 l/m 9,7 km/h (2 Bft) N-NO 22 1 min 0,000 mm 5,6 UV-I 740 W/m 11,3 C 22,9 C 12,9 km/h (3 Bft) 100,00 %
09.08.2022 14:42 22,9 C 48 % 1024,8 hPa 0,0 l/m 11,3 km/h (2 Bft) N 360 1 min 0,000 mm 5,6 UV-I 744 W/m 11,3 C 22,9 C 14,5 km/h (3 Bft) 100,00 %
09.08.2022 14:41 22,9 C 47 % 1024,8 hPa 0,0 l/m 12,9 km/h (3 Bft) N 360 1 min 0,000 mm 5,6 UV-I 744 W/m 11,0 C 22,9 C 14,5 km/h (3 Bft) 100,00 %
09.08.2022 14:40 22,9 C 48 % 1024,8 hPa 0,0 l/m 12,9 km/h (3 Bft) N-NW 337 1 min 0,000 mm 5,6 UV-I 747 W/m 11,3 C 22,9 C 16,1 km/h (3 Bft) 100,00 %
09.08.2022 14:39 23,0 C 46 % 1024,9 hPa 0,0 l/m 11,3 km/h (2 Bft) N-NW 337 1 min 0,000 mm 5,7 UV-I 756 W/m 10,7 C 23,0 C 14,5 km/h (3 Bft) 100,00 %
09.08.2022 14:38 23,1 C 49 % 1024,9 hPa 0,0 l/m 4,8 km/h (1 Bft) N-NW 337 1 min 0,000 mm 5,8 UV-I 768 W/m 11,8 C 23,1 C 8,0 km/h (2 Bft) 100,00 %
09.08.2022 14:37 23,2 C 46 % 1024,9 hPa 0,0 l/m 9,7 km/h (2 Bft) N 360 1 min 0,000 mm 5,8 UV-I 768 W/m 10,9 C 23,2 C 14,5 km/h (3 Bft) 100,00 %
09.08.2022 14:36 23,4 C 45 % 1024,8 hPa 0,0 l/m 16,1 km/h (3 Bft) N 360 1 min 0,000 mm 5,8 UV-I 765 W/m 10,8 C 23,4 C 22,5 km/h (4 Bft) 100,00 %
09.08.2022 14:35 23,4 C 48 % 1025,0 hPa 0,0 l/m 16,1 km/h (3 Bft) N 360 1 min 0,000 mm 5,9 UV-I 766 W/m 11,8 C 23,4 C 20,9 km/h (4 Bft) 100,00 %
09.08.2022 14:34 23,3 C 50 % 1025,0 hPa 0,0 l/m 11,3 km/h (2 Bft) NO 45 1 min 0,000 mm 5,9 UV-I 759 W/m 12,3 C 23,3 C 22,5 km/h (4 Bft) 100,00 %
09.08.2022 14:33 23,0 C 49 % 1025,0 hPa 0,0 l/m 1,6 km/h (1 Bft) W-SW 247 1 min 0,000 mm 5,9 UV-I 761 W/m 11,7 C 23,0 C 4,8 km/h (1 Bft) 100,00 %
09.08.2022 14:32 22,8 C 46 % 1024,9 hPa 0,0 l/m 4,8 km/h (1 Bft) N-NW 337 1 min 0,000 mm 6,0 UV-I 766 W/m 10,6 C 22,8 C 8,0 km/h (2 Bft) 100,00 %
09.08.2022 14:31 22,9 C 47 % 1025,0 hPa 0,0 l/m 6,4 km/h (2 Bft) N-NW 337 1 min 0,000 mm 6,0 UV-I 763 W/m 11,0 C 22,9 C 8,0 km/h (2 Bft) 100,00 %
09.08.2022 14:30 22,9 C 47 % 1024,9 hPa 0,0 l/m 4,8 km/h (1 Bft) NW 315 1 min 0,000 mm 6,0 UV-I 765 W/m 11,0 C 22,9 C 8,0 km/h (2 Bft) 100,00 %
09.08.2022 14:29 23,0 C 46 % 1025,0 hPa 0,0 l/m 3,2 km/h (1 Bft) N-NO 22 1 min 0,000 mm 6,0 UV-I 765 W/m 10,7 C 23,0 C 6,4 km/h (2 Bft) 100,00 %
09.08.2022 14:28 22,9 C 46 % 1024,9 hPa 0,0 l/m 1,6 km/h (1 Bft) O 90 1 min 0,000 mm 6,0 UV-I 765 W/m 10,7 C 22,9 C 1,6 km/h (1 Bft) 100,00 %
09.08.2022 14:27 23,0 C 47 % 1024,9 hPa 0,0 l/m 1,6 km/h (1 Bft) O 90 1 min 0,000 mm 6,0 UV-I 761 W/m 11,1 C 23,0 C 4,8 km/h (1 Bft) 100,00 %
09.08.2022 14:26 23,0 C 46 % 1025,0 hPa 0,0 l/m 1,6 km/h (1 Bft) S 180 1 min 0,000 mm 6,0 UV-I 761 W/m 10,7 C 23,0 C 3,2 km/h (1 Bft) 100,00 %
09.08.2022 14:25 23,1 C 45 % 1025,0 hPa 0,0 l/m 1,6 km/h (1 Bft) O 90 1 min 0,000 mm 6,0 UV-I 761 W/m 10,5 C 23,1 C 4,8 km/h (1 Bft) 100,00 %
09.08.2022 14:24 23,1 C 47 % 1025,0 hPa 0,0 l/m 3,2 km/h (1 Bft) O 90 1 min 0,000 mm 6,0 UV-I 759 W/m 11,2 C 23,1 C 6,4 km/h (2 Bft) 91,30 %
09.08.2022 14:23 23,0 C 52 % 1024,9 hPa 0,0 l/m 4,8 km/h (1 Bft) O 90 1 min 0,000 mm 6,0 UV-I 759 W/m 12,6 C 23,0 C 8,0 km/h (2 Bft) 100,00 %
09.08.2022 14:22 22,7 C 55 % 1024,9 hPa 0,0 l/m 4,8 km/h (1 Bft) O-NO 67 1 min 0,000 mm 6,0 UV-I 761 W/m 13,2 C 22,7 C 8,0 km/h (2 Bft) 95,65 %
09.08.2022 14:21 22,6 C 47 % 1025,0 hPa 0,0 l/m 1,6 km/h (1 Bft) NO 45 1 min 0,000 mm 6,1 UV-I 763 W/m 10,7 C 22,6 C 3,2 km/h (1 Bft) 100,00 %
09.08.2022 14:20 22,6 C 47 % 1025,0 hPa 0,0 l/m 4,8 km/h (1 Bft) NO 45 1 min 0,000 mm 6,1 UV-I 765 W/m 10,7 C 22,6 C 6,4 km/h (2 Bft) 100,00 %
09.08.2022 14:19 22,6 C 47 % 1025,0 hPa 0,0 l/m 3,2 km/h (1 Bft) N-NO 22 1 min 0,000 mm 6,1 UV-I 766 W/m 10,7 C 22,6 C 6,4 km/h (2 Bft) 95,65 %
09.08.2022 14:18 22,6 C 47 % 1025,0 hPa 0,0 l/m 6,4 km/h (2 Bft) N-NO 22 1 min 0,000 mm 6,1 UV-I 768 W/m 10,7 C 22,6 C 9,7 km/h (2 Bft) 100,00 %
09.08.2022 14:17 22,6 C 48 % 1024,9 hPa 0,0 l/m 8,0 km/h (2 Bft) N-NO 22 1 min 0,000 mm 6,1 UV-I 765 W/m 11,0 C 22,6 C 12,9 km/h (3 Bft) 100,00 %
09.08.2022 14:16 22,7 C 47 % 1025,0 hPa 0,0 l/m 8,0 km/h (2 Bft) N-NO 22 1 min 0,000 mm 6,0 UV-I 758 W/m 10,8 C 22,7 C 9,7 km/h (2 Bft) 100,00 %
09.08.2022 14:15 22,7 C 48 % 1025,0 hPa 0,0 l/m 9,7 km/h (2 Bft) NO 45 1 min 0,000 mm 5,9 UV-I 758 W/m 11,1 C 22,7 C 11,3 km/h (2 Bft) 100,00 %
09.08.2022 14:14 22,7 C 48 % 1025,1 hPa 0,0 l/m 8,0 km/h (2 Bft) NO 45 1 min 0,000 mm 5,8 UV-I 740 W/m 11,1 C 22,7 C 11,3 km/h (2 Bft) 95,65 %
09.08.2022 14:13 22,8 C 48 % 1025,1 hPa 0,0 l/m 9,7 km/h (2 Bft) NO 45 1 min 0,000 mm 5,9 UV-I 749 W/m 11,2 C 22,8 C 14,5 km/h (3 Bft) 100,00 %
09.08.2022 14:12 22,8 C 50 % 1025,1 hPa 0,0 l/m 4,8 km/h (1 Bft) O 90 1 min 0,000 mm 6,0 UV-I 763 W/m 11,8 C 22,8 C 14,5 km/h (3 Bft) 100,00 %
09.08.2022 14:11 22,7 C 52 % 1025,2 hPa 0,0 l/m 4,8 km/h (1 Bft) O-NO 67 1 min 0,000 mm 6,1 UV-I 768 W/m 12,3 C 22,7 C 8,0 km/h (2 Bft) 100,00 %
09.08.2022 14:10 22,7 C 49 % 1025,1 hPa 0,0 l/m 8,0 km/h (2 Bft) O-NO 67 1 min 0,000 mm 6,2 UV-I 772 W/m 11,4 C 22,7 C 11,3 km/h (2 Bft) 100,00 %
09.08.2022 14:09 22,7 C 48 % 1025,0 hPa 0,0 l/m 3,2 km/h (1 Bft) NO 45 1 min 0,000 mm 6,3 UV-I 779 W/m 11,1 C 22,7 C 9,7 km/h (2 Bft) 100,00 %
09.08.2022 14:08 22,7 C 48 % 1025,0 hPa 0,0 l/m 1,6 km/h (1 Bft) O-SO 112 1 min 0,000 mm 6,3 UV-I 786 W/m 11,1 C 22,7 C 3,2 km/h (1 Bft) 100,00 %
09.08.2022 14:07 22,7 C 51 % 1025,1 hPa 0,0 l/m 4,8 km/h (1 Bft) O 90 1 min 0,000 mm 5,7 UV-I 773 W/m 12,0 C 22,7 C 11,3 km/h (2 Bft) 100,00 %
09.08.2022 14:06 22,6 C 49 % 1025,1 hPa 0,0 l/m 6,4 km/h (2 Bft) O 90 1 min 0,000 mm 6,1 UV-I 768 W/m 11,3 C 22,6 C 11,3 km/h (2 Bft) 100,00 %
09.08.2022 14:05 22,5 C 49 % 1025,1 hPa 0,0 l/m 9,7 km/h (2 Bft) N-NO 22 1 min 0,000 mm 6,2 UV-I 766 W/m 11,2 C 22,5 C 14,5 km/h (3 Bft) 100,00 %
09.08.2022 14:04 22,4 C 48 % 1024,9 hPa 0,0 l/m 8,0 km/h (2 Bft) N-NW 337 1 min 0,000 mm 6,3 UV-I 737 W/m 10,8 C 22,4 C 12,9 km/h (3 Bft) 100,00 %
09.08.2022 14:03 22,4 C 49 % 1025,1 hPa 0,0 l/m 8,0 km/h (2 Bft) N-NW 337 1 min 0,000 mm 6,2 UV-I 737 W/m 11,2 C 22,4 C 12,9 km/h (3 Bft) 100,00 %
09.08.2022 14:02 22,4 C 48 % 1025,0 hPa 0,0 l/m 6,4 km/h (2 Bft) N-NW 337 1 min 0,000 mm 6,2 UV-I 707 W/m 10,8 C 22,4 C 8,0 km/h (2 Bft) 100,00 %
09.08.2022 14:01 22,4 C 50 % 1025,0 hPa 0,0 l/m 1,6 km/h (1 Bft) NO 45 1 min 0,000 mm 6,3 UV-I 633 W/m 11,5 C 22,4 C 4,8 km/h (1 Bft) 100,00 %
09.08.2022 14:00 22,4 C 47 % 1025,0 hPa 0,0 l/m 0,0 km/h (0 Bft) N 0 1 min 0,533 mm 5,9 UV-I 633 W/m 10,5 C 22,4 C 0,0 km/h (0 Bft) 100,00 %
09.08.2022 13:59 22,4 C 47 % 1025,1 hPa 0,0 l/m 8,0 km/h (2 Bft) NO 45 1 min 0,000 mm 4,3 UV-I 633 W/m 10,5 C 22,4 C 14,5 km/h (3 Bft) 100,00 %
09.08.2022 13:58 22,5 C 48 % 1025,1 hPa 0,0 l/m 11,3 km/h (2 Bft) N-NO 22 1 min 0,000 mm 6,1 UV-I 633 W/m 10,9 C 22,5 C 14,5 km/h (3 Bft) 95,65 %
09.08.2022 13:57 22,4 C 50 % 1025,1 hPa 0,0 l/m 9,7 km/h (2 Bft) N 360 1 min 0,000 mm 6,2 UV-I 635 W/m 11,5 C 22,4 C 12,9 km/h (3 Bft) 100,00 %
09.08.2022 13:56 22,4 C 49 % 1025,0 hPa 0,0 l/m 9,7 km/h (2 Bft) N-NW 337 1 min 0,000 mm 6,3 UV-I 631 W/m 11,2 C 22,4 C 12,9 km/h (3 Bft) 100,00 %
09.08.2022 13:55 22,5 C 48 % 1025,1 hPa 0,0 l/m 11,3 km/h (2 Bft) N 360 1 min 0,000 mm 6,3 UV-I 626 W/m 10,9 C 22,5 C 14,5 km/h (3 Bft) 100,00 %
09.08.2022 13:54 22,5 C 47 % 1025,1 hPa 0,0 l/m 9,7 km/h (2 Bft) N 360 1 min 0,000 mm 6,4 UV-I 621 W/m 10,6 C 22,5 C 14,5 km/h (3 Bft) 100,00 %
09.08.2022 13:53 22,5 C 47 % 1025,0 hPa 0,0 l/m 6,4 km/h (2 Bft) N-NW 337 1 min 0,000 mm 6,4 UV-I 617 W/m 10,6 C 22,5 C 9,7 km/h (2 Bft) 100,00 %
09.08.2022 13:52 22,6 C 48 % 1025,1 hPa 0,0 l/m 9,7 km/h (2 Bft) N-NW 337 1 min 0,000 mm 6,4 UV-I 613 W/m 11,0 C 22,6 C 16,1 km/h (3 Bft) 100,00 %
09.08.2022 13:51 22,5 C 50 % 1025,1 hPa 0,0 l/m 11,3 km/h (2 Bft) N-NW 337 1 min 0,000 mm 6,3 UV-I 610 W/m 11,5 C 22,5 C 12,9 km/h (3 Bft) 100,00 %
09.08.2022 13:50 22,4 C 48 % 1025,1 hPa 0,0 l/m 9,7 km/h (2 Bft) N-NW 337 1 min 0,000 mm 6,3 UV-I 606 W/m 10,8 C 22,4 C 14,5 km/h (3 Bft) 95,65 %
09.08.2022 13:49 22,5 C 48 % 1025,1 hPa 0,0 l/m 16,1 km/h (3 Bft) N-NW 337 1 min 0,000 mm 6,4 UV-I 612 W/m 10,9 C 22,5 C 16,1 km/h (3 Bft) 100,00 %
09.08.2022 13:48 22,5 C 47 % 1025,1 hPa 0,0 l/m 14,5 km/h (3 Bft) N 360 1 min 0,000 mm 6,4 UV-I 615 W/m 10,6 C 22,5 C 19,3 km/h (3 Bft) 100,00 %
09.08.2022 13:47 22,6 C 47 % 1025,2 hPa 0,0 l/m 9,7 km/h (2 Bft) N 360 1 min 0,000 mm 6,4 UV-I 621 W/m 10,7 C 22,6 C 16,1 km/h (3 Bft) 100,00 %
09.08.2022 13:46 22,6 C 51 % 1025,2 hPa 0,0 l/m 9,7 km/h (2 Bft) N 360 1 min 0,000 mm 6,4 UV-I 628 W/m 11,9 C 22,6 C 16,1 km/h (3 Bft) 100,00 %
09.08.2022 13:45 22,5 C 49 % 1025,2 hPa 0,0 l/m 3,2 km/h (1 Bft) NO 45 1 min 0,000 mm 6,5 UV-I 650 W/m 11,2 C 22,5 C 4,8 km/h (1 Bft) 100,00 %
09.08.2022 13:44 22,5 C 49 % 1025,2 hPa 0,0 l/m 3,2 km/h (1 Bft) O-SO 112 1 min 0,000 mm 6,5 UV-I 654 W/m 11,2 C 22,5 C 4,8 km/h (1 Bft) 95,65 %
09.08.2022 13:43 22,6 C 47 % 1025,2 hPa 0,0 l/m 9,7 km/h (2 Bft) O-NO 67 1 min 0,000 mm 6,4 UV-I 659 W/m 10,7 C 22,6 C 16,1 km/h (3 Bft) 100,00 %
09.08.2022 13:42 22,6 C 50 % 1025,2 hPa 0,0 l/m 11,3 km/h (2 Bft) N-NO 22 1 min 0,000 mm 6,4 UV-I 670 W/m 11,6 C 22,6 C 14,5 km/h (3 Bft) 100,00 %
09.08.2022 13:41 22,6 C 49 % 1025,2 hPa 0,0 l/m 11,3 km/h (2 Bft) NO 45 1 min 0,000 mm 6,5 UV-I 686 W/m 11,3 C 22,6 C 14,5 km/h (3 Bft) 100,00 %
09.08.2022 13:40 22,4 C 49 % 1025,2 hPa 0,0 l/m 12,9 km/h (3 Bft) N-NW 337 1 min 0,000 mm 6,4 UV-I 710 W/m 11,2 C 22,4 C 19,3 km/h (3 Bft) 100,00 %
09.08.2022 13:39 22,4 C 48 % 1025,2 hPa 0,0 l/m 3,2 km/h (1 Bft) O-NO 67 1 min 0,000 mm 6,5 UV-I 724 W/m 10,8 C 22,4 C 6,4 km/h (2 Bft) 100,00 %
09.08.2022 13:38 22,4 C 48 % 1025,2 hPa 0,0 l/m 4,8 km/h (1 Bft) N-NO 22 1 min 0,000 mm 6,5 UV-I 735 W/m 10,8 C 22,4 C 8,0 km/h (2 Bft) 100,00 %
09.08.2022 13:37 22,4 C 48 % 1025,2 hPa 0,0 l/m 6,4 km/h (2 Bft) N-NO 22 1 min 0,000 mm 6,5 UV-I 752 W/m 10,8 C 22,4 C 9,7 km/h (2 Bft) 100,00 %
09.08.2022 13:36 22,3 C 49 % 1025,2 hPa 0,0 l/m 1,6 km/h (1 Bft) S-SO 157 1 min 0,000 mm 6,5 UV-I 761 W/m 11,1 C 22,3 C 4,8 km/h (1 Bft) 100,00 %
09.08.2022 13:35 22,3 C 48 % 1025,2 hPa 0,0 l/m 1,6 km/h (1 Bft) O-SO 112 1 min 0,000 mm 6,5 UV-I 770 W/m 10,8 C 22,3 C 3,2 km/h (1 Bft) 100,00 %
09.08.2022 13:34 22,2 C 51 % 1025,2 hPa 0,0 l/m 0,0 km/h (0 Bft) O-SO 112 1 min 0,000 mm 6,5 UV-I 784 W/m 11,6 C 22,2 C 3,2 km/h (1 Bft) 100,00 %
09.08.2022 13:33 22,1 C 48 % 1025,2 hPa 0,0 l/m 0,0 km/h (0 Bft) O-SO 112 1 min 0,000 mm 6,6 UV-I 789 W/m 10,6 C 22,1 C 1,6 km/h (1 Bft) 100,00 %
09.08.2022 13:32 22,2 C 47 % 1025,3 hPa 0,0 l/m 3,2 km/h (1 Bft) N-NO 22 1 min 0,000 mm 6,6 UV-I 789 W/m 10,3 C 22,2 C 8,0 km/h (2 Bft) 100,00 %
09.08.2022 13:31 22,2 C 47 % 1025,1 hPa 0,0 l/m 11,3 km/h (2 Bft) N 360 1 min 0,000 mm 6,5 UV-I 791 W/m 10,3 C 22,2 C 14,5 km/h (3 Bft) 100,00 %
09.08.2022 13:30 22,3 C 47 % 1025,2 hPa 0,0 l/m 9,7 km/h (2 Bft) N 360 1 min 0,000 mm 6,6 UV-I 793 W/m 10,4 C 22,3 C 14,5 km/h (3 Bft) 100,00 %
09.08.2022 13:29 22,3 C 48 % 1025,2 hPa 0,0 l/m 12,9 km/h (3 Bft) N 360 1 min 0,000 mm 6,6 UV-I 795 W/m 10,8 C 22,3 C 16,1 km/h (3 Bft) 100,00 %
09.08.2022 13:28 22,4 C 49 % 1025,1 hPa 0,0 l/m 16,1 km/h (3 Bft) N 360 1 min 0,000 mm 6,6 UV-I 798 W/m 11,2 C 22,4 C 19,3 km/h (3 Bft) 100,00 %
09.08.2022 13:27 22,4 C 48 % 1025,2 hPa 0,0 l/m 17,7 km/h (3 Bft) N-NO 22 1 min 0,000 mm 6,6 UV-I 798 W/m 10,8 C 22,4 C 20,9 km/h (4 Bft) 95,65 %
09.08.2022 13:26 22,4 C 48 % 1025,1 hPa 0,0 l/m 16,1 km/h (3 Bft) N-NO 22 1 min 0,000 mm 6,6 UV-I 796 W/m 10,8 C 22,4 C 17,7 km/h (3 Bft) 100,00 %
09.08.2022 13:25 22,4 C 47 % 1025,2 hPa 0,0 l/m 16,1 km/h (3 Bft) N-NO 22 1 min 0,000 mm 6,6 UV-I 791 W/m 10,5 C 22,4 C 20,9 km/h (4 Bft) 100,00 %
09.08.2022 13:24 22,5 C 49 % 1025,2 hPa 0,0 l/m 11,3 km/h (2 Bft) NO 45 1 min 0,000 mm 6,6 UV-I 791 W/m 11,2 C 22,5 C 14,5 km/h (3 Bft) 100,00 %
09.08.2022 13:23 22,6 C 49 % 1025,2 hPa 0,0 l/m 8,0 km/h (2 Bft) O-NO 67 1 min 0,000 mm 6,6 UV-I 789 W/m 11,3 C 22,6 C 12,9 km/h (3 Bft) 100,00 %
09.08.2022 13:22 22,6 C 52 % 1025,2 hPa 0,0 l/m 6,4 km/h (2 Bft) O-NO 67 1 min 0,000 mm 6,6 UV-I 789 W/m 12,2 C 22,6 C 9,7 km/h (2 Bft) 100,00 %
09.08.2022 13:21 22,4 C 50 % 1025,2 hPa 0,0 l/m 3,2 km/h (1 Bft) O 90 1 min 0,000 mm 6,6 UV-I 791 W/m 11,5 C 22,4 C 6,4 km/h (2 Bft) 95,65 %
09.08.2022 13:20 22,3 C 51 % 1025,3 hPa 0,0 l/m 4,8 km/h (1 Bft) O-NO 67 1 min 0,000 mm 6,6 UV-I 788 W/m 11,7 C 22,3 C 12,9 km/h (3 Bft) 100,00 %
09.08.2022 13:19 22,3 C 47 % 1025,2 hPa 0,0 l/m 3,2 km/h (1 Bft) O-NO 67 1 min 0,000 mm 6,5 UV-I 786 W/m 10,4 C 22,3 C 4,8 km/h (1 Bft) 100,00 %
09.08.2022 13:18 22,5 C 48 % 1025,2 hPa 0,0 l/m 6,4 km/h (2 Bft) O-NO 67 1 min 0,000 mm 6,5 UV-I 784 W/m 10,9 C 22,5 C 9,7 km/h (2 Bft) 100,00 %
09.08.2022 13:17 22,5 C 52 % 1025,2 hPa 0,0 l/m 1,6 km/h (1 Bft) O 90 1 min 0,000 mm 6,5 UV-I 782 W/m 12,1 C 22,5 C 4,8 km/h (1 Bft) 100,00 %
09.08.2022 13:16 22,4 C 49 % 1025,2 hPa 0,0 l/m 1,6 km/h (1 Bft) O-NO 67 1 min 0,000 mm 6,5 UV-I 782 W/m 11,2 C 22,4 C 6,4 km/h (2 Bft) 100,00 %
09.08.2022 13:15 22,3 C 49 % 1025,3 hPa 0,0 l/m 1,6 km/h (1 Bft) O 90 1 min 0,000 mm 6,6 UV-I 786 W/m 11,1 C 22,3 C 3,2 km/h (1 Bft) 100,00 %
09.08.2022 13:14 22,2 C 51 % 1025,3 hPa 0,0 l/m 1,6 km/h (1 Bft) O 90 1 min 0,000 mm 6,6 UV-I 784 W/m 11,6 C 22,2 C 3,2 km/h (1 Bft) 100,00 %
09.08.2022 13:13 22,3 C 49 % 1025,4 hPa 0,0 l/m 4,8 km/h (1 Bft) O 90 1 min 0,000 mm 6,5 UV-I 782 W/m 11,1 C 22,3 C 8,0 km/h (2 Bft) 100,00 %
09.08.2022 13:12 22,3 C 51 % 1025,3 hPa 0,0 l/m 3,2 km/h (1 Bft) O-NO 67 1 min 0,000 mm 6,6 UV-I 784 W/m 11,7 C 22,3 C 6,4 km/h (2 Bft) 100,00 %
09.08.2022 13:11 22,2 C 48 % 1025,4 hPa 0,0 l/m 4,8 km/h (1 Bft) NO 45 1 min 0,000 mm 6,5 UV-I 782 W/m 10,7 C 22,2 C 8,0 km/h (2 Bft) 100,00 %
09.08.2022 13:10 22,2 C 48 % 1025,4 hPa 0,0 l/m 9,7 km/h (2 Bft) NO 45 1 min 0,000 mm 6,5 UV-I 786 W/m 10,7 C 22,2 C 14,5 km/h (3 Bft) 100,00 %
09.08.2022 13:09 22,2 C 48 % 1025,4 hPa 0,0 l/m 11,3 km/h (2 Bft) NO 45 1 min 0,000 mm 6,5 UV-I 786 W/m 10,7 C 22,2 C 14,5 km/h (3 Bft) 95,65 %
09.08.2022 13:08 22,2 C 48 % 1025,4 hPa 0,0 l/m 8,0 km/h (2 Bft) NO 45 1 min 0,000 mm 6,5 UV-I 784 W/m 10,7 C 22,2 C 12,9 km/h (3 Bft) 100,00 %
09.08.2022 13:07 22,2 C 50 % 1025,3 hPa 0,0 l/m 9,7 km/h (2 Bft) NO 45 1 min 0,000 mm 6,5 UV-I 782 W/m 11,3 C 22,2 C 14,5 km/h (3 Bft) 100,00 %
09.08.2022 13:06 22,2 C 49 % 1025,3 hPa 0,0 l/m 9,7 km/h (2 Bft) O-NO 67 1 min 0,000 mm 6,5 UV-I 782 W/m 11,0 C 22,2 C 14,5 km/h (3 Bft) 100,00 %
09.08.2022 13:05 22,2 C 50 % 1025,4 hPa 0,0 l/m 9,7 km/h (2 Bft) O-NO 67 1 min 0,000 mm 6,5 UV-I 747 W/m 11,3 C 22,2 C 16,1 km/h (3 Bft) 100,00 %
09.08.2022 13:04 22,2 C 48 % 1025,4 hPa 0,0 l/m 9,7 km/h (2 Bft) O-NO 67 1 min 0,000 mm 6,5 UV-I 176 W/m 10,7 C 22,2 C 16,1 km/h (3 Bft) 100,00 %
09.08.2022 13:03 22,1 C 52 % 1025,4 hPa 0,0 l/m 8,0 km/h (2 Bft) O-NO 67 1 min 0,000 mm 6,6 UV-I 176 W/m 11,8 C 22,1 C 12,9 km/h (3 Bft) 100,00 %
09.08.2022 13:02 21,9 C 50 % 1025,5 hPa 0,0 l/m 4,8 km/h (1 Bft) O 90 1 min 0,000 mm 6,5 UV-I 176 W/m 11,0 C 21,9 C 12,9 km/h (3 Bft) 100,00 %
09.08.2022 13:01 22,0 C 48 % 1025,5 hPa 0,0 l/m 9,7 km/h (2 Bft) O-NO 67 0 min 0,000 mm 6,5 UV-I 104 W/m 10,5 C 22,0 C 12,9 km/h (3 Bft) 100,00 %
09.08.2022 13:00 22,1 C 48 % 1025,5 hPa 0,0 l/m 14,5 km/h (3 Bft) NO 45 0 min 0,203 mm 6,5 UV-I 76 W/m 10,6 C 22,1 C 20,9 km/h (4 Bft) 100,00 %
09.08.2022 12:59 22,1 C 49 % 1025,4 hPa 0,0 l/m 11,3 km/h (2 Bft) NO 45 0 min 0,000 mm 6,5 UV-I 69 W/m 10,9 C 22,1 C 17,7 km/h (3 Bft) 100,00 %
09.08.2022 12:58 22,1 C 48 % 1025,4 hPa 0,0 l/m 12,9 km/h (3 Bft) NO 45 0 min 0,000 mm 6,6 UV-I 65 W/m 10,6 C 22,1 C 19,3 km/h (3 Bft) 100,00 %
09.08.2022 12:57 22,1 C 48 % 1025,5 hPa 0,0 l/m 12,9 km/h (3 Bft) O-NO 67 0 min 0,000 mm 6,5 UV-I 65 W/m 10,6 C 22,1 C 17,7 km/h (3 Bft) 100,00 %
09.08.2022 12:56 22,1 C 49 % 1025,4 hPa 0,0 l/m 11,3 km/h (2 Bft) NO 45 0 min 0,000 mm 6,5 UV-I 63 W/m 10,9 C 22,1 C 16,1 km/h (3 Bft) 100,00 %
09.08.2022 12:55 22,1 C 49 % 1025,5 hPa 0,0 l/m 9,7 km/h (2 Bft) NO 45 0 min 0,000 mm 6,6 UV-I 63 W/m 10,9 C 22,1 C 14,5 km/h (3 Bft) 100,00 %
09.08.2022 12:54 22,1 C 49 % 1025,5 hPa 0,0 l/m 12,9 km/h (3 Bft) NO 45 0 min 0,000 mm 6,6 UV-I 63 W/m 10,9 C 22,1 C 16,1 km/h (3 Bft) 100,00 %
09.08.2022 12:53 22,1 C 51 % 1025,5 hPa 0,0 l/m 4,8 km/h (1 Bft) N-NO 22 0 min 0,000 mm 6,5 UV-I 63 W/m 11,5 C 22,1 C 12,9 km/h (3 Bft) 100,00 %
09.08.2022 12:52 22,2 C 49 % 1025,4 hPa 0,0 l/m 6,4 km/h (2 Bft) N 360 0 min 0,000 mm 6,5 UV-I 65 W/m 11,0 C 22,2 C 8,0 km/h (2 Bft) 100,00 %
09.08.2022 12:51 22,3 C 48 % 1025,4 hPa 0,0 l/m 6,4 km/h (2 Bft) N-NO 22 0 min 0,000 mm 6,5 UV-I 65 W/m 10,8 C 22,3 C 8,0 km/h (2 Bft) 95,65 %
09.08.2022 12:50 22,4 C 50 % 1025,4 hPa 0,0 l/m 3,2 km/h (1 Bft) O-NO 67 0 min 0,000 mm 6,5 UV-I 65 W/m 11,5 C 22,4 C 4,8 km/h (1 Bft) 95,65 %
09.08.2022 12:49 22,4 C 51 % 1025,5 hPa 0,0 l/m 3,2 km/h (1 Bft) O 90 0 min 0,000 mm 6,5 UV-I 67 W/m 11,8 C 22,4 C 4,8 km/h (1 Bft) 100,00 %
09.08.2022 12:48 22,3 C 50 % 1025,5 hPa 0,0 l/m 3,2 km/h (1 Bft) O 90 0 min 0,000 mm 6,5 UV-I 67 W/m 11,4 C 22,3 C 8,0 km/h (2 Bft) 100,00 %
09.08.2022 12:47 22,2 C 50 % 1025,4 hPa 0,0 l/m 4,8 km/h (1 Bft) O-NO 67 0 min 0,000 mm 6,4 UV-I 65 W/m 11,3 C 22,2 C 6,4 km/h (2 Bft) 100,00 %
09.08.2022 12:46 22,2 C 52 % 1025,4 hPa 0,0 l/m 3,2 km/h (1 Bft) O-NO 67 0 min 0,000 mm 6,4 UV-I 62 W/m 11,9 C 22,2 C 6,4 km/h (2 Bft) 100,00 %
09.08.2022 12:45 22,1 C 52 % 1025,5 hPa 0,0 l/m 6,4 km/h (2 Bft) NO 45 0 min 0,000 mm 6,4 UV-I 60 W/m 11,8 C 22,1 C 11,3 km/h (2 Bft) 100,00 %
09.08.2022 12:44 21,9 C 53 % 1025,5 hPa 0,0 l/m 4,8 km/h (1 Bft) NO 45 0 min 0,000 mm 6,3 UV-I 60 W/m 11,9 C 21,9 C 8,0 km/h (2 Bft) 100,00 %
09.08.2022 12:43 21,8 C 50 % 1025,5 hPa 0,0 l/m 4,8 km/h (1 Bft) NO 45 0 min 0,000 mm 6,3 UV-I 60 W/m 10,9 C 21,8 C 6,4 km/h (2 Bft) 100,00 %
09.08.2022 12:42 21,8 C 49 % 1025,5 hPa 0,0 l/m 6,4 km/h (2 Bft) O-NO 67 0 min 0,000 mm 6,5 UV-I 58 W/m 10,6 C 21,8 C 12,9 km/h (3 Bft) 100,00 %
09.08.2022 12:41 21,8 C 49 % 1025,5 hPa 0,0 l/m 12,9 km/h (3 Bft) NO 45 0 min 0,000 mm 6,5 UV-I 58 W/m 10,6 C 21,8 C 16,1 km/h (3 Bft) 100,00 %
09.08.2022 12:40 21,7 C 50 % 1025,5 hPa 0,0 l/m 6,4 km/h (2 Bft) N-NO 22 0 min 0,000 mm 6,5 UV-I 58 W/m 10,8 C 21,7 C 11,3 km/h (2 Bft) 100,00 %
09.08.2022 12:39 21,7 C 49 % 1025,5 hPa 0,0 l/m 6,4 km/h (2 Bft) N-NO 22 0 min 0,000 mm 6,4 UV-I 58 W/m 10,5 C 21,7 C 6,4 km/h (2 Bft) 100,00 %
09.08.2022 12:38 21,7 C 48 % 1025,5 hPa 0,0 l/m 8,0 km/h (2 Bft) N 360 0 min 0,000 mm 6,4 UV-I 56 W/m 10,2 C 21,7 C 11,3 km/h (2 Bft) 100,00 %
09.08.2022 12:37 21,7 C 48 % 1025,6 hPa 0,0 l/m 11,3 km/h (2 Bft) N-NO 22 0 min 0,000 mm 6,4 UV-I 56 W/m 10,2 C 21,7 C 14,5 km/h (3 Bft) 100,00 %
09.08.2022 12:36 21,7 C 49 % 1025,6 hPa 0,0 l/m 9,7 km/h (2 Bft) N-NO 22 0 min 0,000 mm 6,3 UV-I 56 W/m 10,5 C 21,7 C 12,9 km/h (3 Bft) 100,00 %
09.08.2022 12:35 21,7 C 49 % 1025,7 hPa 0,0 l/m 4,8 km/h (1 Bft) N-NO 22 0 min 0,000 mm 6,3 UV-I 56 W/m 10,5 C 21,7 C 6,4 km/h (2 Bft) 100,00 %
09.08.2022 12:34 21,7 C 47 % 1025,7 hPa 0,0 l/m 6,4 km/h (2 Bft) O-NO 67 0 min 0,000 mm 6,3 UV-I 56 W/m 9,9 C 21,7 C 9,7 km/h (2 Bft) 100,00 %
09.08.2022 12:33 21,7 C 49 % 1025,7 hPa 0,0 l/m 8,0 km/h (2 Bft) NO 45 0 min 0,000 mm 6,3 UV-I 56 W/m 10,5 C 21,7 C 9,7 km/h (2 Bft) 95,65 %
09.08.2022 12:32 21,7 C 51 % 1025,7 hPa 0,0 l/m 9,7 km/h (2 Bft) NO 45 0 min 0,000 mm 6,3 UV-I 56 W/m 11,1 C 21,7 C 12,9 km/h (3 Bft) 100,00 %
09.08.2022 12:31 21,7 C 49 % 1025,6 hPa 0,0 l/m 6,4 km/h (2 Bft) N-NO 22 0 min 0,000 mm 6,3 UV-I 56 W/m 10,5 C 21,7 C 8,0 km/h (2 Bft) 100,00 %
09.08.2022 12:30 21,7 C 48 % 1025,6 hPa 0,0 l/m 11,3 km/h (2 Bft) N-NO 22 0 min 0,000 mm 6,3 UV-I 56 W/m 10,2 C 21,7 C 14,5 km/h (3 Bft) 100,00 %
09.08.2022 12:29 21,7 C 48 % 1025,6 hPa 0,0 l/m 16,1 km/h (3 Bft) N-NO 22 0 min 0,000 mm 6,2 UV-I 63 W/m 10,2 C 21,7 C 20,9 km/h (4 Bft) 100,00 %
09.08.2022 12:28 21,7 C 48 % 1025,6 hPa 0,0 l/m 14,5 km/h (3 Bft) N-NO 22 1 min 0,000 mm 6,1 UV-I 707 W/m 10,2 C 21,7 C 16,1 km/h (3 Bft) 100,00 %
09.08.2022 12:27 21,6 C 50 % 1025,5 hPa 0,0 l/m 16,1 km/h (3 Bft) N 360 1 min 0,000 mm 5,7 UV-I 707 W/m 10,7 C 21,6 C 17,7 km/h (3 Bft) 95,65 %
09.08.2022 12:26 21,6 C 48 % 1025,4 hPa 0,0 l/m 20,9 km/h (4 Bft) N 360 1 min 0,000 mm 5,2 UV-I 707 W/m 10,1 C 21,6 C 25,7 km/h (4 Bft) 100,00 %
09.08.2022 12:25 21,5 C 50 % 1025,6 hPa 0,0 l/m 24,1 km/h (4 Bft) N-NW 337 1 min 0,000 mm 4,6 UV-I 707 W/m 10,6 C 21,5 C 25,7 km/h (4 Bft) 100,00 %
09.08.2022 12:24 21,5 C 50 % 1025,6 hPa 0,0 l/m 6,4 km/h (2 Bft) N-NW 337 1 min 0,000 mm 3,6 UV-I 761 W/m 10,6 C 21,5 C 14,5 km/h (3 Bft) 100,00 %
09.08.2022 12:23 21,5 C 48 % 1025,7 hPa 0,0 l/m 4,8 km/h (1 Bft) N-NO 22 1 min 0,000 mm 3,3 UV-I 763 W/m 10,0 C 21,5 C 6,4 km/h (2 Bft) 100,00 %
09.08.2022 12:22 21,5 C 48 % 1025,7 hPa 0,0 l/m 6,4 km/h (2 Bft) NO 45 1 min 0,000 mm 3,2 UV-I 181 W/m 10,0 C 21,5 C 9,7 km/h (2 Bft) 95,65 %
09.08.2022 12:21 21,5 C 48 % 1025,7 hPa 0,0 l/m 9,7 km/h (2 Bft) N-NO 22 1 min 0,000 mm 3,1 UV-I 181 W/m 10,0 C 21,5 C 14,5 km/h (3 Bft) 100,00 %
09.08.2022 12:20 21,6 C 50 % 1025,7 hPa 0,0 l/m 4,8 km/h (1 Bft) NO 45 1 min 0,000 mm 3,1 UV-I 181 W/m 10,7 C 21,6 C 8,0 km/h (2 Bft) 100,00 %
09.08.2022 12:19 21,6 C 49 % 1025,7 hPa 0,0 l/m 8,0 km/h (2 Bft) NO 45 1 min 0,000 mm 3,1 UV-I 181 W/m 10,4 C 21,6 C 9,7 km/h (2 Bft) 100,00 %
09.08.2022 12:18 21,5 C 50 % 1025,7 hPa 0,0 l/m 12,9 km/h (3 Bft) NO 45 0 min 0,000 mm 3,1 UV-I 83 W/m 10,6 C 21,5 C 16,1 km/h (3 Bft) 100,00 %
09.08.2022 12:17 21,4 C 53 % 1025,7 hPa 0,0 l/m 3,2 km/h (1 Bft) O-NO 67 0 min 0,000 mm 3,1 UV-I 62 W/m 11,4 C 21,4 C 12,9 km/h (3 Bft) 100,00 %
09.08.2022 12:16 21,4 C 51 % 1025,7 hPa 0,0 l/m 4,8 km/h (1 Bft) NO 45 0 min 0,000 mm 3,1 UV-I 63 W/m 10,8 C 21,4 C 9,7 km/h (2 Bft) 100,00 %
09.08.2022 12:15 21,4 C 52 % 1025,8 hPa 0,0 l/m 4,8 km/h (1 Bft) NO 45 0 min 0,000 mm 3,1 UV-I 62 W/m 11,1 C 21,4 C 8,0 km/h (2 Bft) 95,65 %
09.08.2022 12:14 21,4 C 50 % 1025,7 hPa 0,0 l/m 8,0 km/h (2 Bft) N-NO 22 0 min 0,000 mm 3,1 UV-I 62 W/m 10,5 C 21,4 C 12,9 km/h (3 Bft) 95,65 %
09.08.2022 12:13 21,4 C 50 % 1025,7 hPa 0,0 l/m 6,4 km/h (2 Bft) N-NO 22 0 min 0,000 mm 3,1 UV-I 60 W/m 10,5 C 21,4 C 8,0 km/h (2 Bft) 100,00 %
09.08.2022 12:12 21,5 C 51 % 1025,7 hPa 0,0 l/m 4,8 km/h (1 Bft) N 360 0 min 0,000 mm 3,1 UV-I 58 W/m 10,9 C 21,5 C 8,0 km/h (2 Bft) 95,65 %
09.08.2022 12:11 21,6 C 49 % 1025,8 hPa 0,0 l/m 4,8 km/h (1 Bft) NO 45 0 min 0,000 mm 3,1 UV-I 56 W/m 10,4 C 21,6 C 6,4 km/h (2 Bft) 100,00 %
09.08.2022 12:10 21,6 C 49 % 1025,6 hPa 0,0 l/m 6,4 km/h (2 Bft) N-NO 22 0 min 0,000 mm 3,1 UV-I 56 W/m 10,4 C 21,6 C 8,0 km/h (2 Bft) 100,00 %
09.08.2022 12:09 21,6 C 50 % 1025,7 hPa 0,0 l/m 9,7 km/h (2 Bft) N-NO 22 0 min 0,000 mm 3,1 UV-I 58 W/m 10,7 C 21,6 C 14,5 km/h (3 Bft) 100,00 %
09.08.2022 12:08 21,6 C 52 % 1025,7 hPa 0,0 l/m 8,0 km/h (2 Bft) NO 45 1 min 0,000 mm 3,1 UV-I 617 W/m 11,3 C 21,6 C 12,9 km/h (3 Bft) 100,00 %
09.08.2022 12:07 21,6 C 51 % 1025,7 hPa 0,0 l/m 6,4 km/h (2 Bft) NO 45 1 min 0,000 mm 3,0 UV-I 617 W/m 11,0 C 21,6 C 9,7 km/h (2 Bft) 100,00 %
09.08.2022 12:06 21,6 C 53 % 1025,7 hPa 0,0 l/m 6,4 km/h (2 Bft) O-NO 67 1 min 0,000 mm 3,0 UV-I 617 W/m 11,6 C 21,6 C 8,0 km/h (2 Bft) 100,00 %
09.08.2022 12:05 21,6 C 52 % 1025,6 hPa 0,0 l/m 4,8 km/h (1 Bft) O 90 1 min 0,000 mm 3,0 UV-I 714 W/m 11,3 C 21,6 C 12,9 km/h (3 Bft) 100,00 %
09.08.2022 12:04 21,5 C 50 % 1025,7 hPa 0,0 l/m 4,8 km/h (1 Bft) O 90 0 min 0,000 mm 3,0 UV-I 100 W/m 10,6 C 21,5 C 8,0 km/h (2 Bft) 100,00 %
09.08.2022 12:03 21,5 C 51 % 1025,7 hPa 0,0 l/m 1,6 km/h (1 Bft) O-SO 112 0 min 0,000 mm 3,0 UV-I 100 W/m 10,9 C 21,5 C 6,4 km/h (2 Bft) 100,00 %
09.08.2022 12:02 21,5 C 52 % 1025,7 hPa 0,0 l/m 3,2 km/h (1 Bft) O 90 0 min 0,000 mm 3,0 UV-I 100 W/m 11,2 C 21,5 C 6,4 km/h (2 Bft) 95,65 %
09.08.2022 12:01 21,4 C 52 % 1025,7 hPa 0,0 l/m 1,6 km/h (1 Bft) O-SO 112 0 min 0,000 mm 3,0 UV-I 100 W/m 11,1 C 21,4 C 4,8 km/h (1 Bft) 100,00 %
09.08.2022 12:00 21,4 C 53 % 1025,8 hPa 0,0 l/m 3,2 km/h (1 Bft) O 90 0 min 0,178 mm 3,0 UV-I 100 W/m 11,4 C 21,4 C 4,8 km/h (1 Bft) 100,00 %
09.08.2022 11:59 21,3 C 52 % 1025,6 hPa 0,0 l/m 8,0 km/h (2 Bft) NO 45 0 min 0,000 mm 3,0 UV-I 63 W/m 11,0 C 21,3 C 12,9 km/h (3 Bft) 100,00 %
09.08.2022 11:58 21,2 C 51 % 1025,6 hPa 0,0 l/m 12,9 km/h (3 Bft) O-NO 67 0 min 0,000 mm 3,0 UV-I 62 W/m 10,7 C 21,2 C 16,1 km/h (3 Bft) 100,00 %
09.08.2022 11:57 21,2 C 52 % 1025,6 hPa 0,0 l/m 11,3 km/h (2 Bft) NO 45 0 min 0,000 mm 3,0 UV-I 62 W/m 10,9 C 21,2 C 16,1 km/h (3 Bft) 100,00 %
09.08.2022 11:56 21,2 C 50 % 1025,8 hPa 0,0 l/m 6,4 km/h (2 Bft) N-NO 22 0 min 0,000 mm 3,0 UV-I 62 W/m 10,4 C 21,2 C 14,5 km/h (3 Bft) 100,00 %
09.08.2022 11:55 21,2 C 50 % 1025,7 hPa 0,0 l/m 4,8 km/h (1 Bft) NO 45 0 min 0,000 mm 3,0 UV-I 62 W/m 10,4 C 21,2 C 6,4 km/h (2 Bft) 100,00 %
09.08.2022 11:54 21,2 C 50 % 1025,7 hPa 0,0 l/m 6,4 km/h (2 Bft) NO 45 0 min 0,000 mm 3,0 UV-I 63 W/m 10,4 C 21,2 C 14,5 km/h (3 Bft) 100,00 %
09.08.2022 11:53 21,3 C 49 % 1025,8 hPa 0,0 l/m 3,2 km/h (1 Bft) N 360 0 min 0,000 mm 3,0 UV-I 63 W/m 10,1 C 21,3 C 6,4 km/h (2 Bft) 100,00 %
09.08.2022 11:52 21,4 C 52 % 1025,7 hPa 0,0 l/m 8,0 km/h (2 Bft) N 360 0 min 0,000 mm 3,0 UV-I 69 W/m 11,1 C 21,4 C 16,1 km/h (3 Bft) 100,00 %
09.08.2022 11:51 21,4 C 50 % 1025,7 hPa 0,0 l/m 14,5 km/h (3 Bft) N-NO 22 0 min 0,000 mm 3,0 UV-I 65 W/m 10,5 C 21,4 C 16,1 km/h (3 Bft) 100,00 %
09.08.2022 11:50 21,4 C 51 % 1025,6 hPa 0,0 l/m 16,1 km/h (3 Bft) NO 45 0 min 0,000 mm 3,0 UV-I 69 W/m 10,8 C 21,4 C 19,3 km/h (3 Bft) 100,00 %
09.08.2022 11:49 21,5 C 51 % 1025,7 hPa 0,0 l/m 12,9 km/h (3 Bft) NO 45 0 min 0,000 mm 3,0 UV-I 69 W/m 10,9 C 21,5 C 20,9 km/h (4 Bft) 100,00 %
09.08.2022 11:48 21,5 C 49 % 1025,6 hPa 0,0 l/m 12,9 km/h (3 Bft) NO 45 0 min 0,000 mm 3,0 UV-I 81 W/m 10,3 C 21,5 C 17,7 km/h (3 Bft) 100,00 %
09.08.2022 11:47 21,5 C 50 % 1025,6 hPa 0,0 l/m 17,7 km/h (3 Bft) NO 45 0 min 0,000 mm 3,0 UV-I 79 W/m 10,6 C 21,5 C 20,9 km/h (4 Bft) 100,00 %
09.08.2022 11:46 21,5 C 52 % 1025,7 hPa 0,0 l/m 12,9 km/h (3 Bft) O-NO 67 0 min 0,000 mm 3,0 UV-I 79 W/m 11,2 C 21,5 C 17,7 km/h (3 Bft) 100,00 %
09.08.2022 11:45 21,4 C 51 % 1025,7 hPa 0,0 l/m 8,0 km/h (2 Bft) O-NO 67 0 min 0,000 mm 3,0 UV-I 81 W/m 10,8 C 21,4 C 17,7 km/h (3 Bft) 100,00 %
09.08.2022 11:44 21,4 C 53 % 1025,7 hPa 0,0 l/m 8,0 km/h (2 Bft) O-NO 67 0 min 0,000 mm 3,0 UV-I 83 W/m 11,4 C 21,4 C 12,9 km/h (3 Bft) 100,00 %
09.08.2022 11:43 21,2 C 53 % 1025,7 hPa 0,0 l/m 3,2 km/h (1 Bft) O-SO 112 0 min 0,000 mm 3,0 UV-I 79 W/m 11,2 C 21,2 C 6,4 km/h (2 Bft) 95,65 %
09.08.2022 11:42 21,2 C 53 % 1025,7 hPa 0,0 l/m 1,6 km/h (1 Bft) O-SO 112 0 min 0,000 mm 2,9 UV-I 83 W/m 11,2 C 21,2 C 3,2 km/h (1 Bft) 100,00 %
09.08.2022 11:41 21,2 C 53 % 1025,7 hPa 0,0 l/m 1,6 km/h (1 Bft) SO 135 1 min 0,000 mm 2,9 UV-I 512 W/m 11,2 C 21,2 C 4,8 km/h (1 Bft) 100,00 %
09.08.2022 11:40 21,2 C 53 % 1025,7 hPa 0,0 l/m 3,2 km/h (1 Bft) SO 135 1 min 0,000 mm 2,9 UV-I 512 W/m 11,2 C 21,2 C 8,0 km/h (2 Bft) 100,00 %
09.08.2022 11:39 21,2 C 55 % 1025,7 hPa 0,0 l/m 1,6 km/h (1 Bft) O-SO 112 1 min 0,000 mm 2,9 UV-I 573 W/m 11,8 C 21,2 C 3,2 km/h (1 Bft) 100,00 %
09.08.2022 11:38 21,1 C 52 % 1025,7 hPa 0,0 l/m 3,2 km/h (1 Bft) SO 135 1 min 0,000 mm 2,9 UV-I 541 W/m 10,9 C 21,1 C 6,4 km/h (2 Bft) 91,30 %
09.08.2022 11:37 21,0 C 54 % 1025,7 hPa 0,0 l/m 1,6 km/h (1 Bft) SO 135 1 min 0,000 mm 2,9 UV-I 559 W/m 11,3 C 21,0 C 4,8 km/h (1 Bft) 100,00 %
09.08.2022 11:36 21,0 C 55 % 1025,7 hPa 0,0 l/m 1,6 km/h (1 Bft) N 360 1 min 0,000 mm 2,9 UV-I 561 W/m 11,6 C 21,0 C 1,6 km/h (1 Bft) 95,65 %
09.08.2022 11:35 21,1 C 54 % 1025,8 hPa 0,0 l/m 1,6 km/h (1 Bft) N 360 1 min 0,000 mm 2,9 UV-I 561 W/m 11,4 C 21,1 C 3,2 km/h (1 Bft) 100,00 %
09.08.2022 11:34 21,1 C 54 % 1025,7 hPa 0,0 l/m 4,8 km/h (1 Bft) N 360 1 min 0,000 mm 2,9 UV-I 561 W/m 11,4 C 21,1 C 6,4 km/h (2 Bft) 100,00 %
09.08.2022 11:33 21,1 C 54 % 1025,8 hPa 0,0 l/m 4,8 km/h (1 Bft) N 360 1 min 0,000 mm 2,9 UV-I 571 W/m 11,4 C 21,1 C 6,4 km/h (2 Bft) 100,00 %
09.08.2022 11:32 21,2 C 56 % 1025,8 hPa 0,0 l/m 6,4 km/h (2 Bft) N-NO 22 1 min 0,000 mm 3,0 UV-I 571 W/m 12,1 C 21,2 C 8,0 km/h (2 Bft) 100,00 %
09.08.2022 11:31 21,2 C 54 % 1025,8 hPa 0,0 l/m 8,0 km/h (2 Bft) N-NO 22 1 min 0,000 mm 3,5 UV-I 575 W/m 11,5 C 21,2 C 8,0 km/h (2 Bft) 95,65 %
09.08.2022 11:30 21,2 C 56 % 1025,8 hPa 0,0 l/m 6,4 km/h (2 Bft) NO 45 1 min 0,000 mm 4,3 UV-I 577 W/m 12,1 C 21,2 C 9,7 km/h (2 Bft) 100,00 %
09.08.2022 11:29 21,1 C 54 % 1025,7 hPa 0,0 l/m 6,4 km/h (2 Bft) O 90 1 min 0,000 mm 5,0 UV-I 575 W/m 11,4 C 21,1 C 8,0 km/h (2 Bft) 100,00 %
09.08.2022 11:28 21,1 C 53 % 1025,8 hPa 0,0 l/m 6,4 km/h (2 Bft) O-NO 67 1 min 0,000 mm 5,2 UV-I 557 W/m 11,1 C 21,1 C 8,0 km/h (2 Bft) 95,65 %
09.08.2022 11:27 21,2 C 53 % 1025,7 hPa 0,0 l/m 4,8 km/h (1 Bft) NO 45 1 min 0,000 mm 5,2 UV-I 513 W/m 11,2 C 21,2 C 8,0 km/h (2 Bft) 100,00 %
09.08.2022 11:26 21,2 C 54 % 1025,7 hPa 0,0 l/m 6,4 km/h (2 Bft) N-NO 22 1 min 0,000 mm 5,1 UV-I 202 W/m 11,5 C 21,2 C 12,9 km/h (3 Bft) 100,00 %
09.08.2022 11:25 21,3 C 53 % 1025,6 hPa 0,0 l/m 4,8 km/h (1 Bft) O-NO 67 1 min 0,000 mm 5,1 UV-I 202 W/m 11,3 C 21,3 C 11,3 km/h (2 Bft) 100,00 %
09.08.2022 11:24 21,3 C 53 % 1025,7 hPa 0,0 l/m 6,4 km/h (2 Bft) O-NO 67 0 min 0,000 mm 5,1 UV-I 123 W/m 11,3 C 21,3 C 14,5 km/h (3 Bft) 100,00 %
09.08.2022 11:23 21,2 C 57 % 1025,7 hPa 0,0 l/m 6,4 km/h (2 Bft) O-NO 67 0 min 0,000 mm 5,1 UV-I 90 W/m 12,3 C 21,2 C 9,7 km/h (2 Bft) 100,00 %
09.08.2022 11:22 21,2 C 56 % 1025,7 hPa 0,0 l/m 6,4 km/h (2 Bft) O-NO 67 0 min 0,000 mm 5,0 UV-I 69 W/m 12,1 C 21,2 C 8,0 km/h (2 Bft) 95,65 %
09.08.2022 11:21 21,2 C 58 % 1025,7 hPa 0,0 l/m 8,0 km/h (2 Bft) O-NO 67 0 min 0,000 mm 0,0 UV-I 56 W/m 12,6 C 21,2 C 14,5 km/h (3 Bft) 100,00 %
09.08.2022 11:20 21,1 C 55 % 1025,7 hPa 0,0 l/m 8,0 km/h (2 Bft) NO 45 0 min 0,000 mm 0,0 UV-I 54 W/m 11,7 C 21,1 C 12,9 km/h (3 Bft) 100,00 %
09.08.2022 11:19 21,1 C 60 % 1025,7 hPa 0,0 l/m 11,3 km/h (2 Bft) NO 45 0 min 0,000 mm 0,0 UV-I 54 W/m 13,0 C 21,1 C 14,5 km/h (3 Bft) 100,00 %
09.08.2022 11:18 21,1 C 55 % 1025,8 hPa 0,0 l/m 4,8 km/h (1 Bft) NO 45 0 min 0,000 mm 0,0 UV-I 54 W/m 11,7 C 21,1 C 8,0 km/h (2 Bft) 100,00 %
09.08.2022 11:17 21,2 C 56 % 1025,7 hPa 0,0 l/m 8,0 km/h (2 Bft) O-NO 67 0 min 0,000 mm 0,0 UV-I 54 W/m 12,1 C 21,2 C 14,5 km/h (3 Bft) 100,00 %
09.08.2022 11:16 21,1 C 57 % 1025,7 hPa 0,0 l/m 8,0 km/h (2 Bft) O-NO 67 0 min 0,000 mm 0,0 UV-I 54 W/m 12,2 C 21,1 C 16,1 km/h (3 Bft) 100,00 %
09.08.2022 11:15 21,0 C 55 % 1025,7 hPa 0,0 l/m 1,6 km/h (1 Bft) O-SO 112 0 min 0,000 mm 0,0 UV-I 54 W/m 11,6 C 21,0 C 6,4 km/h (2 Bft) 100,00 %
09.08.2022 11:14 20,9 C 56 % 1025,7 hPa 0,0 l/m 0,0 km/h (0 Bft) O-SO 112 0 min 0,000 mm 0,0 UV-I 54 W/m 11,8 C 20,9 C 3,2 km/h (1 Bft) 100,00 %
09.08.2022 11:13 21,0 C 54 % 1025,7 hPa 0,0 l/m 4,8 km/h (1 Bft) SO 135 0 min 0,000 mm 0,0 UV-I 54 W/m 11,3 C 21,0 C 6,4 km/h (2 Bft) 100,00 %
09.08.2022 11:12 21,1 C 54 % 1025,7 hPa 0,0 l/m 6,4 km/h (2 Bft) O-NO 67 0 min 0,000 mm 0,0 UV-I 54 W/m 11,4 C 21,1 C 11,3 km/h (2 Bft) 100,00 %
09.08.2022 11:11 21,2 C 55 % 1025,7 hPa 0,0 l/m 3,2 km/h (1 Bft) O 90 0 min 0,000 mm 0,0 UV-I 54 W/m 11,8 C 21,2 C 6,4 km/h (2 Bft) 100,00 %
09.08.2022 11:10 21,1 C 56 % 1025,7 hPa 0,0 l/m 4,8 km/h (1 Bft) O 90 0 min 0,000 mm 0,0 UV-I 53 W/m 12,0 C 21,1 C 9,7 km/h (2 Bft) 100,00 %
09.08.2022 11:09 21,1 C 56 % 1025,7 hPa 0,0 l/m 4,8 km/h (1 Bft) O 90 0 min 0,000 mm 0,0 UV-I 53 W/m 12,0 C 21,1 C 9,7 km/h (2 Bft) 100,00 %
09.08.2022 11:08 21,1 C 58 % 1025,7 hPa 0,0 l/m 4,8 km/h (1 Bft) O 90 0 min 0,000 mm 0,0 UV-I 53 W/m 12,5 C 21,1 C 11,3 km/h (2 Bft) 100,00 %
09.08.2022 11:07 21,0 C 59 % 1025,7 hPa 0,0 l/m 6,4 km/h (2 Bft) O-NO 67 0 min 0,000 mm 0,0 UV-I 53 W/m 12,7 C 21,0 C 11,3 km/h (2 Bft) 100,00 %
09.08.2022 11:06 20,9 C 59 % 1025,6 hPa 0,0 l/m 3,2 km/h (1 Bft) O 90 0 min 0,000 mm 0,0 UV-I 53 W/m 12,6 C 20,9 C 11,3 km/h (2 Bft) 100,00 %
09.08.2022 11:05 20,8 C 61 % 1025,7 hPa 0,0 l/m 3,2 km/h (1 Bft) O-SO 112 0 min 0,000 mm 0,0 UV-I 53 W/m 13,0 C 20,8 C 4,8 km/h (1 Bft) 95,65 %
09.08.2022 11:04 20,7 C 56 % 1025,7 hPa 0,0 l/m 1,6 km/h (1 Bft) O 90 0 min 0,000 mm 0,0 UV-I 53 W/m 11,6 C 20,7 C 4,8 km/h (1 Bft) 100,00 %
09.08.2022 11:03 20,7 C 55 % 1025,7 hPa 0,0 l/m 1,6 km/h (1 Bft) SO 135 0 min 0,000 mm 0,0 UV-I 53 W/m 11,3 C 20,7 C 3,2 km/h (1 Bft) 100,00 %
09.08.2022 11:02 20,7 C 57 % 1025,7 hPa 0,0 l/m 4,8 km/h (1 Bft) SO 135 0 min 0,000 mm 0,0 UV-I 51 W/m 11,9 C 20,7 C 8,0 km/h (2 Bft) 100,00 %
09.08.2022 11:01 20,6 C 60 % 1025,7 hPa 0,0 l/m 4,8 km/h (1 Bft) SO 135 0 min 0,000 mm 0,0 UV-I 51 W/m 12,6 C 20,6 C 8,0 km/h (2 Bft) 100,00 %
09.08.2022 11:00 20,4 C 63 % 1025,7 hPa 0,0 l/m 3,2 km/h (1 Bft) O-NO 67 0 min 0,178 mm 0,0 UV-I 51 W/m 13,1 C 20,4 C 6,4 km/h (2 Bft) 95,65 %
09.08.2022 10:59 20,4 C 62 % 1025,7 hPa 0,0 l/m 3,2 km/h (1 Bft) O-NO 67 0 min 0,000 mm 0,0 UV-I 51 W/m 12,9 C 20,4 C 4,8 km/h (1 Bft) 100,00 %
09.08.2022 10:58 20,3 C 61 % 1025,8 hPa 0,0 l/m 1,6 km/h (1 Bft) O 90 0 min 0,000 mm 0,0 UV-I 51 W/m 12,5 C 20,3 C 4,8 km/h (1 Bft) 100,00 %
09.08.2022 10:57 20,3 C 61 % 1025,8 hPa 0,0 l/m 3,2 km/h (1 Bft) NO 45 0 min 0,000 mm 0,0 UV-I 51 W/m 12,5 C 20,3 C 6,4 km/h (2 Bft) 100,00 %
09.08.2022 10:56 20,3 C 61 % 1025,8 hPa 0,0 l/m 4,8 km/h (1 Bft) O-NO 67 0 min 0,000 mm 0,0 UV-I 51 W/m 12,5 C 20,3 C 8,0 km/h (2 Bft) 100,00 %
09.08.2022 10:55 20,3 C 61 % 1025,8 hPa 0,0 l/m 3,2 km/h (1 Bft) SO 135 0 min 0,000 mm 0,0 UV-I 53 W/m 12,5 C 20,3 C 8,0 km/h (2 Bft) 91,30 %
09.08.2022 10:54 20,3 C 61 % 1025,8 hPa 0,0 l/m 6,4 km/h (2 Bft) SO 135 0 min 0,000 mm 0,0 UV-I 54 W/m 12,5 C 20,3 C 11,3 km/h (2 Bft) 100,00 %
09.08.2022 10:53 20,2 C 62 % 1025,9 hPa 0,0 l/m 3,2 km/h (1 Bft) O-SO 112 0 min 0,000 mm 0,0 UV-I 53 W/m 12,7 C 20,2 C 6,4 km/h (2 Bft) 95,65 %
09.08.2022 10:52 20,2 C 66 % 1025,9 hPa 0,0 l/m 3,2 km/h (1 Bft) N-NO 22 0 min 0,000 mm 0,0 UV-I 51 W/m 13,6 C 20,2 C 4,8 km/h (1 Bft) 100,00 %
09.08.2022 10:51 20,1 C 63 % 1025,9 hPa 0,0 l/m 1,6 km/h (1 Bft) O-NO 67 0 min 0,000 mm 0,0 UV-I 49 W/m 12,8 C 20,1 C 3,2 km/h (1 Bft) 100,00 %
09.08.2022 10:50 20,1 C 61 % 1025,9 hPa 0,0 l/m 1,6 km/h (1 Bft) O-SO 112 0 min 0,000 mm 0,0 UV-I 49 W/m 12,3 C 20,1 C 3,2 km/h (1 Bft) 95,65 %
09.08.2022 10:49 20,1 C 63 % 1025,8 hPa 0,0 l/m 4,8 km/h (1 Bft) NO 45 0 min 0,000 mm 0,0 UV-I 49 W/m 12,8 C 20,1 C 6,4 km/h (2 Bft) 100,00 %
09.08.2022 10:48 20,1 C 62 % 1025,8 hPa 0,0 l/m 4,8 km/h (1 Bft) NO 45 0 min 0,000 mm 0,0 UV-I 49 W/m 12,6 C 20,1 C 6,4 km/h (2 Bft) 100,00 %
09.08.2022 10:47 20,1 C 63 % 1025,9 hPa 0,0 l/m 3,2 km/h (1 Bft) O-NO 67 0 min 0,000 mm 0,0 UV-I 49 W/m 12,8 C 20,1 C 6,4 km/h (2 Bft) 95,65 %
09.08.2022 10:46 20,1 C 64 % 1025,8 hPa 0,0 l/m 3,2 km/h (1 Bft) O 90 0 min 0,000 mm 0,0 UV-I 49 W/m 13,1 C 20,1 C 3,2 km/h (1 Bft) 100,00 %
09.08.2022 10:45 19,9 C 65 % 1025,8 hPa 0,0 l/m 1,6 km/h (1 Bft) NO 45 0 min 0,000 mm 0,0 UV-I 49 W/m 13,1 C 19,9 C 4,8 km/h (1 Bft) 100,00 %
09.08.2022 10:44 19,9 C 63 % 1025,9 hPa 0,0 l/m 3,2 km/h (1 Bft) O-NO 67 0 min 0,000 mm 0,0 UV-I 49 W/m 12,6 C 19,9 C 4,8 km/h (1 Bft) 100,00 %
09.08.2022 10:43 19,9 C 63 % 1025,8 hPa 0,0 l/m 1,6 km/h (1 Bft) O 90 0 min 0,000 mm 0,0 UV-I 49 W/m 12,6 C 19,9 C 3,2 km/h (1 Bft) 95,65 %
09.08.2022 10:42 19,9 C 65 % 1025,8 hPa 0,0 l/m 3,2 km/h (1 Bft) O 90 0 min 0,000 mm 0,0 UV-I 47 W/m 13,1 C 19,9 C 6,4 km/h (2 Bft) 100,00 %
09.08.2022 10:41 19,8 C 64 % 1025,8 hPa 0,0 l/m 3,2 km/h (1 Bft) O-SO 112 0 min 0,000 mm 0,0 UV-I 47 W/m 12,8 C 19,8 C 6,4 km/h (2 Bft) 91,30 %
09.08.2022 10:40 19,8 C 65 % 1025,8 hPa 0,0 l/m 3,2 km/h (1 Bft) O 90 0 min 0,000 mm 0,0 UV-I 47 W/m 13,0 C 19,8 C 11,3 km/h (2 Bft) 100,00 %
09.08.2022 10:39 19,7 C 65 % 1025,8 hPa 0,0 l/m 1,6 km/h (1 Bft) SO 135 0 min 0,000 mm 0,0 UV-I 47 W/m 12,9 C 19,7 C 3,2 km/h (1 Bft) 100,00 %
09.08.2022 10:38 19,6 C 66 % 1025,8 hPa 0,0 l/m 1,6 km/h (1 Bft) O-SO 112 0 min 0,000 mm 0,0 UV-I 47 W/m 13,1 C 19,6 C 3,2 km/h (1 Bft) 100,00 %
09.08.2022 10:37 19,5 C 69 % 1025,8 hPa 0,0 l/m 0,0 km/h (0 Bft) O-SO 112 0 min 0,000 mm 0,0 UV-I 47 W/m 13,7 C 19,5 C 1,6 km/h (1 Bft) 100,00 %
09.08.2022 10:36 19,5 C 65 % 1025,9 hPa 0,0 l/m 1,6 km/h (1 Bft) O-SO 112 0 min 0,000 mm 0,0 UV-I 47 W/m 12,7 C 19,5 C 3,2 km/h (1 Bft) 100,00 %
09.08.2022 10:35 19,5 C 66 % 1025,7 hPa 0,0 l/m 4,8 km/h (1 Bft) O-NO 67 0 min 0,000 mm 0,0 UV-I 49 W/m 13,0 C 19,5 C 8,0 km/h (2 Bft) 100,00 %
09.08.2022 10:34 19,5 C 65 % 1025,8 hPa 0,0 l/m 6,4 km/h (2 Bft) NO 45 0 min 0,000 mm 0,0 UV-I 49 W/m 12,7 C 19,5 C 8,0 km/h (2 Bft) 100,00 %
09.08.2022 10:33 19,5 C 67 % 1025,9 hPa 0,0 l/m 6,4 km/h (2 Bft) NO 45 0 min 0,000 mm 3,7 UV-I 54 W/m 13,2 C 19,5 C 9,7 km/h (2 Bft) 95,65 %
09.08.2022 10:32 19,5 C 66 % 1025,8 hPa 0,0 l/m 3,2 km/h (1 Bft) O 90 1 min 0,000 mm 3,8 UV-I 547 W/m 13,0 C 19,5 C 6,4 km/h (2 Bft) 100,00 %
09.08.2022 10:31 19,4 C 70 % 1025,8 hPa 0,0 l/m 1,6 km/h (1 Bft) SO 135 1 min 0,000 mm 3,8 UV-I 547 W/m 13,8 C 19,4 C 3,2 km/h (1 Bft) 100,00 %
09.08.2022 10:30 19,4 C 67 % 1025,8 hPa 0,0 l/m 1,6 km/h (1 Bft) O-SO 112 1 min 0,000 mm 3,8 UV-I 547 W/m 13,1 C 19,4 C 4,8 km/h (1 Bft) 100,00 %
09.08.2022 10:29 19,3 C 67 % 1025,8 hPa 0,0 l/m 1,6 km/h (1 Bft) O 90 1 min 0,000 mm 3,8 UV-I 547 W/m 13,0 C 19,3 C 3,2 km/h (1 Bft) 95,65 %
09.08.2022 10:28 19,3 C 67 % 1025,8 hPa 0,0 l/m 1,6 km/h (1 Bft) O-SO 112 1 min 0,000 mm 3,8 UV-I 594 W/m 13,0 C 19,3 C 4,8 km/h (1 Bft) 100,00 %
09.08.2022 10:27 19,3 C 70 % 1025,8 hPa 0,0 l/m 3,2 km/h (1 Bft) O 90 1 min 0,000 mm 3,8 UV-I 603 W/m 13,7 C 19,3 C 6,4 km/h (2 Bft) 100,00 %
09.08.2022 10:26 19,2 C 67 % 1025,8 hPa 0,0 l/m 1,6 km/h (1 Bft) O-SO 112 1 min 0,000 mm 3,8 UV-I 601 W/m 12,9 C 19,2 C 3,2 km/h (1 Bft) 95,65 %
09.08.2022 10:25 19,2 C 68 % 1025,9 hPa 0,0 l/m 3,2 km/h (1 Bft) SO 135 1 min 0,000 mm 3,8 UV-I 598 W/m 13,1 C 19,2 C 4,8 km/h (1 Bft) 100,00 %
09.08.2022 10:24 19,1 C 67 % 1025,8 hPa 0,0 l/m 1,6 km/h (1 Bft) O-SO 112 1 min 0,000 mm 3,8 UV-I 598 W/m 12,8 C 19,1 C 3,2 km/h (1 Bft) 100,00 %
09.08.2022 10:23 19,1 C 69 % 1025,9 hPa 0,0 l/m 3,2 km/h (1 Bft) O-SO 112 1 min 0,000 mm 3,7 UV-I 592 W/m 13,3 C 19,1 C 4,8 km/h (1 Bft) 95,65 %
09.08.2022 10:22 19,1 C 70 % 1025,8 hPa 0,0 l/m 3,2 km/h (1 Bft) S 180 1 min 0,000 mm 3,7 UV-I 589 W/m 13,5 C 19,1 C 4,8 km/h (1 Bft) 100,00 %
09.08.2022 10:21 19,0 C 70 % 1025,9 hPa 0,0 l/m 1,6 km/h (1 Bft) S-SO 157 1 min 0,000 mm 3,6 UV-I 589 W/m 13,4 C 19,0 C 3,2 km/h (1 Bft) 100,00 %
09.08.2022 10:20 18,9 C 69 % 1025,9 hPa 0,0 l/m 1,6 km/h (1 Bft) O-SO 112 1 min 0,000 mm 3,6 UV-I 589 W/m 13,1 C 18,9 C 3,2 km/h (1 Bft) 100,00 %
09.08.2022 10:19 18,9 C 70 % 1025,8 hPa 0,0 l/m 3,2 km/h (1 Bft) SO 135 1 min 0,000 mm 3,6 UV-I 582 W/m 13,3 C 18,9 C 6,4 km/h (2 Bft) 100,00 %
09.08.2022 10:18 18,8 C 72 % 1025,8 hPa 0,0 l/m 1,6 km/h (1 Bft) SO 135 1 min 0,000 mm 3,5 UV-I 580 W/m 13,6 C 18,8 C 3,2 km/h (1 Bft) 100,00 %
09.08.2022 10:17 18,7 C 70 % 1025,8 hPa 0,0 l/m 1,6 km/h (1 Bft) SO 135 1 min 0,000 mm 3,5 UV-I 575 W/m 13,1 C 18,7 C 3,2 km/h (1 Bft) 100,00 %
09.08.2022 10:16 18,7 C 71 % 1025,9 hPa 0,0 l/m 3,2 km/h (1 Bft) SO 135 1 min 0,000 mm 3,4 UV-I 571 W/m 13,3 C 18,7 C 4,8 km/h (1 Bft) 100,00 %
09.08.2022 10:15 18,7 C 70 % 1025,9 hPa 0,0 l/m 1,6 km/h (1 Bft) O-SO 112 1 min 0,000 mm 3,4 UV-I 568 W/m 13,1 C 18,7 C 4,8 km/h (1 Bft) 100,00 %
09.08.2022 10:14 18,7 C 70 % 1025,9 hPa 0,0 l/m 1,6 km/h (1 Bft) O-SO 112 1 min 0,000 mm 3,4 UV-I 557 W/m 13,1 C 18,7 C 3,2 km/h (1 Bft) 100,00 %
09.08.2022 10:13 18,6 C 73 % 1025,8 hPa 0,0 l/m 1,6 km/h (1 Bft) O-SO 112 1 min 0,000 mm 3,3 UV-I 545 W/m 13,7 C 18,6 C 3,2 km/h (1 Bft) 100,00 %
09.08.2022 10:12 18,5 C 72 % 1025,9 hPa 0,0 l/m 4,8 km/h (1 Bft) S-SO 157 1 min 0,000 mm 3,3 UV-I 536 W/m 13,4 C 18,5 C 8,0 km/h (2 Bft) 100,00 %
09.08.2022 10:11 18,5 C 72 % 1025,9 hPa 0,0 l/m 1,6 km/h (1 Bft) O 90 1 min 0,000 mm 3,3 UV-I 512 W/m 13,4 C 18,5 C 4,8 km/h (1 Bft) 100,00 %
09.08.2022 10:10 18,6 C 73 % 1025,8 hPa 0,0 l/m 3,2 km/h (1 Bft) SO 135 1 min 0,000 mm 3,3 UV-I 179 W/m 13,7 C 18,6 C 6,4 km/h (2 Bft) 100,00 %
09.08.2022 10:09 18,4 C 73 % 1025,9 hPa 0,0 l/m 3,2 km/h (1 Bft) SO 135 1 min 0,000 mm 3,2 UV-I 179 W/m 13,5 C 18,4 C 4,8 km/h (1 Bft) 100,00 %
09.08.2022 10:08 18,4 C 73 % 1026,0 hPa 0,0 l/m 3,2 km/h (1 Bft) SO 135 0 min 0,000 mm 3,2 UV-I 90 W/m 13,5 C 18,4 C 4,8 km/h (1 Bft) 100,00 %
09.08.2022 10:07 18,4 C 74 % 1025,9 hPa 0,0 l/m 1,6 km/h (1 Bft) O-SO 112 0 min 0,000 mm 3,2 UV-I 56 W/m 13,7 C 18,4 C 3,2 km/h (1 Bft) 95,65 %
09.08.2022 10:06 18,3 C 74 % 1025,9 hPa 0,0 l/m 1,6 km/h (1 Bft) O 90 0 min 0,000 mm 0,0 UV-I 51 W/m 13,6 C 18,3 C 3,2 km/h (1 Bft) 100,00 %
09.08.2022 10:05 18,1 C 73 % 1025,9 hPa 0,0 l/m 1,6 km/h (1 Bft) NO 45 0 min 0,000 mm 0,0 UV-I 51 W/m 13,2 C 18,1 C 3,2 km/h (1 Bft) 95,65 %
09.08.2022 10:04 18,1 C 73 % 1026,0 hPa 0,0 l/m 1,6 km/h (1 Bft) NO 45 0 min 0,000 mm 0,0 UV-I 49 W/m 13,2 C 18,1 C 3,2 km/h (1 Bft) 100,00 %
09.08.2022 10:03 18,0 C 74 % 1025,9 hPa 0,0 l/m 3,2 km/h (1 Bft) O-NO 67 0 min 0,000 mm 0,0 UV-I 49 W/m 13,3 C 18,0 C 4,8 km/h (1 Bft) 100,00 %
09.08.2022 10:02 18,0 C 75 % 1026,0 hPa 0,0 l/m 1,6 km/h (1 Bft) O-NO 67 0 min 0,000 mm 0,0 UV-I 49 W/m 13,5 C 18,0 C 4,8 km/h (1 Bft) 95,65 %
09.08.2022 10:01 17,9 C 73 % 1026,0 hPa 0,0 l/m 1,6 km/h (1 Bft) O-NO 67 0 min 0,000 mm 0,0 UV-I 49 W/m 13,0 C 17,9 C 4,8 km/h (1 Bft) 100,00 %
09.08.2022 10:00 17,9 C 74 % 1025,8 hPa 0,0 l/m 3,2 km/h (1 Bft) O-NO 67 0 min 0,127 mm 0,0 UV-I 49 W/m 13,2 C 17,9 C 4,8 km/h (1 Bft) 100,00 %
09.08.2022 09:59 17,8 C 74 % 1025,9 hPa 0,0 l/m 1,6 km/h (1 Bft) O 90 0 min 0,000 mm 0,0 UV-I 49 W/m 13,1 C 17,8 C 1,6 km/h (1 Bft) 95,65 %
09.08.2022 09:58 17,9 C 74 % 1026,0 hPa 0,0 l/m 4,8 km/h (1 Bft) O-NO 67 0 min 0,000 mm 0,0 UV-I 49 W/m 13,2 C 17,9 C 6,4 km/h (2 Bft) 100,00 %
09.08.2022 09:57 17,8 C 73 % 1026,0 hPa 0,0 l/m 1,6 km/h (1 Bft) O 90 0 min 0,000 mm 0,0 UV-I 49 W/m 12,9 C 17,8 C 4,8 km/h (1 Bft) 100,00 %
09.08.2022 09:56 17,8 C 74 % 1025,9 hPa 0,0 l/m 1,6 km/h (1 Bft) O-SO 112 0 min 0,000 mm 0,0 UV-I 47 W/m 13,1 C 17,8 C 3,2 km/h (1 Bft) 100,00 %
09.08.2022 09:55 17,8 C 73 % 1025,9 hPa 0,0 l/m 3,2 km/h (1 Bft) O-SO 112 0 min 0,000 mm 0,0 UV-I 47 W/m 12,9 C 17,8 C 4,8 km/h (1 Bft) 100,00 %
09.08.2022 09:54 17,8 C 75 % 1025,9 hPa 0,0 l/m 3,2 km/h (1 Bft) O-SO 112 0 min 0,000 mm 0,0 UV-I 47 W/m 13,3 C 17,8 C 6,4 km/h (2 Bft) 100,00 %
09.08.2022 09:53 17,8 C 77 % 1025,9 hPa 0,0 l/m 3,2 km/h (1 Bft) SO 135 0 min 0,000 mm 0,0 UV-I 47 W/m 13,7 C 17,8 C 6,4 km/h (2 Bft) 100,00 %
09.08.2022 09:52 17,8 C 75 % 1025,9 hPa 0,0 l/m 4,8 km/h (1 Bft) SO 135 0 min 0,000 mm 0,0 UV-I 47 W/m 13,3 C 17,8 C 6,4 km/h (2 Bft) 100,00 %
09.08.2022 09:51 17,8 C 74 % 1025,9 hPa 0,0 l/m 3,2 km/h (1 Bft) O-SO 112 0 min 0,000 mm 0,0 UV-I 47 W/m 13,1 C 17,8 C 6,4 km/h (2 Bft) 100,00 %
09.08.2022 09:50 17,8 C 74 % 1025,9 hPa 0,0 l/m 4,8 km/h (1 Bft) SO 135 0 min 0,000 mm 0,0 UV-I 47 W/m 13,1 C 17,8 C 6,4 km/h (2 Bft) 100,00 %
09.08.2022 09:49 17,8 C 75 % 1025,9 hPa 0,0 l/m 3,2 km/h (1 Bft) SO 135 0 min 0,000 mm 0,0 UV-I 47 W/m 13,3 C 17,8 C 6,4 km/h (2 Bft) 100,00 %
09.08.2022 09:48 17,8 C 75 % 1025,9 hPa 0,0 l/m 3,2 km/h (1 Bft) SO 135 0 min 0,000 mm 0,0 UV-I 47 W/m 13,3 C 17,8 C 4,8 km/h (1 Bft) 100,00 %
09.08.2022 09:47 17,8 C 74 % 1025,9 hPa 0,0 l/m 1,6 km/h (1 Bft) O-SO 112 0 min 0,000 mm 0,0 UV-I 47 W/m 13,1 C 17,8 C 3,2 km/h (1 Bft) 100,00 %
09.08.2022 09:46 17,8 C 74 % 1025,9 hPa 0,0 l/m 0,0 km/h (0 Bft) O-SO 112 0 min 0,000 mm 0,0 UV-I 47 W/m 13,1 C 17,8 C 3,2 km/h (1 Bft) 100,00 %
09.08.2022 09:45 17,8 C 74 % 1025,9 hPa 0,0 l/m 1,6 km/h (1 Bft) O-SO 112 0 min 0,000 mm 0,0 UV-I 47 W/m 13,1 C 17,8 C 3,2 km/h (1 Bft) 100,00 %
09.08.2022 09:44 17,8 C 76 % 1025,9 hPa 0,0 l/m 1,6 km/h (1 Bft) O-SO 112 0 min 0,000 mm 0,0 UV-I 47 W/m 13,5 C 17,8 C 4,8 km/h (1 Bft) 100,00 %
09.08.2022 09:43 17,8 C 75 % 1025,9 hPa 0,0 l/m 1,6 km/h (1 Bft) SO 135 0 min 0,000 mm 0,0 UV-I 47 W/m 13,3 C 17,8 C 4,8 km/h (1 Bft) 91,30 %
09.08.2022 09:42 17,8 C 77 % 1025,9 hPa 0,0 l/m 3,2 km/h (1 Bft) SO 135 0 min 0,000 mm 0,0 UV-I 47 W/m 13,7 C 17,8 C 4,8 km/h (1 Bft) 100,00 %
09.08.2022 09:41 17,8 C 74 % 1025,8 hPa 0,0 l/m 1,6 km/h (1 Bft) O 90 0 min 0,000 mm 0,0 UV-I 47 W/m 13,1 C 17,8 C 3,2 km/h (1 Bft) 100,00 %
09.08.2022 09:40 17,8 C 75 % 1025,9 hPa 0,0 l/m 1,6 km/h (1 Bft) O-SO 112 0 min 0,000 mm 0,0 UV-I 47 W/m 13,3 C 17,8 C 3,2 km/h (1 Bft) 100,00 %
09.08.2022 09:39 17,8 C 74 % 1025,9 hPa 0,0 l/m 1,6 km/h (1 Bft) O 90 0 min 0,000 mm 0,0 UV-I 47 W/m 13,1 C 17,8 C 4,8 km/h (1 Bft) 100,00 %
09.08.2022 09:38 17,8 C 76 % 1025,8 hPa 0,0 l/m 3,2 km/h (1 Bft) O 90 0 min 0,000 mm 0,0 UV-I 47 W/m 13,5 C 17,8 C 4,8 km/h (1 Bft) 100,00 %
09.08.2022 09:37 17,8 C 76 % 1025,8 hPa 0,0 l/m 3,2 km/h (1 Bft) O 90 0 min 0,000 mm 0,0 UV-I 47 W/m 13,5 C 17,8 C 4,8 km/h (1 Bft) 100,00 %
09.08.2022 09:36 17,7 C 76 % 1025,8 hPa 0,0 l/m 3,2 km/h (1 Bft) O 90 0 min 0,000 mm 0,0 UV-I 47 W/m 13,4 C 17,7 C 6,4 km/h (2 Bft) 100,00 %
09.08.2022 09:35 17,7 C 73 % 1025,8 hPa 0,0 l/m 3,2 km/h (1 Bft) NO 45 0 min 0,000 mm 0,0 UV-I 47 W/m 12,8 C 17,7 C 4,8 km/h (1 Bft) 100,00 %
09.08.2022 09:34 17,8 C 73 % 1025,8 hPa 0,0 l/m 6,4 km/h (2 Bft) NO 45 0 min 0,000 mm 0,0 UV-I 47 W/m 12,9 C 17,8 C 8,0 km/h (2 Bft) 100,00 %
09.08.2022 09:33 17,8 C 76 % 1025,7 hPa 0,0 l/m 4,8 km/h (1 Bft) O-NO 67 0 min 0,000 mm 0,0 UV-I 49 W/m 13,5 C 17,8 C 8,0 km/h (2 Bft) 100,00 %
09.08.2022 09:32 17,7 C 73 % 1025,7 hPa 0,0 l/m 3,2 km/h (1 Bft) O-NO 67 0 min 0,000 mm 1,5 UV-I 65 W/m 12,8 C 17,7 C 6,4 km/h (2 Bft) 100,00 %
09.08.2022 09:31 17,7 C 74 % 1025,7 hPa 0,0 l/m 3,2 km/h (1 Bft) O-NO 67 0 min 0,000 mm 1,5 UV-I 102 W/m 13,0 C 17,7 C 6,4 km/h (2 Bft) 100,00 %
09.08.2022 09:30 17,6 C 73 % 1025,7 hPa 0,0 l/m 0,0 km/h (0 Bft) O-NO 67 1 min 0,000 mm 1,5 UV-I 169 W/m 12,7 C 17,6 C 3,2 km/h (1 Bft) 100,00 %
09.08.2022 09:29 17,6 C 73 % 1025,7 hPa 0,0 l/m 1,6 km/h (1 Bft) O-NO 67 1 min 0,000 mm 1,4 UV-I 255 W/m 12,7 C 17,6 C 3,2 km/h (1 Bft) 100,00 %
09.08.2022 09:28 17,5 C 73 % 1025,6 hPa 0,0 l/m 3,2 km/h (1 Bft) N-NO 22 1 min 0,000 mm 1,4 UV-I 413 W/m 12,6 C 17,5 C 4,8 km/h (1 Bft) 95,65 %
09.08.2022 09:27 17,5 C 75 % 1025,7 hPa 0,0 l/m 1,6 km/h (1 Bft) O-NO 67 1 min 0,000 mm 1,4 UV-I 452 W/m 13,0 C 17,5 C 4,8 km/h (1 Bft) 100,00 %
09.08.2022 09:26 17,4 C 75 % 1025,7 hPa 0,0 l/m 1,6 km/h (1 Bft) O 90 1 min 0,000 mm 1,4 UV-I 466 W/m 12,9 C 17,4 C 3,2 km/h (1 Bft) 95,65 %
09.08.2022 09:25 17,3 C 75 % 1025,7 hPa 0,0 l/m 3,2 km/h (1 Bft) NO 45 1 min 0,000 mm 1,4 UV-I 468 W/m 12,8 C 17,3 C 4,8 km/h (1 Bft) 100,00 %
09.08.2022 09:24 17,3 C 77 % 1025,7 hPa 0,0 l/m 4,8 km/h (1 Bft) NO 45 1 min 0,000 mm 1,4 UV-I 466 W/m 13,2 C 17,3 C 8,0 km/h (2 Bft) 100,00 %
09.08.2022 09:23 17,2 C 74 % 1025,7 hPa 0,0 l/m 3,2 km/h (1 Bft) O-NO 67 1 min 0,000 mm 1,4 UV-I 464 W/m 12,5 C 17,2 C 4,8 km/h (1 Bft) 95,65 %
09.08.2022 09:22 17,2 C 75 % 1025,6 hPa 0,0 l/m 3,2 km/h (1 Bft) NO 45 1 min 0,000 mm 1,4 UV-I 461 W/m 12,7 C 17,2 C 4,8 km/h (1 Bft) 100,00 %
09.08.2022 09:21 17,2 C 74 % 1025,6 hPa 0,0 l/m 4,8 km/h (1 Bft) NO 45 1 min 0,000 mm 1,4 UV-I 457 W/m 12,5 C 17,2 C 6,4 km/h (2 Bft) 95,65 %
09.08.2022 09:20 17,2 C 76 % 1025,7 hPa 0,0 l/m 4,8 km/h (1 Bft) N 360 1 min 0,000 mm 1,3 UV-I 455 W/m 12,9 C 17,2 C 6,4 km/h (2 Bft) 100,00 %
09.08.2022 09:19 17,2 C 75 % 1025,6 hPa 0,0 l/m 4,8 km/h (1 Bft) N 360 1 min 0,000 mm 1,3 UV-I 454 W/m 12,7 C 17,2 C 6,4 km/h (2 Bft) 100,00 %
09.08.2022 09:18 17,1 C 74 % 1025,6 hPa 0,0 l/m 0,0 km/h (0 Bft) N 360 1 min 0,000 mm 1,3 UV-I 454 W/m 12,4 C 17,1 C 3,2 km/h (1 Bft) 100,00 %
09.08.2022 09:17 17,1 C 73 % 1025,6 hPa 0,0 l/m 0,0 km/h (0 Bft) O-NO 67 1 min 0,000 mm 1,3 UV-I 450 W/m 12,2 C 17,1 C 1,6 km/h (1 Bft) 100,00 %
09.08.2022 09:16 17,0 C 74 % 1025,6 hPa 0,0 l/m 0,0 km/h (0 Bft) O-NO 67 1 min 0,000 mm 1,3 UV-I 448 W/m 12,3 C 17,0 C 1,6 km/h (1 Bft) 95,65 %
09.08.2022 09:15 16,9 C 74 % 1025,6 hPa 0,0 l/m 1,6 km/h (1 Bft) O-NO 67 1 min 0,000 mm 1,3 UV-I 443 W/m 12,2 C 16,9 C 3,2 km/h (1 Bft) 100,00 %
09.08.2022 09:14 16,8 C 74 % 1025,6 hPa 0,0 l/m 1,6 km/h (1 Bft) NO 45 1 min 0,000 mm 1,3 UV-I 441 W/m 12,1 C 16,8 C 3,2 km/h (1 Bft) 95,65 %
09.08.2022 09:13 16,8 C 74 % 1025,6 hPa 0,0 l/m 1,6 km/h (1 Bft) NO 45 1 min 0,000 mm 1,3 UV-I 439 W/m 12,1 C 16,8 C 3,2 km/h (1 Bft) 100,00 %
09.08.2022 09:12 16,8 C 74 % 1025,6 hPa 0,0 l/m 3,2 km/h (1 Bft) NO 45 1 min 0,000 mm 1,3 UV-I 436 W/m 12,1 C 16,8 C 4,8 km/h (1 Bft) 100,00 %
09.08.2022 09:11 16,8 C 75 % 1025,5 hPa 0,0 l/m 4,8 km/h (1 Bft) N-NO 22 1 min 0,000 mm 1,3 UV-I 436 W/m 12,3 C 16,8 C 6,4 km/h (2 Bft) 100,00 %
09.08.2022 09:10 16,8 C 76 % 1025,5 hPa 0,0 l/m 3,2 km/h (1 Bft) NO 45 1 min 0,000 mm 1,3 UV-I 431 W/m 12,5 C 16,8 C 4,8 km/h (1 Bft) 100,00 %
09.08.2022 09:09 16,8 C 74 % 1025,5 hPa 0,0 l/m 4,8 km/h (1 Bft) N-NO 22 1 min 0,000 mm 1,3 UV-I 385 W/m 12,1 C 16,8 C 6,4 km/h (2 Bft) 100,00 %
09.08.2022 09:08 16,8 C 73 % 1025,4 hPa 0,0 l/m 4,8 km/h (1 Bft) NO 45 1 min 0,000 mm 1,2 UV-I 316 W/m 11,9 C 16,8 C 6,4 km/h (2 Bft) 100,00 %
09.08.2022 09:07 16,8 C 73 % 1025,5 hPa 0,0 l/m 1,6 km/h (1 Bft) W-NW 292 1 min 0,000 mm 1,2 UV-I 229 W/m 11,9 C 16,8 C 3,2 km/h (1 Bft) 100,00 %
09.08.2022 09:06 16,8 C 74 % 1025,4 hPa 0,0 l/m 1,6 km/h (1 Bft) W-NW 292 0 min 0,000 mm 1,2 UV-I 142 W/m 12,1 C 16,8 C 3,2 km/h (1 Bft) 100,00 %
09.08.2022 09:05 16,7 C 75 % 1025,5 hPa 0,0 l/m 1,6 km/h (1 Bft) NW 315 0 min 0,000 mm 1,2 UV-I 83 W/m 12,2 C 16,7 C 3,2 km/h (1 Bft) 100,00 %
09.08.2022 09:04 16,6 C 73 % 1025,5 hPa 0,0 l/m 1,6 km/h (1 Bft) N-NW 337 0 min 0,000 mm 0,0 UV-I 54 W/m 11,7 C 16,6 C 3,2 km/h (1 Bft) 100,00 %
09.08.2022 09:03 16,6 C 72 % 1025,5 hPa 0,0 l/m 3,2 km/h (1 Bft) N 360 0 min 0,000 mm 0,0 UV-I 47 W/m 11,5 C 16,6 C 4,8 km/h (1 Bft) 100,00 %
09.08.2022 09:02 16,6 C 72 % 1025,5 hPa 0,0 l/m 4,8 km/h (1 Bft) N 360 0 min 0,000 mm 0,0 UV-I 47 W/m 11,5 C 16,6 C 6,4 km/h (2 Bft) 100,00 %
09.08.2022 09:01 16,5 C 73 % 1025,5 hPa 0,0 l/m 3,2 km/h (1 Bft) N 360 0 min 0,000 mm 0,0 UV-I 47 W/m 11,6 C 16,5 C 4,8 km/h (1 Bft) 100,00 %
09.08.2022 09:00 16,5 C 73 % 1025,5 hPa 0,0 l/m 4,8 km/h (1 Bft) N-NO 22 0 min 0,127 mm 0,0 UV-I 47 W/m 11,6 C 16,5 C 6,4 km/h (2 Bft) 100,00 %
09.08.2022 08:59 16,5 C 73 % 1025,4 hPa 0,0 l/m 4,8 km/h (1 Bft) NO 45 0 min 0,000 mm 0,0 UV-I 46 W/m 11,6 C 16,5 C 6,4 km/h (2 Bft) 100,00 %
09.08.2022 08:58 16,4 C 73 % 1025,4 hPa 0,0 l/m 4,8 km/h (1 Bft) NO 45 0 min 0,000 mm 0,0 UV-I 46 W/m 11,5 C 16,4 C 6,4 km/h (2 Bft) 100,00 %
09.08.2022 08:57 16,4 C 72 % 1025,4 hPa 0,0 l/m 3,2 km/h (1 Bft) NO 45 0 min 0,000 mm 0,0 UV-I 46 W/m 11,3 C 16,4 C 4,8 km/h (1 Bft) 100,00 %
09.08.2022 08:56 16,4 C 74 % 1025,4 hPa 0,0 l/m 6,4 km/h (2 Bft) O-NO 67 0 min 0,000 mm 0,0 UV-I 46 W/m 11,8 C 16,4 C 8,0 km/h (2 Bft) 100,00 %
09.08.2022 08:55 16,4 C 73 % 1025,3 hPa 0,0 l/m 4,8 km/h (1 Bft) O-NO 67 0 min 0,000 mm 0,0 UV-I 46 W/m 11,5 C 16,4 C 6,4 km/h (2 Bft) 100,00 %
09.08.2022 08:54 16,4 C 75 % 1025,3 hPa 0,0 l/m 4,8 km/h (1 Bft) NO 45 0 min 0,000 mm 0,0 UV-I 46 W/m 12,0 C 16,4 C 6,4 km/h (2 Bft) 100,00 %
09.08.2022 08:53 16,4 C 75 % 1025,2 hPa 0,0 l/m 6,4 km/h (2 Bft) N-NW 337 0 min 0,000 mm 0,0 UV-I 46 W/m 12,0 C 16,4 C 8,0 km/h (2 Bft) 95,65 %
09.08.2022 08:52 16,3 C 76 % 1025,3 hPa 0,0 l/m 4,8 km/h (1 Bft) N-NO 22 0 min 0,000 mm 0,0 UV-I 46 W/m 12,1 C 16,3 C 6,4 km/h (2 Bft) 100,00 %
09.08.2022 08:51 16,3 C 77 % 1025,3 hPa 0,0 l/m 3,2 km/h (1 Bft) N 360 0 min 0,000 mm 0,0 UV-I 46 W/m 12,3 C 16,3 C 4,8 km/h (1 Bft) 100,00 %
09.08.2022 08:50 16,3 C 76 % 1025,3 hPa 0,0 l/m 3,2 km/h (1 Bft) N 360 0 min 0,000 mm 0,0 UV-I 46 W/m 12,1 C 16,3 C 6,4 km/h (2 Bft) 95,65 %
09.08.2022 08:49 16,2 C 76 % 1025,3 hPa 0,0 l/m 4,8 km/h (1 Bft) N 360 0 min 0,000 mm 0,0 UV-I 46 W/m 12,0 C 16,2 C 6,4 km/h (2 Bft) 100,00 %
09.08.2022 08:48 16,2 C 76 % 1025,3 hPa 0,0 l/m 4,8 km/h (1 Bft) N 360 0 min 0,000 mm 0,0 UV-I 46 W/m 12,0 C 16,2 C 6,4 km/h (2 Bft) 100,00 %
09.08.2022 08:47 16,2 C 76 % 1025,2 hPa 0,0 l/m 4,8 km/h (1 Bft) N-NO 22 0 min 0,000 mm 0,0 UV-I 46 W/m 12,0 C 16,2 C 6,4 km/h (2 Bft) 100,00 %
09.08.2022 08:46 16,1 C 77 % 1025,2 hPa 0,0 l/m 4,8 km/h (1 Bft) N 360 0 min 0,000 mm 0,0 UV-I 46 W/m 12,1 C 16,1 C 6,4 km/h (2 Bft) 100,00 %
09.08.2022 08:45 16,1 C 78 % 1025,1 hPa 0,0 l/m 1,6 km/h (1 Bft) N 360 0 min 0,000 mm 0,0 UV-I 46 W/m 12,3 C 16,1 C 3,2 km/h (1 Bft) 100,00 %
09.08.2022 08:44 16,1 C 78 % 1025,1 hPa 0,0 l/m 3,2 km/h (1 Bft) N 360 0 min 0,000 mm 0,0 UV-I 46 W/m 12,3 C 16,1 C 4,8 km/h (1 Bft) 100,00 %
09.08.2022 08:43 16,1 C 78 % 1025,1 hPa 0,0 l/m 6,4 km/h (2 Bft) N 360 0 min 0,000 mm 0,0 UV-I 46 W/m 12,3 C 16,1 C 8,0 km/h (2 Bft) 100,00 %
09.08.2022 08:42 16,1 C 78 % 1025,1 hPa 0,0 l/m 4,8 km/h (1 Bft) N-NW 337 0 min 0,000 mm 0,0 UV-I 46 W/m 12,3 C 16,1 C 6,4 km/h (2 Bft) 100,00 %
09.08.2022 08:41 15,9 C 80 % 1025,1 hPa 0,0 l/m 6,4 km/h (2 Bft) N 360 0 min 0,000 mm 0,0 UV-I 46 W/m 12,5 C 15,9 C 6,4 km/h (2 Bft) 100,00 %
09.08.2022 08:40 15,9 C 79 % 1025,1 hPa 0,0 l/m 4,8 km/h (1 Bft) N 360 0 min 0,000 mm 0,0 UV-I 46 W/m 12,3 C 15,9 C 6,4 km/h (2 Bft) 100,00 %
09.08.2022 08:39 15,8 C 79 % 1025,1 hPa 0,0 l/m 3,2 km/h (1 Bft) N 360 0 min 0,000 mm 0,0 UV-I 46 W/m 12,2 C 15,8 C 4,8 km/h (1 Bft) 100,00 %
09.08.2022 08:38 15,8 C 80 % 1025,1 hPa 0,0 l/m 4,8 km/h (1 Bft) N 360 0 min 0,000 mm 0,0 UV-I 46 W/m 12,4 C 15,8 C 4,8 km/h (1 Bft) 100,00 %
09.08.2022 08:37 15,8 C 79 % 1025,1 hPa 0,0 l/m 4,8 km/h (1 Bft) N 360 0 min 0,000 mm 0,0 UV-I 46 W/m 12,2 C 15,8 C 6,4 km/h (2 Bft) 100,00 %
09.08.2022 08:36 15,7 C 79 % 1025,1 hPa 0,0 l/m 4,8 km/h (1 Bft) N 360 0 min 0,000 mm 0,9 UV-I 51 W/m 12,1 C 15,7 C 8,0 km/h (2 Bft) 100,00 %
09.08.2022 08:35 15,7 C 79 % 1025,1 hPa 0,0 l/m 4,8 km/h (1 Bft) N-NO 22 0 min 0,000 mm 0,9 UV-I 113 W/m 12,1 C 15,7 C 4,8 km/h (1 Bft) 100,00 %
09.08.2022 08:34 15,6 C 80 % 1025,2 hPa 0,0 l/m 4,8 km/h (1 Bft) N-NO 22 1 min 0,000 mm 0,9 UV-I 178 W/m 12,2 C 15,6 C 6,4 km/h (2 Bft) 100,00 %
09.08.2022 08:33 15,6 C 79 % 1025,1 hPa 0,0 l/m 4,8 km/h (1 Bft) N 360 1 min 0,000 mm 0,9 UV-I 248 W/m 12,0 C 15,6 C 6,4 km/h (2 Bft) 100,00 %
09.08.2022 08:32 15,5 C 79 % 1025,0 hPa 0,0 l/m 3,2 km/h (1 Bft) N 360 1 min 0,000 mm 0,9 UV-I 301 W/m 11,9 C 15,5 C 4,8 km/h (1 Bft) 100,00 %
09.08.2022 08:31 15,4 C 79 % 1025,0 hPa 0,0 l/m 4,8 km/h (1 Bft) N 360 1 min 0,000 mm 0,9 UV-I 325 W/m 11,8 C 15,4 C 6,4 km/h (2 Bft) 100,00 %
09.08.2022 08:30 15,4 C 78 % 1025,0 hPa 0,0 l/m 4,8 km/h (1 Bft) N-NW 337 1 min 0,000 mm 0,9 UV-I 330 W/m 11,6 C 15,4 C 6,4 km/h (2 Bft) 100,00 %
09.08.2022 08:29 15,4 C 79 % 1025,0 hPa 0,0 l/m 4,8 km/h (1 Bft) N-NW 337 1 min 0,000 mm 0,9 UV-I 329 W/m 11,8 C 15,4 C 6,4 km/h (2 Bft) 100,00 %
09.08.2022 08:28 15,3 C 79 % 1025,1 hPa 0,0 l/m 3,2 km/h (1 Bft) N 360 1 min 0,000 mm 0,9 UV-I 323 W/m 11,7 C 15,3 C 4,8 km/h (1 Bft) 95,65 %
09.08.2022 08:27 15,3 C 80 % 1025,0 hPa 0,0 l/m 4,8 km/h (1 Bft) N-NW 337 1 min 0,000 mm 0,8 UV-I 322 W/m 11,9 C 15,3 C 6,4 km/h (2 Bft) 100,00 %
09.08.2022 08:26 15,3 C 78 % 1025,0 hPa 0,0 l/m 4,8 km/h (1 Bft) N 360 1 min 0,000 mm 0,8 UV-I 320 W/m 11,5 C 15,3 C 6,4 km/h (2 Bft) 95,65 %
09.08.2022 08:25 15,3 C 78 % 1025,0 hPa 0,0 l/m 4,8 km/h (1 Bft) N 360 1 min 0,000 mm 0,8 UV-I 316 W/m 11,5 C 15,3 C 6,4 km/h (2 Bft) 100,00 %
09.08.2022 08:24 15,3 C 79 % 1025,0 hPa 0,0 l/m 6,4 km/h (2 Bft) N 360 1 min 0,000 mm 0,8 UV-I 315 W/m 11,7 C 15,3 C 6,4 km/h (2 Bft) 100,00 %
09.08.2022 08:23 15,3 C 79 % 1025,0 hPa 0,0 l/m 4,8 km/h (1 Bft) N-NW 337 1 min 0,000 mm 0,8 UV-I 313 W/m 11,7 C 15,3 C 6,4 km/h (2 Bft) 100,00 %
09.08.2022 08:22 15,3 C 79 % 1024,9 hPa 0,0 l/m 6,4 km/h (2 Bft) N-NW 337 1 min 0,000 mm 0,8 UV-I 308 W/m 11,7 C 15,3 C 8,0 km/h (2 Bft) 100,00 %
09.08.2022 08:21 15,3 C 79 % 1025,0 hPa 0,0 l/m 6,4 km/h (2 Bft) N 360 1 min 0,000 mm 0,8 UV-I 306 W/m 11,7 C 15,3 C 8,0 km/h (2 Bft) 100,00 %
09.08.2022 08:20 15,3 C 80 % 1024,9 hPa 0,0 l/m 4,8 km/h (1 Bft) N 360 1 min 0,000 mm 0,8 UV-I 304 W/m 11,9 C 15,3 C 8,0 km/h (2 Bft) 100,00 %
09.08.2022 08:19 15,3 C 79 % 1025,0 hPa 0,0 l/m 4,8 km/h (1 Bft) N-NW 337 1 min 0,000 mm 0,8 UV-I 301 W/m 11,7 C 15,3 C 6,4 km/h (2 Bft) 95,65 %
09.08.2022 08:18 15,3 C 79 % 1024,9 hPa 0,0 l/m 3,2 km/h (1 Bft) N-NW 337 1 min 0,000 mm 0,8 UV-I 299 W/m 11,7 C 15,3 C 4,8 km/h (1 Bft) 100,00 %
09.08.2022 08:17 15,3 C 80 % 1024,9 hPa 0,0 l/m 3,2 km/h (1 Bft) N 360 1 min 0,000 mm 0,8 UV-I 297 W/m 11,9 C 15,3 C 4,8 km/h (1 Bft) 100,00 %
09.08.2022 08:16 15,3 C 80 % 1024,9 hPa 0,0 l/m 4,8 km/h (1 Bft) N-NO 22 1 min 0,000 mm 0,8 UV-I 294 W/m 11,9 C 15,3 C 4,8 km/h (1 Bft) 95,65 %
09.08.2022 08:15 15,2 C 79 % 1024,9 hPa 0,0 l/m 4,8 km/h (1 Bft) N-NO 22 1 min 0,000 mm 0,7 UV-I 292 W/m 11,6 C 15,2 C 6,4 km/h (2 Bft) 100,00 %
09.08.2022 08:14 15,2 C 81 % 1024,9 hPa 0,0 l/m 3,2 km/h (1 Bft) N 360 1 min 0,000 mm 0,7 UV-I 288 W/m 12,0 C 15,2 C 4,8 km/h (1 Bft) 100,00 %
09.08.2022 08:13 15,2 C 81 % 1024,8 hPa 0,0 l/m 4,8 km/h (1 Bft) N 360 1 min 0,000 mm 0,7 UV-I 287 W/m 12,0 C 15,2 C 4,8 km/h (1 Bft) 95,65 %
09.08.2022 08:12 15,2 C 81 % 1024,9 hPa 0,0 l/m 3,2 km/h (1 Bft) N 360 1 min 0,000 mm 0,8 UV-I 283 W/m 12,0 C 15,2 C 4,8 km/h (1 Bft) 100,00 %
09.08.2022 08:11 15,1 C 81 % 1024,9 hPa 0,0 l/m 4,8 km/h (1 Bft) N 360 1 min 0,000 mm 0,8 UV-I 279 W/m 11,9 C 15,1 C 4,8 km/h (1 Bft) 100,00 %
09.08.2022 08:10 15,1 C 81 % 1025,0 hPa 0,0 l/m 3,2 km/h (1 Bft) N-NW 337 1 min 0,000 mm 0,8 UV-I 278 W/m 11,9 C 15,1 C 3,2 km/h (1 Bft) 100,00 %
09.08.2022 08:09 15,1 C 81 % 1024,9 hPa 0,0 l/m 3,2 km/h (1 Bft) N 360 1 min 0,000 mm 0,8 UV-I 274 W/m 11,9 C 15,1 C 4,8 km/h (1 Bft) 95,65 %
09.08.2022 08:08 15,1 C 83 % 1024,9 hPa 0,0 l/m 1,6 km/h (1 Bft) N 360 1 min 0,000 mm 0,8 UV-I 272 W/m 12,2 C 15,1 C 3,2 km/h (1 Bft) 95,65 %
09.08.2022 08:07 15,1 C 82 % 1024,9 hPa 0,0 l/m 1,6 km/h (1 Bft) N 360 1 min 0,000 mm 0,8 UV-I 271 W/m 12,0 C 15,1 C 3,2 km/h (1 Bft) 100,00 %
09.08.2022 08:06 15,1 C 82 % 1025,0 hPa 0,0 l/m 1,6 km/h (1 Bft) N-NW 337 1 min 0,000 mm 0,8 UV-I 267 W/m 12,0 C 15,1 C 3,2 km/h (1 Bft) 95,65 %
09.08.2022 08:05 15,1 C 83 % 1024,9 hPa 0,0 l/m 3,2 km/h (1 Bft) N-NW 337 1 min 0,000 mm 0,8 UV-I 265 W/m 12,2 C 15,1 C 4,8 km/h (1 Bft) 100,00 %
09.08.2022 08:04 15,1 C 82 % 1025,0 hPa 0,0 l/m 3,2 km/h (1 Bft) N 360 1 min 0,000 mm 0,8 UV-I 264 W/m 12,0 C 15,1 C 4,8 km/h (1 Bft) 100,00 %
09.08.2022 08:03 15,1 C 81 % 1025,0 hPa 0,0 l/m 4,8 km/h (1 Bft) N 360 1 min 0,000 mm 0,8 UV-I 260 W/m 11,9 C 15,1 C 4,8 km/h (1 Bft) 100,00 %
09.08.2022 08:02 15,2 C 82 % 1025,0 hPa 0,0 l/m 4,8 km/h (1 Bft) N 360 1 min 0,000 mm 0,8 UV-I 258 W/m 12,1 C 15,2 C 6,4 km/h (2 Bft) 95,65 %
09.08.2022 08:01 15,2 C 82 % 1025,0 hPa 0,0 l/m 4,8 km/h (1 Bft) N 360 1 min 0,000 mm 0,8 UV-I 257 W/m 12,1 C 15,2 C 4,8 km/h (1 Bft) 100,00 %
09.08.2022 08:00 15,3 C 82 % 1024,9 hPa 0,0 l/m 4,8 km/h (1 Bft) NO 45 1 min 0,102 mm 0,8 UV-I 253 W/m 12,2 C 15,3 C 6,4 km/h (2 Bft) 95,65 %
09.08.2022 07:59 15,3 C 81 % 1025,0 hPa 0,0 l/m 4,8 km/h (1 Bft) N-NO 22 1 min 0,000 mm 0,7 UV-I 250 W/m 12,1 C 15,3 C 6,4 km/h (2 Bft) 95,65 %
09.08.2022 07:58 15,3 C 81 % 1024,9 hPa 0,0 l/m 4,8 km/h (1 Bft) N 360 1 min 0,000 mm 0,7 UV-I 248 W/m 12,1 C 15,3 C 6,4 km/h (2 Bft) 100,00 %
09.08.2022 07:57 15,4 C 82 % 1024,9 hPa 0,0 l/m 4,8 km/h (1 Bft) N-NO 22 1 min 0,000 mm 0,7 UV-I 244 W/m 12,3 C 15,4 C 6,4 km/h (2 Bft) 100,00 %
09.08.2022 07:56 15,4 C 82 % 1024,9 hPa 0,0 l/m 3,2 km/h (1 Bft) NO 45 1 min 0,000 mm 0,7 UV-I 243 W/m 12,3 C 15,4 C 4,8 km/h (1 Bft) 100,00 %
09.08.2022 07:55 15,4 C 81 % 1024,9 hPa 0,0 l/m 1,6 km/h (1 Bft) N-NO 22 1 min 0,000 mm 0,7 UV-I 241 W/m 12,2 C 15,4 C 3,2 km/h (1 Bft) 100,00 %
09.08.2022 07:54 15,4 C 81 % 1024,9 hPa 0,0 l/m 1,6 km/h (1 Bft) NO 45 1 min 0,000 mm 0,7 UV-I 239 W/m 12,2 C 15,4 C 1,6 km/h (1 Bft) 100,00 %
09.08.2022 07:53 15,4 C 82 % 1024,8 hPa 0,0 l/m 0,0 km/h (0 Bft) O-NO 67 1 min 0,000 mm 0,7 UV-I 234 W/m 12,3 C 15,4 C 1,6 km/h (1 Bft) 100,00 %
09.08.2022 07:52 15,3 C 82 % 1024,8 hPa 0,0 l/m 0,0 km/h (0 Bft) O-NO 67 1 min 0,000 mm 0,7 UV-I 232 W/m 12,2 C 15,3 C 1,6 km/h (1 Bft) 100,00 %
09.08.2022 07:51 15,2 C 83 % 1024,9 hPa 0,0 l/m 0,0 km/h (0 Bft) N 0 1 min 0,000 mm 0,7 UV-I 229 W/m 12,3 C 15,2 C 0,0 km/h (0 Bft) 100,00 %
09.08.2022 07:50 15,1 C 83 % 1024,8 hPa 0,0 l/m 0,0 km/h (0 Bft) N 0 1 min 0,000 mm 0,6 UV-I 227 W/m 12,2 C 15,1 C 0,0 km/h (0 Bft) 100,00 %
09.08.2022 07:49 14,9 C 83 % 1024,9 hPa 0,0 l/m 0,0 km/h (0 Bft) N 0 1 min 0,000 mm 0,6 UV-I 223 W/m 12,0 C 14,9 C 0,0 km/h (0 Bft) 100,00 %
09.08.2022 07:48 14,9 C 84 % 1024,9 hPa 0,0 l/m 0,0 km/h (0 Bft) O-NO 67 1 min 0,000 mm 0,6 UV-I 221 W/m 12,2 C 14,9 C 1,6 km/h (1 Bft) 100,00 %
09.08.2022 07:47 14,9 C 83 % 1024,9 hPa 0,0 l/m 0,0 km/h (0 Bft) N 0 1 min 0,000 mm 0,6 UV-I 216 W/m 12,0 C 14,9 C 0,0 km/h (0 Bft) 100,00 %
09.08.2022 07:46 14,9 C 83 % 1024,8 hPa 0,0 l/m 0,0 km/h (0 Bft) N 0 1 min 0,000 mm 0,6 UV-I 213 W/m 12,0 C 14,9 C 0,0 km/h (0 Bft) 95,65 %
09.08.2022 07:45 14,9 C 83 % 1024,9 hPa 0,0 l/m 0,0 km/h (0 Bft) O-NO 67 1 min 0,000 mm 0,6 UV-I 211 W/m 12,0 C 14,9 C 1,6 km/h (1 Bft) 100,00 %
09.08.2022 07:44 14,9 C 84 % 1024,8 hPa 0,0 l/m 0,0 km/h (0 Bft) O-NO 67 1 min 0,000 mm 0,6 UV-I 209 W/m 12,2 C 14,9 C 1,6 km/h (1 Bft) 100,00 %
09.08.2022 07:43 14,8 C 84 % 1024,8 hPa 0,0 l/m 0,0 km/h (0 Bft) O-NO 67 1 min 0,000 mm 0,6 UV-I 207 W/m 12,1 C 14,8 C 1,6 km/h (1 Bft) 95,65 %
09.08.2022 07:42 14,8 C 84 % 1024,8 hPa 0,0 l/m 0,0 km/h (0 Bft) NO 45 1 min 0,000 mm 0,6 UV-I 204 W/m 12,1 C 14,8 C 1,6 km/h (1 Bft) 100,00 %
09.08.2022 07:41 14,8 C 83 % 1024,9 hPa 0,0 l/m 0,0 km/h (0 Bft) NO 45 1 min 0,000 mm 0,5 UV-I 199 W/m 11,9 C 14,8 C 1,6 km/h (1 Bft) 100,00 %
09.08.2022 07:40 14,8 C 85 % 1024,9 hPa 0,0 l/m 1,6 km/h (1 Bft) NO 45 1 min 0,000 mm 0,5 UV-I 195 W/m 12,3 C 14,8 C 3,2 km/h (1 Bft) 95,65 %
09.08.2022 07:39 14,8 C 86 % 1024,9 hPa 0,0 l/m 1,6 km/h (1 Bft) NO 45 1 min 0,000 mm 0,5 UV-I 193 W/m 12,5 C 14,8 C 1,6 km/h (1 Bft) 100,00 %
09.08.2022 07:38 14,8 C 84 % 1024,8 hPa 0,0 l/m 1,6 km/h (1 Bft) NO 45 1 min 0,000 mm 0,5 UV-I 190 W/m 12,1 C 14,8 C 3,2 km/h (1 Bft) 95,65 %
09.08.2022 07:37 14,9 C 84 % 1024,8 hPa 0,0 l/m 0,0 km/h (0 Bft) NO 45 1 min 0,000 mm 0,5 UV-I 186 W/m 12,2 C 14,9 C 1,6 km/h (1 Bft) 100,00 %
09.08.2022 07:36 14,9 C 84 % 1024,7 hPa 0,0 l/m 0,0 km/h (0 Bft) NO 45 1 min 0,000 mm 0,5 UV-I 185 W/m 12,2 C 14,9 C 1,6 km/h (1 Bft) 100,00 %
09.08.2022 07:35 14,9 C 85 % 1024,6 hPa 0,0 l/m 1,6 km/h (1 Bft) NO 45 1 min 0,000 mm 0,5 UV-I 179 W/m 12,4 C 14,9 C 3,2 km/h (1 Bft) 100,00 %
09.08.2022 07:34 14,9 C 84 % 1024,6 hPa 0,0 l/m 0,0 km/h (0 Bft) NO 45 1 min 0,000 mm 0,5 UV-I 176 W/m 12,2 C 14,9 C 1,6 km/h (1 Bft) 100,00 %
09.08.2022 07:33 14,9 C 84 % 1024,7 hPa 0,0 l/m 0,0 km/h (0 Bft) NO 45 1 min 0,000 mm 0,5 UV-I 174 W/m 12,2 C 14,9 C 1,6 km/h (1 Bft) 100,00 %
09.08.2022 07:32 14,9 C 84 % 1024,8 hPa 0,0 l/m 0,0 km/h (0 Bft) N-NO 22 1 min 0,000 mm 0,5 UV-I 171 W/m 12,2 C 14,9 C 1,6 km/h (1 Bft) 100,00 %
09.08.2022 07:31 14,8 C 85 % 1024,8 hPa 0,0 l/m 0,0 km/h (0 Bft) N-NO 22 1 min 0,000 mm 0,0 UV-I 169 W/m 12,3 C 14,8 C 1,6 km/h (1 Bft) 100,00 %
09.08.2022 07:30 14,8 C 86 % 1024,8 hPa 0,0 l/m 0,0 km/h (0 Bft) N-NO 22 1 min 0,000 mm 0,0 UV-I 163 W/m 12,5 C 14,8 C 1,6 km/h (1 Bft) 100,00 %
09.08.2022 07:29 14,8 C 84 % 1024,9 hPa 0,0 l/m 1,6 km/h (1 Bft) N-NO 22 1 min 0,000 mm 0,0 UV-I 162 W/m 12,1 C 14,8 C 3,2 km/h (1 Bft) 100,00 %
09.08.2022 07:28 14,8 C 84 % 1024,8 hPa 0,0 l/m 1,6 km/h (1 Bft) N-NO 22 1 min 0,000 mm 0,0 UV-I 158 W/m 12,1 C 14,8 C 3,2 km/h (1 Bft) 95,65 %
09.08.2022 07:27 14,7 C 83 % 1024,8 hPa 0,0 l/m 1,6 km/h (1 Bft) N-NO 22 1 min 0,000 mm 0,0 UV-I 155 W/m 11,8 C 14,7 C 3,2 km/h (1 Bft) 100,00 %
09.08.2022 07:26 14,8 C 83 % 1024,8 hPa 0,0 l/m 3,2 km/h (1 Bft) N-NO 22 1 min 0,000 mm 0,0 UV-I 153 W/m 11,9 C 14,8 C 3,2 km/h (1 Bft) 95,65 %
09.08.2022 07:25 14,8 C 83 % 1024,7 hPa 0,0 l/m 3,2 km/h (1 Bft) N-NO 22 0 min 0,000 mm 0,0 UV-I 151 W/m 11,9 C 14,8 C 4,8 km/h (1 Bft) 95,65 %
09.08.2022 07:24 14,7 C 83 % 1024,8 hPa 0,0 l/m 3,2 km/h (1 Bft) N 360 0 min 0,000 mm 0,0 UV-I 146 W/m 11,8 C 14,7 C 4,8 km/h (1 Bft) 100,00 %
09.08.2022 07:23 14,7 C 83 % 1024,8 hPa 0,0 l/m 3,2 km/h (1 Bft) N 360 0 min 0,000 mm 0,0 UV-I 142 W/m 11,8 C 14,7 C 4,8 km/h (1 Bft) 95,65 %
09.08.2022 07:22 14,7 C 83 % 1024,7 hPa 0,0 l/m 3,2 km/h (1 Bft) N 360 0 min 0,000 mm 0,0 UV-I 139 W/m 11,8 C 14,7 C 4,8 km/h (1 Bft) 100,00 %
09.08.2022 07:21 14,7 C 84 % 1024,6 hPa 0,0 l/m 3,2 km/h (1 Bft) N 360 0 min 0,000 mm 0,0 UV-I 137 W/m 12,0 C 14,7 C 4,8 km/h (1 Bft) 95,65 %
09.08.2022 07:20 14,7 C 84 % 1024,8 hPa 0,0 l/m 3,2 km/h (1 Bft) N 360 0 min 0,000 mm 0,0 UV-I 132 W/m 12,0 C 14,7 C 4,8 km/h (1 Bft) 100,00 %
09.08.2022 07:19 14,7 C 84 % 1024,7 hPa 0,0 l/m 3,2 km/h (1 Bft) N 360 0 min 0,000 mm 0,0 UV-I 132 W/m 12,0 C 14,7 C 4,8 km/h (1 Bft) 95,65 %
09.08.2022 07:18 14,7 C 83 % 1024,7 hPa 0,0 l/m 4,8 km/h (1 Bft) N 360 0 min 0,000 mm 0,0 UV-I 127 W/m 11,8 C 14,7 C 4,8 km/h (1 Bft) 100,00 %
09.08.2022 07:17 14,7 C 84 % 1024,7 hPa 0,0 l/m 4,8 km/h (1 Bft) N 360 0 min 0,000 mm 0,0 UV-I 125 W/m 12,0 C 14,7 C 4,8 km/h (1 Bft) 100,00 %
09.08.2022 07:16 14,6 C 84 % 1024,8 hPa 0,0 l/m 3,2 km/h (1 Bft) N 360 0 min 0,000 mm 0,0 UV-I 123 W/m 11,9 C 14,6 C 4,8 km/h (1 Bft) 95,65 %
09.08.2022 07:15 14,6 C 83 % 1024,8 hPa 0,0 l/m 3,2 km/h (1 Bft) N 360 0 min 0,000 mm 0,0 UV-I 120 W/m 11,7 C 14,6 C 4,8 km/h (1 Bft) 100,00 %
09.08.2022 07:14 14,6 C 84 % 1024,8 hPa 0,0 l/m 3,2 km/h (1 Bft) N 360 0 min 0,000 mm 0,0 UV-I 118 W/m 11,9 C 14,6 C 4,8 km/h (1 Bft) 100,00 %
09.08.2022 07:13 14,5 C 83 % 1024,7 hPa 0,0 l/m 4,8 km/h (1 Bft) N 360 0 min 0,000 mm 0,0 UV-I 114 W/m 11,6 C 14,5 C 4,8 km/h (1 Bft) 100,00 %
09.08.2022 07:12 14,5 C 83 % 1024,9 hPa 0,0 l/m 4,8 km/h (1 Bft) N 360 0 min 0,000 mm 0,0 UV-I 111 W/m 11,6 C 14,5 C 4,8 km/h (1 Bft) 100,00 %
09.08.2022 07:11 14,5 C 84 % 1024,8 hPa 0,0 l/m 4,8 km/h (1 Bft) N 360 0 min 0,000 mm 0,0 UV-I 107 W/m 11,8 C 14,5 C 4,8 km/h (1 Bft) 95,65 %
09.08.2022 07:10 14,4 C 85 % 1024,7 hPa 0,0 l/m 4,8 km/h (1 Bft) N-NW 337 0 min 0,000 mm 0,0 UV-I 105 W/m 11,9 C 14,4 C 4,8 km/h (1 Bft) 100,00 %
09.08.2022 07:09 14,4 C 84 % 1024,7 hPa 0,0 l/m 4,8 km/h (1 Bft) N 360 0 min 0,000 mm 0,0 UV-I 104 W/m 11,7 C 14,4 C 4,8 km/h (1 Bft) 91,30 %
09.08.2022 07:08 14,4 C 85 % 1024,7 hPa 0,0 l/m 4,8 km/h (1 Bft) N 360 0 min 0,000 mm 0,0 UV-I 98 W/m 11,9 C 14,4 C 4,8 km/h (1 Bft) 95,65 %
09.08.2022 07:07 14,4 C 84 % 1024,7 hPa 0,0 l/m 6,4 km/h (2 Bft) N 360 0 min 0,000 mm 0,0 UV-I 98 W/m 11,7 C 14,4 C 6,4 km/h (2 Bft) 100,00 %
09.08.2022 07:06 14,3 C 85 % 1024,6 hPa 0,0 l/m 4,8 km/h (1 Bft) N-NW 337 0 min 0,000 mm 0,0 UV-I 95 W/m 11,8 C 14,3 C 6,4 km/h (2 Bft) 95,65 %
09.08.2022 07:05 14,3 C 84 % 1024,5 hPa 0,0 l/m 4,8 km/h (1 Bft) N-NW 337 0 min 0,000 mm 0,0 UV-I 91 W/m 11,6 C 14,3 C 4,8 km/h (1 Bft) 100,00 %
09.08.2022 07:04 14,3 C 85 % 1024,7 hPa 0,0 l/m 3,2 km/h (1 Bft) N-NW 337 0 min 0,000 mm 0,0 UV-I 90 W/m 11,8 C 14,3 C 3,2 km/h (1 Bft) 91,30 %
09.08.2022 07:03 14,2 C 84 % 1024,7 hPa 0,0 l/m 3,2 km/h (1 Bft) N-NW 337 0 min 0,000 mm 0,0 UV-I 88 W/m 11,5 C 14,2 C 4,8 km/h (1 Bft) 100,00 %
09.08.2022 07:02 14,2 C 84 % 1024,7 hPa 0,0 l/m 3,2 km/h (1 Bft) N-NW 337 0 min 0,000 mm 0,0 UV-I 83 W/m 11,5 C 14,2 C 4,8 km/h (1 Bft) 95,65 %
09.08.2022 07:01 14,2 C 84 % 1024,7 hPa 0,0 l/m 4,8 km/h (1 Bft) N-NW 337 0 min 0,000 mm 0,0 UV-I 83 W/m 11,5 C 14,2 C 4,8 km/h (1 Bft) 100,00 %
09.08.2022 07:00 14,2 C 85 % 1024,7 hPa 0,0 l/m 4,8 km/h (1 Bft) N 360 0 min 0,025 mm 0,0 UV-I 79 W/m 11,7 C 14,2 C 4,8 km/h (1 Bft) 100,00 %
09.08.2022 06:59 14,2 C 84 % 1024,7 hPa 0,0 l/m 4,8 km/h (1 Bft) N-NW 337 0 min 0,000 mm 0,0 UV-I 77 W/m 11,5 C 14,2 C 6,4 km/h (2 Bft) 100,00 %
09.08.2022 06:58 14,2 C 84 % 1024,6 hPa 0,0 l/m 4,8 km/h (1 Bft) N-NW 337 0 min 0,000 mm 0,0 UV-I 76 W/m 11,5 C 14,2 C 4,8 km/h (1 Bft) 100,00 %
09.08.2022 06:57 14,2 C 84 % 1024,7 hPa 0,0 l/m 4,8 km/h (1 Bft) N-NW 337 0 min 0,000 mm 0,0 UV-I 74 W/m 11,5 C 14,2 C 4,8 km/h (1 Bft) 100,00 %
09.08.2022 06:56 14,2 C 84 % 1024,5 hPa 0,0 l/m 4,8 km/h (1 Bft) N-NW 337 0 min 0,000 mm 0,0 UV-I 70 W/m 11,5 C 14,2 C 6,4 km/h (2 Bft) 100,00 %
09.08.2022 06:55 14,2 C 84 % 1024,6 hPa 0,0 l/m 4,8 km/h (1 Bft) N-NW 337 0 min 0,000 mm 0,0 UV-I 69 W/m 11,5 C 14,2 C 6,4 km/h (2 Bft) 100,00 %
09.08.2022 06:54 14,2 C 83 % 1024,5 hPa 0,0 l/m 6,4 km/h (2 Bft) N 360 0 min 0,000 mm 0,0 UV-I 65 W/m 11,4 C 14,2 C 6,4 km/h (2 Bft) 100,00 %
09.08.2022 06:53 14,2 C 83 % 1024,6 hPa 0,0 l/m 6,4 km/h (2 Bft) N-NW 337 0 min 0,000 mm 0,0 UV-I 63 W/m 11,4 C 14,2 C 6,4 km/h (2 Bft) 100,00 %
09.08.2022 06:52 14,2 C 82 % 1024,7 hPa 0,0 l/m 4,8 km/h (1 Bft) N-NW 337 0 min 0,000 mm 0,0 UV-I 62 W/m 11,2 C 14,2 C 6,4 km/h (2 Bft) 100,00 %
09.08.2022 06:51 14,2 C 83 % 1024,7 hPa 0,0 l/m 6,4 km/h (2 Bft) N-NW 337 0 min 0,000 mm 0,0 UV-I 60 W/m 11,4 C 14,2 C 6,4 km/h (2 Bft) 100,00 %
09.08.2022 06:50 14,2 C 82 % 1024,6 hPa 0,0 l/m 6,4 km/h (2 Bft) N-NW 337 0 min 0,000 mm 0,0 UV-I 58 W/m 11,2 C 14,2 C 6,4 km/h (2 Bft) 100,00 %
09.08.2022 06:49 14,3 C 82 % 1024,6 hPa 0,0 l/m 6,4 km/h (2 Bft) N 360 0 min 0,000 mm 0,0 UV-I 54 W/m 11,3 C 14,3 C 6,4 km/h (2 Bft) 100,00 %
09.08.2022 06:48 14,3 C 83 % 1024,6 hPa 0,0 l/m 4,8 km/h (1 Bft) N 360 0 min 0,000 mm 0,0 UV-I 53 W/m 11,5 C 14,3 C 6,4 km/h (2 Bft) 100,00 %
09.08.2022 06:47 14,3 C 82 % 1024,5 hPa 0,0 l/m 4,8 km/h (1 Bft) N 360 0 min 0,000 mm 0,0 UV-I 51 W/m 11,3 C 14,3 C 4,8 km/h (1 Bft) 100,00 %
09.08.2022 06:46 14,3 C 82 % 1024,6 hPa 0,0 l/m 4,8 km/h (1 Bft) N 360 0 min 0,000 mm 0,0 UV-I 49 W/m 11,3 C 14,3 C 4,8 km/h (1 Bft) 100,00 %
09.08.2022 06:45 14,3 C 81 % 1024,5 hPa 0,0 l/m 3,2 km/h (1 Bft) N 360 0 min 0,000 mm 0,0 UV-I 47 W/m 11,1 C 14,3 C 3,2 km/h (1 Bft) 95,65 %
09.08.2022 06:44 14,3 C 81 % 1024,4 hPa 0,0 l/m 3,2 km/h (1 Bft) N 360 0 min 0,000 mm 0,0 UV-I 46 W/m 11,1 C 14,3 C 4,8 km/h (1 Bft) 100,00 %
09.08.2022 06:43 14,3 C 81 % 1024,4 hPa 0,0 l/m 3,2 km/h (1 Bft) N 360 0 min 0,000 mm 0,0 UV-I 42 W/m 11,1 C 14,3 C 4,8 km/h (1 Bft) 100,00 %
09.08.2022 06:42 14,3 C 81 % 1024,4 hPa 0,0 l/m 4,8 km/h (1 Bft) N-NO 22 0 min 0,000 mm 0,0 UV-I 40 W/m 11,1 C 14,3 C 4,8 km/h (1 Bft) 100,00 %
09.08.2022 06:41 14,3 C 81 % 1024,4 hPa 0,0 l/m 4,8 km/h (1 Bft) N 360 0 min 0,000 mm 0,0 UV-I 40 W/m 11,1 C 14,3 C 4,8 km/h (1 Bft) 100,00 %
09.08.2022 06:40 14,3 C 81 % 1024,4 hPa 0,0 l/m 4,8 km/h (1 Bft) N 360 0 min 0,000 mm 0,0 UV-I 39 W/m 11,1 C 14,3 C 4,8 km/h (1 Bft) 95,65 %
09.08.2022 06:39 14,3 C 82 % 1024,4 hPa 0,0 l/m 3,2 km/h (1 Bft) N 360 0 min 0,000 mm 0,0 UV-I 37 W/m 11,3 C 14,3 C 4,8 km/h (1 Bft) 100,00 %
09.08.2022 06:38 14,3 C 82 % 1024,4 hPa 0,0 l/m 3,2 km/h (1 Bft) N-NO 22 0 min 0,000 mm 0,0 UV-I 35 W/m 11,3 C 14,3 C 4,8 km/h (1 Bft) 100,00 %
09.08.2022 06:37 14,3 C 81 % 1024,4 hPa 0,0 l/m 3,2 km/h (1 Bft) N-NO 22 0 min 0,000 mm 0,0 UV-I 32 W/m 11,1 C 14,3 C 4,8 km/h (1 Bft) 100,00 %
09.08.2022 06:36 14,3 C 81 % 1024,5 hPa 0,0 l/m 1,6 km/h (1 Bft) N-NO 22 0 min 0,000 mm 0,0 UV-I 32 W/m 11,1 C 14,3 C 3,2 km/h (1 Bft) 100,00 %
09.08.2022 06:35 14,3 C 81 % 1024,5 hPa 0,0 l/m 1,6 km/h (1 Bft) N-NO 22 0 min 0,000 mm 0,0 UV-I 30 W/m 11,1 C 14,3 C 3,2 km/h (1 Bft) 95,65 %
09.08.2022 06:34 14,3 C 81 % 1024,5 hPa 0,0 l/m 1,6 km/h (1 Bft) NO 45 0 min 0,000 mm 0,0 UV-I 28 W/m 11,1 C 14,3 C 3,2 km/h (1 Bft) 100,00 %
09.08.2022 06:33 14,3 C 81 % 1024,4 hPa 0,0 l/m 1,6 km/h (1 Bft) NO 45 0 min 0,000 mm 0,0 UV-I 28 W/m 11,1 C 14,3 C 3,2 km/h (1 Bft) 100,00 %
09.08.2022 06:32 14,3 C 80 % 1024,5 hPa 0,0 l/m 0,0 km/h (0 Bft) NO 45 0 min 0,000 mm 0,0 UV-I 26 W/m 10,9 C 14,3 C 1,6 km/h (1 Bft) 100,00 %
09.08.2022 06:31 14,3 C 80 % 1024,5 hPa 0,0 l/m 3,2 km/h (1 Bft) NO 45 0 min 0,000 mm 0,0 UV-I 25 W/m 10,9 C 14,3 C 3,2 km/h (1 Bft) 100,00 %
09.08.2022 06:30 14,3 C 80 % 1024,5 hPa 0,0 l/m 3,2 km/h (1 Bft) NO 45 0 min 0,000 mm 0,0 UV-I 25 W/m 10,9 C 14,3 C 4,8 km/h (1 Bft) 100,00 %
09.08.2022 06:29 14,3 C 80 % 1024,6 hPa 0,0 l/m 3,2 km/h (1 Bft) NO 45 0 min 0,000 mm 0,0 UV-I 23 W/m 10,9 C 14,3 C 4,8 km/h (1 Bft) 100,00 %
09.08.2022 06:28 14,3 C 81 % 1024,6 hPa 0,0 l/m 3,2 km/h (1 Bft) NO 45 0 min 0,000 mm 0,0 UV-I 23 W/m 11,1 C 14,3 C 4,8 km/h (1 Bft) 95,65 %
09.08.2022 06:27 14,3 C 81 % 1024,6 hPa 0,0 l/m 3,2 km/h (1 Bft) NO 45 0 min 0,000 mm 0,0 UV-I 23 W/m 11,1 C 14,3 C 4,8 km/h (1 Bft) 100,00 %
09.08.2022 06:26 14,3 C 81 % 1024,6 hPa 0,0 l/m 3,2 km/h (1 Bft) N-NO 22 0 min 0,000 mm 0,0 UV-I 21 W/m 11,1 C 14,3 C 3,2 km/h (1 Bft) 100,00 %
09.08.2022 06:25 14,3 C 81 % 1024,5 hPa 0,0 l/m 1,6 km/h (1 Bft) N-NO 22 0 min 0,000 mm 0,0 UV-I 21 W/m 11,1 C 14,3 C 1,6 km/h (1 Bft) 95,65 %
09.08.2022 06:24 14,3 C 81 % 1024,5 hPa 0,0 l/m 0,0 km/h (0 Bft) N-NO 22 0 min 0,000 mm 0,0 UV-I 21 W/m 11,1 C 14,3 C 3,2 km/h (1 Bft) 100,00 %
09.08.2022 06:23 14,2 C 81 % 1024,5 hPa 0,0 l/m 1,6 km/h (1 Bft) N-NO 22 0 min 0,000 mm 0,0 UV-I 21 W/m 11,0 C 14,2 C 3,2 km/h (1 Bft) 100,00 %
09.08.2022 06:22 14,2 C 81 % 1024,5 hPa 0,0 l/m 1,6 km/h (1 Bft) N-NO 22 0 min 0,000 mm 0,0 UV-I 19 W/m 11,0 C 14,2 C 3,2 km/h (1 Bft) 100,00 %
09.08.2022 06:21 14,2 C 81 % 1024,4 hPa 0,0 l/m 1,6 km/h (1 Bft) N-NO 22 0 min 0,000 mm 0,0 UV-I 19 W/m 11,0 C 14,2 C 3,2 km/h (1 Bft) 100,00 %
09.08.2022 06:20 14,2 C 81 % 1024,5 hPa 0,0 l/m 1,6 km/h (1 Bft) N-NO 22 0 min 0,000 mm 0,0 UV-I 19 W/m 11,0 C 14,2 C 3,2 km/h (1 Bft) 100,00 %
09.08.2022 06:19 14,2 C 81 % 1024,4 hPa 0,0 l/m 1,6 km/h (1 Bft) N-NO 22 0 min 0,000 mm 0,0 UV-I 18 W/m 11,0 C 14,2 C 3,2 km/h (1 Bft) 100,00 %
09.08.2022 06:18 14,2 C 81 % 1024,5 hPa 0,0 l/m 1,6 km/h (1 Bft) N-NO 22 0 min 0,000 mm 0,0 UV-I 18 W/m 11,0 C 14,2 C 3,2 km/h (1 Bft) 100,00 %
09.08.2022 06:17 14,1 C 81 % 1024,4 hPa 0,0 l/m 1,6 km/h (1 Bft) N-NO 22 0 min 0,000 mm 0,0 UV-I 18 W/m 10,9 C 14,1 C 3,2 km/h (1 Bft) 100,00 %
09.08.2022 06:16 14,1 C 81 % 1024,5 hPa 0,0 l/m 1,6 km/h (1 Bft) N-NO 22 0 min 0,000 mm 0,0 UV-I 18 W/m 10,9 C 14,1 C 1,6 km/h (1 Bft) 100,00 %
09.08.2022 06:15 14,1 C 81 % 1024,4 hPa 0,0 l/m 1,6 km/h (1 Bft) NO 45 0 min 0,000 mm 0,0 UV-I 18 W/m 10,9 C 14,1 C 3,2 km/h (1 Bft) 100,00 %
09.08.2022 06:14 14,1 C 81 % 1024,4 hPa 0,0 l/m 1,6 km/h (1 Bft) N-NO 22 0 min 0,000 mm 0,0 UV-I 16 W/m 10,9 C 14,1 C 3,2 km/h (1 Bft) 95,65 %
09.08.2022 06:13 14,1 C 81 % 1024,4 hPa 0,0 l/m 1,6 km/h (1 Bft) NO 45 0 min 0,000 mm 0,0 UV-I 16 W/m 10,9 C 14,1 C 1,6 km/h (1 Bft) 100,00 %
09.08.2022 06:12 14,1 C 81 % 1024,4 hPa 0,0 l/m 1,6 km/h (1 Bft) NO 45 0 min 0,000 mm 0,0 UV-I 16 W/m 10,9 C 14,1 C 4,8 km/h (1 Bft) 100,00 %
09.08.2022 06:11 14,0 C 81 % 1024,4 hPa 0,0 l/m 3,2 km/h (1 Bft) NO 45 0 min 0,000 mm 0,0 UV-I 14 W/m 10,8 C 14,0 C 4,8 km/h (1 Bft) 95,65 %
09.08.2022 06:10 13,9 C 81 % 1024,4 hPa 0,0 l/m 3,2 km/h (1 Bft) N-NO 22 0 min 0,000 mm 0,0 UV-I 14 W/m 10,7 C 13,9 C 4,8 km/h (1 Bft) 100,00 %
09.08.2022 06:09 13,9 C 81 % 1024,3 hPa 0,0 l/m 0,0 km/h (0 Bft) NO 45 0 min 0,000 mm 0,0 UV-I 14 W/m 10,7 C 13,9 C 1,6 km/h (1 Bft) 100,00 %
09.08.2022 06:08 13,9 C 81 % 1024,4 hPa 0,0 l/m 0,0 km/h (0 Bft) NO 45 0 min 0,000 mm 0,0 UV-I 12 W/m 10,7 C 13,9 C 1,6 km/h (1 Bft) 100,00 %
09.08.2022 06:07 13,9 C 81 % 1024,4 hPa 0,0 l/m 1,6 km/h (1 Bft) NO 45 0 min 0,000 mm 0,0 UV-I 12 W/m 10,7 C 13,9 C 3,2 km/h (1 Bft) 100,00 %
09.08.2022 06:06 13,9 C 81 % 1024,5 hPa 0,0 l/m 1,6 km/h (1 Bft) NO 45 0 min 0,000 mm 0,0 UV-I 12 W/m 10,7 C 13,9 C 4,8 km/h (1 Bft) 100,00 %
09.08.2022 06:05 13,9 C 82 % 1024,5 hPa 0,0 l/m 1,6 km/h (1 Bft) N-NO 22 0 min 0,000 mm 0,0 UV-I 11 W/m 10,9 C 13,9 C 1,6 km/h (1 Bft) 100,00 %
09.08.2022 06:04 13,9 C 82 % 1024,5 hPa 0,0 l/m 3,2 km/h (1 Bft) N-NO 22 0 min 0,000 mm 0,0 UV-I 11 W/m 10,9 C 13,9 C 3,2 km/h (1 Bft) 100,00 %
09.08.2022 06:03 13,8 C 82 % 1024,4 hPa 0,0 l/m 1,6 km/h (1 Bft) N-NO 22 0 min 0,000 mm 0,0 UV-I 11 W/m 10,8 C 13,8 C 3,2 km/h (1 Bft) 100,00 %
09.08.2022 06:02 13,9 C 82 % 1024,5 hPa 0,0 l/m 0,0 km/h (0 Bft) N-NO 22 0 min 0,000 mm 0,0 UV-I 11 W/m 10,9 C 13,9 C 1,6 km/h (1 Bft) 95,65 %
09.08.2022 06:01 13,9 C 82 % 1024,4 hPa 0,0 l/m 0,0 km/h (0 Bft) N-NO 22 0 min 0,000 mm 0,0 UV-I 11 W/m 10,9 C 13,9 C 1,6 km/h (1 Bft) 100,00 %
09.08.2022 06:00 13,8 C 82 % 1024,4 hPa 0,0 l/m 1,6 km/h (1 Bft) N-NO 22 0 min 0,000 mm 0,0 UV-I 9 W/m 10,8 C 13,8 C 1,6 km/h (1 Bft) 100,00 %
09.08.2022 05:59 13,8 C 82 % 1024,5 hPa 0,0 l/m 1,6 km/h (1 Bft) N-NO 22 0 min 0,000 mm 0,0 UV-I 9 W/m 10,8 C 13,8 C 4,8 km/h (1 Bft) 100,00 %
09.08.2022 05:58 13,8 C 82 % 1024,4 hPa 0,0 l/m 3,2 km/h (1 Bft) N-NO 22 0 min 0,000 mm 0,0 UV-I 9 W/m 10,8 C 13,8 C 4,8 km/h (1 Bft) 100,00 %
09.08.2022 05:57 13,8 C 82 % 1024,4 hPa 0,0 l/m 1,6 km/h (1 Bft) N-NO 22 0 min 0,000 mm 0,0 UV-I 9 W/m 10,8 C 13,8 C 3,2 km/h (1 Bft) 100,00 %
09.08.2022 05:56 13,8 C 82 % 1024,4 hPa 0,0 l/m 3,2 km/h (1 Bft) N-NO 22 0 min 0,000 mm 0,0 UV-I 7 W/m 10,8 C 13,8 C 4,8 km/h (1 Bft) 100,00 %
09.08.2022 05:55 13,8 C 82 % 1024,4 hPa 0,0 l/m 1,6 km/h (1 Bft) N-NO 22 0 min 0,000 mm 0,0 UV-I 7 W/m 10,8 C 13,8 C 3,2 km/h (1 Bft) 100,00 %
09.08.2022 05:54 13,8 C 82 % 1024,3 hPa 0,0 l/m 3,2 km/h (1 Bft) N-NO 22 0 min 0,000 mm 0,0 UV-I 7 W/m 10,8 C 13,8 C 4,8 km/h (1 Bft) 100,00 %
09.08.2022 05:53 13,8 C 82 % 1024,3 hPa 0,0 l/m 4,8 km/h (1 Bft) N-NO 22 0 min 0,000 mm 0,0 UV-I 5 W/m 10,8 C 13,8 C 4,8 km/h (1 Bft) 100,00 %
09.08.2022 05:52 13,8 C 82 % 1024,4 hPa 0,0 l/m 3,2 km/h (1 Bft) N 360 0 min 0,000 mm 0,0 UV-I 5 W/m 10,8 C 13,8 C 4,8 km/h (1 Bft) 100,00 %
09.08.2022 05:51 13,8 C 82 % 1024,3 hPa 0,0 l/m 3,2 km/h (1 Bft) N-NO 22 0 min 0,000 mm 0,0 UV-I 5 W/m 10,8 C 13,8 C 4,8 km/h (1 Bft) 100,00 %
09.08.2022 05:50 13,8 C 82 % 1024,3 hPa 0,0 l/m 3,2 km/h (1 Bft) NO 45 0 min 0,000 mm 0,0 UV-I 5 W/m 10,8 C 13,8 C 6,4 km/h (2 Bft) 95,65 %
09.08.2022 05:49 13,8 C 82 % 1024,4 hPa 0,0 l/m 3,2 km/h (1 Bft) N 360 0 min 0,000 mm 0,0 UV-I 5 W/m 10,8 C 13,8 C 4,8 km/h (1 Bft) 100,00 %
09.08.2022 05:48 13,8 C 82 % 1024,3 hPa 0,0 l/m 3,2 km/h (1 Bft) N-NO 22 0 min 0,000 mm 0,0 UV-I 5 W/m 10,8 C 13,8 C 4,8 km/h (1 Bft) 100,00 %
09.08.2022 05:47 13,8 C 82 % 1024,5 hPa 0,0 l/m 3,2 km/h (1 Bft) N 360 0 min 0,000 mm 0,0 UV-I 0 W/m 10,8 C 13,8 C 3,2 km/h (1 Bft) 100,00 %
09.08.2022 05:46 13,8 C 82 % 1024,4 hPa 0,0 l/m 3,2 km/h (1 Bft) N 360 0 min 0,000 mm 0,0 UV-I 0 W/m 10,8 C 13,8 C 4,8 km/h (1 Bft) 100,00 %
09.08.2022 05:45 13,8 C 82 % 1024,4 hPa 0,0 l/m 3,2 km/h (1 Bft) N 360 0 min 0,000 mm 0,0 UV-I 0 W/m 10,8 C 13,8 C 4,8 km/h (1 Bft) 95,65 %
09.08.2022 05:44 13,8 C 82 % 1024,4 hPa 0,0 l/m 4,8 km/h (1 Bft) N 360 0 min 0,000 mm 0,0 UV-I 0 W/m 10,8 C 13,8 C 6,4 km/h (2 Bft) 95,65 %
09.08.2022 05:43 13,8 C 82 % 1024,4 hPa 0,0 l/m 3,2 km/h (1 Bft) N 360 0 min 0,000 mm 0,0 UV-I 0 W/m 10,8 C 13,8 C 4,8 km/h (1 Bft) 100,00 %
09.08.2022 05:42 13,8 C 82 % 1024,3 hPa 0,0 l/m 4,8 km/h (1 Bft) N 360 0 min 0,000 mm 0,0 UV-I 0 W/m 10,8 C 13,8 C 6,4 km/h (2 Bft) 100,00 %
09.08.2022 05:41 13,8 C 82 % 1024,3 hPa 0,0 l/m 3,2 km/h (1 Bft) N-NW 337 0 min 0,000 mm 0,0 UV-I 0 W/m 10,8 C 13,8 C 4,8 km/h (1 Bft) 100,00 %
09.08.2022 05:40 13,8 C 82 % 1024,2 hPa 0,0 l/m 4,8 km/h (1 Bft) N 360 0 min 0,000 mm 0,0 UV-I 0 W/m 10,8 C 13,8 C 6,4 km/h (2 Bft) 95,65 %
09.08.2022 05:39 13,8 C 82 % 1024,4 hPa 0,0 l/m 4,8 km/h (1 Bft) N 360 0 min 0,000 mm 0,0 UV-I 0 W/m 10,8 C 13,8 C 6,4 km/h (2 Bft) 100,00 %
09.08.2022 05:38 13,9 C 83 % 1024,3 hPa 0,0 l/m 3,2 km/h (1 Bft) N 360 0 min 0,000 mm 0,0 UV-I 0 W/m 11,1 C 13,9 C 4,8 km/h (1 Bft) 100,00 %
09.08.2022 05:37 13,8 C 83 % 1024,3 hPa 0,0 l/m 3,2 km/h (1 Bft) N 360 0 min 0,000 mm 0,0 UV-I 0 W/m 11,0 C 13,8 C 4,8 km/h (1 Bft) 95,65 %
09.08.2022 05:36 13,8 C 83 % 1024,3 hPa 0,0 l/m 4,8 km/h (1 Bft) N 360 0 min 0,000 mm 0,0 UV-I 0 W/m 11,0 C 13,8 C 6,4 km/h (2 Bft) 100,00 %
09.08.2022 05:35 13,9 C 83 % 1024,2 hPa 0,0 l/m 4,8 km/h (1 Bft) N 360 0 min 0,000 mm 0,0 UV-I 0 W/m 11,1 C 13,9 C 4,8 km/h (1 Bft) 100,00 %
09.08.2022 05:34 13,8 C 83 % 1024,2 hPa 0,0 l/m 4,8 km/h (1 Bft) N 360 0 min 0,000 mm 0,0 UV-I 0 W/m 11,0 C 13,8 C 6,4 km/h (2 Bft) 100,00 %
09.08.2022 05:33 13,9 C 82 % 1024,3 hPa 0,0 l/m 4,8 km/h (1 Bft) N 360 0 min 0,000 mm 0,0 UV-I 0 W/m 10,9 C 13,9 C 6,4 km/h (2 Bft) 95,65 %
09.08.2022 05:32 13,8 C 82 % 1024,3 hPa 0,0 l/m 4,8 km/h (1 Bft) N 360 0 min 0,000 mm 0,0 UV-I 0 W/m 10,8 C 13,8 C 6,4 km/h (2 Bft) 95,65 %
09.08.2022 05:31 13,9 C 82 % 1024,3 hPa 0,0 l/m 3,2 km/h (1 Bft) N 360 0 min 0,000 mm 0,0 UV-I 0 W/m 10,9 C 13,9 C 4,8 km/h (1 Bft) 100,00 %
09.08.2022 05:30 13,8 C 83 % 1024,2 hPa 0,0 l/m 4,8 km/h (1 Bft) N 360 0 min 0,000 mm 0,0 UV-I 0 W/m 11,0 C 13,8 C 4,8 km/h (1 Bft) 95,65 %
09.08.2022 05:29 13,8 C 83 % 1024,3 hPa 0,0 l/m 4,8 km/h (1 Bft) N 360 0 min 0,000 mm 0,0 UV-I 0 W/m 11,0 C 13,8 C 4,8 km/h (1 Bft) 100,00 %
09.08.2022 05:28 13,8 C 83 % 1024,3 hPa 0,0 l/m 4,8 km/h (1 Bft) N 360 0 min 0,000 mm 0,0 UV-I 0 W/m 11,0 C 13,8 C 4,8 km/h (1 Bft) 100,00 %
09.08.2022 05:27 13,9 C 83 % 1024,3 hPa 0,0 l/m 4,8 km/h (1 Bft) N 360 0 min 0,000 mm 0,0 UV-I 0 W/m 11,1 C 13,9 C 6,4 km/h (2 Bft) 100,00 %
09.08.2022 05:26 13,8 C 83 % 1024,2 hPa 0,0 l/m 4,8 km/h (1 Bft) N 360 0 min 0,000 mm 0,0 UV-I 0 W/m 11,0 C 13,8 C 4,8 km/h (1 Bft) 100,00 %
09.08.2022 05:25 13,8 C 83 % 1024,2 hPa 0,0 l/m 3,2 km/h (1 Bft) N 360 0 min 0,000 mm 0,0 UV-I 0 W/m 11,0 C 13,8 C 4,8 km/h (1 Bft) 100,00 %
09.08.2022 05:24 13,9 C 84 % 1024,2 hPa 0,0 l/m 4,8 km/h (1 Bft) N 360 0 min 0,000 mm 0,0 UV-I 0 W/m 11,2 C 13,9 C 4,8 km/h (1 Bft) 100,00 %
09.08.2022 05:23 13,9 C 84 % 1024,2 hPa 0,0 l/m 3,2 km/h (1 Bft) N 360 0 min 0,000 mm 0,0 UV-I 0 W/m 11,2 C 13,9 C 6,4 km/h (2 Bft) 100,00 %
09.08.2022 05:22 13,9 C 85 % 1024,3 hPa 0,0 l/m 4,8 km/h (1 Bft) N 360 0 min 0,000 mm 0,0 UV-I 0 W/m 11,4 C 13,9 C 6,4 km/h (2 Bft) 100,00 %
09.08.2022 05:21 13,9 C 84 % 1024,2 hPa 0,0 l/m 3,2 km/h (1 Bft) N-NO 22 0 min 0,000 mm 0,0 UV-I 0 W/m 11,2 C 13,9 C 4,8 km/h (1 Bft) 100,00 %
09.08.2022 05:20 13,8 C 84 % 1024,3 hPa 0,0 l/m 3,2 km/h (1 Bft) N 360 0 min 0,000 mm 0,0 UV-I 0 W/m 11,1 C 13,8 C 4,8 km/h (1 Bft) 100,00 %
09.08.2022 05:19 13,9 C 84 % 1024,2 hPa 0,0 l/m 4,8 km/h (1 Bft) N 360 0 min 0,000 mm 0,0 UV-I 0 W/m 11,2 C 13,9 C 6,4 km/h (2 Bft) 100,00 %
09.08.2022 05:18 13,9 C 84 % 1024,3 hPa 0,0 l/m 4,8 km/h (1 Bft) N 360 0 min 0,000 mm 0,0 UV-I 0 W/m 11,2 C 13,9 C 6,4 km/h (2 Bft) 100,00 %
09.08.2022 05:17 13,9 C 84 % 1024,4 hPa 0,0 l/m 4,8 km/h (1 Bft) N 360 0 min 0,000 mm 0,0 UV-I 0 W/m 11,2 C 13,9 C 6,4 km/h (2 Bft) 100,00 %
09.08.2022 05:16 13,9 C 84 % 1024,3 hPa 0,0 l/m 3,2 km/h (1 Bft) N 360 0 min 0,000 mm 0,0 UV-I 0 W/m 11,2 C 13,9 C 4,8 km/h (1 Bft) 100,00 %
09.08.2022 05:15 13,9 C 83 % 1024,2 hPa 0,0 l/m 3,2 km/h (1 Bft) N 360 0 min 0,000 mm 0,0 UV-I 0 W/m 11,1 C 13,9 C 4,8 km/h (1 Bft) 100,00 %
09.08.2022 05:14 13,9 C 83 % 1024,3 hPa 0,0 l/m 4,8 km/h (1 Bft) N 360 0 min 0,000 mm 0,0 UV-I 0 W/m 11,1 C 13,9 C 6,4 km/h (2 Bft) 100,00 %
09.08.2022 05:13 13,9 C 82 % 1024,3 hPa 0,0 l/m 4,8 km/h (1 Bft) N 360 0 min 0,000 mm 0,0 UV-I 0 W/m 10,9 C 13,9 C 6,4 km/h (2 Bft) 100,00 %
09.08.2022 05:12 13,8 C 82 % 1024,3 hPa 0,0 l/m 4,8 km/h (1 Bft) N-NW 337 0 min 0,000 mm 0,0 UV-I 0 W/m 10,8 C 13,8 C 6,4 km/h (2 Bft) 100,00 %
09.08.2022 05:11 13,9 C 82 % 1024,2 hPa 0,0 l/m 4,8 km/h (1 Bft) N 360 0 min 0,000 mm 0,0 UV-I 0 W/m 10,9 C 13,9 C 6,4 km/h (2 Bft) 100,00 %
09.08.2022 05:10 13,8 C 82 % 1024,4 hPa 0,0 l/m 4,8 km/h (1 Bft) N 360 0 min 0,000 mm 0,0 UV-I 0 W/m 10,8 C 13,8 C 6,4 km/h (2 Bft) 100,00 %
09.08.2022 05:09 13,8 C 82 % 1024,3 hPa 0,0 l/m 6,4 km/h (2 Bft) N 360 0 min 0,000 mm 0,0 UV-I 0 W/m 10,8 C 13,8 C 6,4 km/h (2 Bft) 100,00 %
09.08.2022 05:08 13,8 C 82 % 1024,4 hPa 0,0 l/m 4,8 km/h (1 Bft) N 360 0 min 0,000 mm 0,0 UV-I 0 W/m 10,8 C 13,8 C 6,4 km/h (2 Bft) 95,65 %
09.08.2022 05:07 13,8 C 83 % 1024,2 hPa 0,0 l/m 4,8 km/h (1 Bft) N 360 0 min 0,000 mm 0,0 UV-I 0 W/m 11,0 C 13,8 C 6,4 km/h (2 Bft) 100,00 %
09.08.2022 05:06 13,8 C 83 % 1024,3 hPa 0,0 l/m 4,8 km/h (1 Bft) N 360 0 min 0,000 mm 0,0 UV-I 0 W/m 11,0 C 13,8 C 6,4 km/h (2 Bft) 100,00 %
09.08.2022 05:05 13,8 C 83 % 1024,4 hPa 0,0 l/m 4,8 km/h (1 Bft) N 360 0 min 0,000 mm 0,0 UV-I 0 W/m 11,0 C 13,8 C 6,4 km/h (2 Bft) 100,00 %
09.08.2022 05:04 13,8 C 83 % 1024,2 hPa 0,0 l/m 4,8 km/h (1 Bft) N 360 0 min 0,000 mm 0,0 UV-I 0 W/m 11,0 C 13,8 C 6,4 km/h (2 Bft) 100,00 %
09.08.2022 05:03 13,8 C 83 % 1024,4 hPa 0,0 l/m 4,8 km/h (1 Bft) N-NW 337 0 min 0,000 mm 0,0 UV-I 0 W/m 11,0 C 13,8 C 6,4 km/h (2 Bft) 95,65 %
09.08.2022 05:02 13,8 C 83 % 1024,3 hPa 0,0 l/m 3,2 km/h (1 Bft) N 360 0 min 0,000 mm 0,0 UV-I 0 W/m 11,0 C 13,8 C 4,8 km/h (1 Bft) 100,00 %
09.08.2022 05:01 13,8 C 83 % 1024,2 hPa 0,0 l/m 4,8 km/h (1 Bft) N 360 0 min 0,000 mm 0,0 UV-I 0 W/m 11,0 C 13,8 C 6,4 km/h (2 Bft) 100,00 %
09.08.2022 05:00 13,8 C 83 % 1024,2 hPa 0,0 l/m 4,8 km/h (1 Bft) N 360 0 min 0,000 mm 0,0 UV-I 0 W/m 11,0 C 13,8 C 8,0 km/h (2 Bft) 100,00 %
09.08.2022 04:59 13,8 C 83 % 1024,3 hPa 0,0 l/m 4,8 km/h (1 Bft) N 360 0 min 0,000 mm 0,0 UV-I 0 W/m 11,0 C 13,8 C 4,8 km/h (1 Bft) 100,00 %
09.08.2022 04:58 13,8 C 83 % 1024,3 hPa 0,0 l/m 4,8 km/h (1 Bft) N 360 0 min 0,000 mm 0,0 UV-I 0 W/m 11,0 C 13,8 C 6,4 km/h (2 Bft) 100,00 %
09.08.2022 04:57 13,8 C 83 % 1024,3 hPa 0,0 l/m 6,4 km/h (2 Bft) N 360 0 min 0,000 mm 0,0 UV-I 0 W/m 11,0 C 13,8 C 6,4 km/h (2 Bft) 95,65 %
09.08.2022 04:56 13,8 C 83 % 1024,3 hPa 0,0 l/m 4,8 km/h (1 Bft) N 360 0 min 0,000 mm 0,0 UV-I 0 W/m 11,0 C 13,8 C 6,4 km/h (2 Bft) 100,00 %
09.08.2022 04:55 13,8 C 84 % 1024,2 hPa 0,0 l/m 4,8 km/h (1 Bft) N 360 0 min 0,000 mm 0,0 UV-I 0 W/m 11,1 C 13,8 C 6,4 km/h (2 Bft) 100,00 %
09.08.2022 04:54 13,8 C 83 % 1024,4 hPa 0,0 l/m 4,8 km/h (1 Bft) N 360 0 min 0,000 mm 0,0 UV-I 0 W/m 11,0 C 13,8 C 4,8 km/h (1 Bft) 95,65 %
09.08.2022 04:53 13,8 C 83 % 1024,4 hPa 0,0 l/m 4,8 km/h (1 Bft) N-NW 337 0 min 0,000 mm 0,0 UV-I 0 W/m 11,0 C 13,8 C 6,4 km/h (2 Bft) 100,00 %
09.08.2022 04:52 13,8 C 83 % 1024,3 hPa 0,0 l/m 4,8 km/h (1 Bft) N-NW 337 0 min 0,000 mm 0,0 UV-I 0 W/m 11,0 C 13,8 C 6,4 km/h (2 Bft) 100,00 %
09.08.2022 04:51 13,8 C 84 % 1024,4 hPa 0,0 l/m 6,4 km/h (2 Bft) N 360 0 min 0,000 mm 0,0 UV-I 0 W/m 11,1 C 13,8 C 8,0 km/h (2 Bft) 100,00 %
09.08.2022 04:50 13,8 C 84 % 1024,3 hPa 0,0 l/m 4,8 km/h (1 Bft) N-NW 337 0 min 0,000 mm 0,0 UV-I 0 W/m 11,1 C 13,8 C 6,4 km/h (2 Bft) 100,00 %
09.08.2022 04:49 13,8 C 84 % 1024,3 hPa 0,0 l/m 4,8 km/h (1 Bft) N-NW 337 0 min 0,000 mm 0,0 UV-I 0 W/m 11,1 C 13,8 C 4,8 km/h (1 Bft) 100,00 %
09.08.2022 04:48 13,8 C 83 % 1024,4 hPa 0,0 l/m 6,4 km/h (2 Bft) N-NW 337 0 min 0,000 mm 0,0 UV-I 0 W/m 11,0 C 13,8 C 6,4 km/h (2 Bft) 100,00 %
09.08.2022 04:47 13,8 C 84 % 1024,2 hPa 0,0 l/m 4,8 km/h (1 Bft) N 360 0 min 0,000 mm 0,0 UV-I 0 W/m 11,1 C 13,8 C 6,4 km/h (2 Bft) 100,00 %
09.08.2022 04:46 13,8 C 84 % 1024,3 hPa 0,0 l/m 4,8 km/h (1 Bft) N-NW 337 0 min 0,000 mm 0,0 UV-I 0 W/m 11,1 C 13,8 C 6,4 km/h (2 Bft) 100,00 %
09.08.2022 04:45 13,8 C 84 % 1024,3 hPa 0,0 l/m 4,8 km/h (1 Bft) N 360 0 min 0,000 mm 0,0 UV-I 0 W/m 11,1 C 13,8 C 8,0 km/h (2 Bft) 100,00 %
09.08.2022 04:44 13,8 C 84 % 1024,4 hPa 0,0 l/m 4,8 km/h (1 Bft) N 360 0 min 0,000 mm 0,0 UV-I 0 W/m 11,1 C 13,8 C 6,4 km/h (2 Bft) 95,65 %
09.08.2022 04:43 13,9 C 83 % 1024,4 hPa 0,0 l/m 4,8 km/h (1 Bft) N 360 0 min 0,000 mm 0,0 UV-I 0 W/m 11,1 C 13,9 C 6,4 km/h (2 Bft) 100,00 %
09.08.2022 04:42 13,9 C 83 % 1024,3 hPa 0,0 l/m 6,4 km/h (2 Bft) N 360 0 min 0,000 mm 0,0 UV-I 0 W/m 11,1 C 13,9 C 8,0 km/h (2 Bft) 100,00 %
09.08.2022 04:41 13,9 C 84 % 1024,3 hPa 0,0 l/m 8,0 km/h (2 Bft) N-NW 337 0 min 0,000 mm 0,0 UV-I 0 W/m 11,2 C 13,9 C 8,0 km/h (2 Bft) 100,00 %
09.08.2022 04:40 13,9 C 84 % 1024,4 hPa 0,0 l/m 6,4 km/h (2 Bft) N-NW 337 0 min 0,000 mm 0,0 UV-I 0 W/m 11,2 C 13,9 C 8,0 km/h (2 Bft) 95,65 %
09.08.2022 04:39 13,9 C 84 % 1024,4 hPa 0,0 l/m 6,4 km/h (2 Bft) N-NW 337 0 min 0,000 mm 0,0 UV-I 0 W/m 11,2 C 13,9 C 6,4 km/h (2 Bft) 100,00 %
09.08.2022 04:38 13,9 C 84 % 1024,3 hPa 0,0 l/m 6,4 km/h (2 Bft) N-NW 337 0 min 0,000 mm 0,0 UV-I 0 W/m 11,2 C 13,9 C 8,0 km/h (2 Bft) 100,00 %
09.08.2022 04:37 13,9 C 84 % 1024,4 hPa 0,0 l/m 6,4 km/h (2 Bft) N-NW 337 0 min 0,000 mm 0,0 UV-I 0 W/m 11,2 C 13,9 C 6,4 km/h (2 Bft) 100,00 %
09.08.2022 04:36 13,9 C 84 % 1024,3 hPa 0,0 l/m 6,4 km/h (2 Bft) N-NW 337 0 min 0,000 mm 0,0 UV-I 0 W/m 11,2 C 13,9 C 8,0 km/h (2 Bft) 100,00 %
09.08.2022 04:35 13,9 C 84 % 1024,3 hPa 0,0 l/m 4,8 km/h (1 Bft) N-NW 337 0 min 0,000 mm 0,0 UV-I 0 W/m 11,2 C 13,9 C 6,4 km/h (2 Bft) 100,00 %
09.08.2022 04:34 13,9 C 84 % 1024,3 hPa 0,0 l/m 4,8 km/h (1 Bft) N-NW 337 0 min 0,000 mm 0,0 UV-I 0 W/m 11,2 C 13,9 C 6,4 km/h (2 Bft) 100,00 %
09.08.2022 04:33 13,9 C 84 % 1024,3 hPa 0,0 l/m 4,8 km/h (1 Bft) N-NW 337 0 min 0,000 mm 0,0 UV-I 0 W/m 11,2 C 13,9 C 6,4 km/h (2 Bft) 100,00 %
09.08.2022 04:32 14,0 C 83 % 1024,3 hPa 0,0 l/m 4,8 km/h (1 Bft) N-NW 337 0 min 0,000 mm 0,0 UV-I 0 W/m 11,2 C 14,0 C 6,4 km/h (2 Bft) 100,00 %
09.08.2022 04:31 14,0 C 83 % 1024,2 hPa 0,0 l/m 6,4 km/h (2 Bft) N-NW 337 0 min 0,000 mm 0,0 UV-I 0 W/m 11,2 C 14,0 C 8,0 km/h (2 Bft) 100,00 %
09.08.2022 04:30 13,9 C 83 % 1024,3 hPa 0,0 l/m 6,4 km/h (2 Bft) N-NW 337 0 min 0,000 mm 0,0 UV-I 0 W/m 11,1 C 13,9 C 8,0 km/h (2 Bft) 100,00 %
09.08.2022 04:29 13,9 C 82 % 1024,4 hPa 0,0 l/m 6,4 km/h (2 Bft) N-NW 337 0 min 0,000 mm 0,0 UV-I 0 W/m 10,9 C 13,9 C 8,0 km/h (2 Bft) 100,00 %
09.08.2022 04:28 13,9 C 83 % 1024,3 hPa 0,0 l/m 6,4 km/h (2 Bft) N-NW 337 0 min 0,000 mm 0,0 UV-I 0 W/m 11,1 C 13,9 C 8,0 km/h (2 Bft) 100,00 %
09.08.2022 04:27 13,9 C 83 % 1024,3 hPa 0,0 l/m 6,4 km/h (2 Bft) N-NW 337 0 min 0,000 mm 0,0 UV-I 0 W/m 11,1 C 13,9 C 8,0 km/h (2 Bft) 100,00 %
09.08.2022 04:26 13,9 C 83 % 1024,3 hPa 0,0 l/m 6,4 km/h (2 Bft) N-NW 337 0 min 0,000 mm 0,0 UV-I 0 W/m 11,1 C 13,9 C 8,0 km/h (2 Bft) 100,00 %
09.08.2022 04:25 13,9 C 83 % 1024,3 hPa 0,0 l/m 6,4 km/h (2 Bft) N-NW 337 0 min 0,000 mm 0,0 UV-I 0 W/m 11,1 C 13,9 C 8,0 km/h (2 Bft) 100,00 %
09.08.2022 04:24 13,9 C 83 % 1024,3 hPa 0,0 l/m 4,8 km/h (1 Bft) N-NW 337 0 min 0,000 mm 0,0 UV-I 0 W/m 11,1 C 13,9 C 6,4 km/h (2 Bft) 100,00 %
09.08.2022 04:23 13,9 C 83 % 1024,3 hPa 0,0 l/m 6,4 km/h (2 Bft) N-NW 337 0 min 0,000 mm 0,0 UV-I 0 W/m 11,1 C 13,9 C 6,4 km/h (2 Bft) 100,00 %
09.08.2022 04:22 14,0 C 83 % 1024,4 hPa 0,0 l/m 4,8 km/h (1 Bft) N-NW 337 0 min 0,000 mm 0,0 UV-I 0 W/m 11,2 C 14,0 C 6,4 km/h (2 Bft) 95,65 %
09.08.2022 04:21 14,0 C 83 % 1024,3 hPa 0,0 l/m 6,4 km/h (2 Bft) N-NW 337 0 min 0,000 mm 0,0 UV-I 0 W/m 11,2 C 14,0 C 6,4 km/h (2 Bft) 100,00 %
09.08.2022 04:20 13,9 C 82 % 1024,4 hPa 0,0 l/m 6,4 km/h (2 Bft) N-NW 337 0 min 0,000 mm 0,0 UV-I 0 W/m 10,9 C 13,9 C 6,4 km/h (2 Bft) 100,00 %
09.08.2022 04:19 14,0 C 83 % 1024,3 hPa 0,0 l/m 6,4 km/h (2 Bft) N-NW 337 0 min 0,000 mm 0,0 UV-I 0 W/m 11,2 C 14,0 C 8,0 km/h (2 Bft) 100,00 %
09.08.2022 04:18 14,0 C 83 % 1024,3 hPa 0,0 l/m 6,4 km/h (2 Bft) N-NW 337 0 min 0,000 mm 0,0 UV-I 0 W/m 11,2 C 14,0 C 8,0 km/h (2 Bft) 100,00 %
09.08.2022 04:17 14,0 C 82 % 1024,3 hPa 0,0 l/m 6,4 km/h (2 Bft) N-NW 337 0 min 0,000 mm 0,0 UV-I 0 W/m 11,0 C 14,0 C 8,0 km/h (2 Bft) 100,00 %
09.08.2022 04:16 14,0 C 83 % 1024,3 hPa 0,0 l/m 6,4 km/h (2 Bft) N-NW 337 0 min 0,000 mm 0,0 UV-I 0 W/m 11,2 C 14,0 C 8,0 km/h (2 Bft) 100,00 %
09.08.2022 04:15 14,0 C 82 % 1024,4 hPa 0,0 l/m 6,4 km/h (2 Bft) N-NW 337 0 min 0,000 mm 0,0 UV-I 0 W/m 11,0 C 14,0 C 9,7 km/h (2 Bft) 100,00 %
09.08.2022 04:14 14,1 C 82 % 1024,3 hPa 0,0 l/m 6,4 km/h (2 Bft) N-NW 337 0 min 0,000 mm 0,0 UV-I 0 W/m 11,1 C 14,1 C 9,7 km/h (2 Bft) 100,00 %
09.08.2022 04:13 14,0 C 82 % 1024,3 hPa 0,0 l/m 8,0 km/h (2 Bft) N-NW 337 0 min 0,000 mm 0,0 UV-I 0 W/m 11,0 C 14,0 C 9,7 km/h (2 Bft) 100,00 %
09.08.2022 04:12 14,0 C 82 % 1024,4 hPa 0,0 l/m 8,0 km/h (2 Bft) N-NW 337 0 min 0,000 mm 0,0 UV-I 0 W/m 11,0 C 14,0 C 9,7 km/h (2 Bft) 100,00 %
09.08.2022 04:11 14,1 C 82 % 1024,3 hPa 0,0 l/m 8,0 km/h (2 Bft) N-NW 337 0 min 0,000 mm 0,0 UV-I 0 W/m 11,1 C 14,1 C 9,7 km/h (2 Bft) 100,00 %
09.08.2022 04:10 14,1 C 82 % 1024,3 hPa 0,0 l/m 8,0 km/h (2 Bft) N-NW 337 0 min 0,000 mm 0,0 UV-I 0 W/m 11,1 C 14,1 C 9,7 km/h (2 Bft) 100,00 %
09.08.2022 04:09 14,1 C 82 % 1024,3 hPa 0,0 l/m 8,0 km/h (2 Bft) N-NW 337 0 min 0,000 mm 0,0 UV-I 0 W/m 11,1 C 14,1 C 9,7 km/h (2 Bft) 100,00 %
09.08.2022 04:08 14,1 C 82 % 1024,3 hPa 0,0 l/m 8,0 km/h (2 Bft) N-NW 337 0 min 0,000 mm 0,0 UV-I 0 W/m 11,1 C 14,1 C 9,7 km/h (2 Bft) 95,65 %
09.08.2022 04:07 14,1 C 82 % 1024,3 hPa 0,0 l/m 9,7 km/h (2 Bft) N-NW 337 0 min 0,000 mm 0,0 UV-I 0 W/m 11,1 C 14,1 C 9,7 km/h (2 Bft) 100,00 %
09.08.2022 04:06 14,1 C 82 % 1024,2 hPa 0,0 l/m 8,0 km/h (2 Bft) N-NW 337 0 min 0,000 mm 0,0 UV-I 0 W/m 11,1 C 14,1 C 9,7 km/h (2 Bft) 100,00 %
09.08.2022 04:05 14,2 C 82 % 1024,3 hPa 0,0 l/m 8,0 km/h (2 Bft) N-NW 337 0 min 0,000 mm 0,0 UV-I 0 W/m 11,2 C 14,2 C 9,7 km/h (2 Bft) 100,00 %
09.08.2022 04:04 14,2 C 82 % 1024,3 hPa 0,0 l/m 8,0 km/h (2 Bft) N-NW 337 0 min 0,000 mm 0,0 UV-I 0 W/m 11,2 C 14,2 C 9,7 km/h (2 Bft) 100,00 %
09.08.2022 04:03 14,3 C 82 % 1024,2 hPa 0,0 l/m 8,0 km/h (2 Bft) N-NW 337 0 min 0,000 mm 0,0 UV-I 0 W/m 11,3 C 14,3 C 9,7 km/h (2 Bft) 100,00 %
09.08.2022 04:02 14,3 C 81 % 1024,2 hPa 0,0 l/m 9,7 km/h (2 Bft) N-NW 337 0 min 0,000 mm 0,0 UV-I 0 W/m 11,1 C 14,3 C 12,9 km/h (3 Bft) 100,00 %
09.08.2022 04:01 14,3 C 81 % 1024,2 hPa 0,0 l/m 8,0 km/h (2 Bft) N-NW 337 0 min 0,000 mm 0,0 UV-I 0 W/m 11,1 C 14,3 C 12,9 km/h (3 Bft) 100,00 %
09.08.2022 04:00 14,4 C 81 % 1024,2 hPa 0,0 l/m 9,7 km/h (2 Bft) N-NW 337 0 min 0,000 mm 0,0 UV-I 0 W/m 11,2 C 14,4 C 9,7 km/h (2 Bft) 100,00 %
09.08.2022 03:59 14,4 C 81 % 1024,2 hPa 0,0 l/m 8,0 km/h (2 Bft) N-NW 337 0 min 0,000 mm 0,0 UV-I 0 W/m 11,2 C 14,4 C 9,7 km/h (2 Bft) 95,65 %
09.08.2022 03:58 14,4 C 81 % 1024,1 hPa 0,0 l/m 9,7 km/h (2 Bft) N-NW 337 0 min 0,000 mm 0,0 UV-I 0 W/m 11,2 C 14,4 C 12,9 km/h (3 Bft) 95,65 %
09.08.2022 03:57 14,5 C 81 % 1024,1 hPa 0,0 l/m 8,0 km/h (2 Bft) N-NW 337 0 min 0,000 mm 0,0 UV-I 0 W/m 11,3 C 14,5 C 12,9 km/h (3 Bft) 100,00 %
09.08.2022 03:56 14,5 C 81 % 1024,1 hPa 0,0 l/m 9,7 km/h (2 Bft) N-NW 337 0 min 0,000 mm 0,0 UV-I 0 W/m 11,3 C 14,5 C 12,9 km/h (3 Bft) 100,00 %
09.08.2022 03:55 14,6 C 81 % 1024,1 hPa 0,0 l/m 9,7 km/h (2 Bft) N-NW 337 0 min 0,000 mm 0,0 UV-I 0 W/m 11,4 C 14,6 C 12,9 km/h (3 Bft) 100,00 %
09.08.2022 03:54 14,6 C 81 % 1024,1 hPa 0,0 l/m 9,7 km/h (2 Bft) N-NW 337 0 min 0,000 mm 0,0 UV-I 0 W/m 11,4 C 14,6 C 12,9 km/h (3 Bft) 100,00 %
09.08.2022 03:53 14,6 C 81 % 1024,1 hPa 0,0 l/m 9,7 km/h (2 Bft) N-NW 337 0 min 0,000 mm 0,0 UV-I 0 W/m 11,4 C 14,6 C 12,9 km/h (3 Bft) 100,00 %
09.08.2022 03:52 14,7 C 80 % 1024,2 hPa 0,0 l/m 8,0 km/h (2 Bft) N-NW 337 0 min 0,000 mm 0,0 UV-I 0 W/m 11,3 C 14,7 C 9,7 km/h (2 Bft) 100,00 %
09.08.2022 03:51 14,7 C 80 % 1024,1 hPa 0,0 l/m 9,7 km/h (2 Bft) N-NW 337 0 min 0,000 mm 0,0 UV-I 0 W/m 11,3 C 14,7 C 12,9 km/h (3 Bft) 100,00 %
09.08.2022 03:50 14,7 C 79 % 1024,1 hPa 0,0 l/m 9,7 km/h (2 Bft) N-NW 337 0 min 0,000 mm 0,0 UV-I 0 W/m 11,1 C 14,7 C 14,5 km/h (3 Bft) 100,00 %
09.08.2022 03:49 14,8 C 79 % 1024,2 hPa 0,0 l/m 12,9 km/h (3 Bft) N-NW 337 0 min 0,000 mm 0,0 UV-I 0 W/m 11,2 C 14,8 C 14,5 km/h (3 Bft) 100,00 %
09.08.2022 03:48 14,8 C 79 % 1024,2 hPa 0,0 l/m 11,3 km/h (2 Bft) N-NW 337 0 min 0,000 mm 0,0 UV-I 0 W/m 11,2 C 14,8 C 14,5 km/h (3 Bft) 100,00 %
09.08.2022 03:47 14,8 C 79 % 1024,1 hPa 0,0 l/m 11,3 km/h (2 Bft) N-NW 337 0 min 0,000 mm 0,0 UV-I 0 W/m 11,2 C 14,8 C 14,5 km/h (3 Bft) 100,00 %
09.08.2022 03:46 14,8 C 79 % 1024,2 hPa 0,0 l/m 12,9 km/h (3 Bft) N-NW 337 0 min 0,000 mm 0,0 UV-I 0 W/m 11,2 C 14,8 C 14,5 km/h (3 Bft) 95,65 %
09.08.2022 03:45 14,8 C 79 % 1024,2 hPa 0,0 l/m 11,3 km/h (2 Bft) N-NW 337 0 min 0,000 mm 0,0 UV-I 0 W/m 11,2 C 14,8 C 14,5 km/h (3 Bft) 100,00 %
09.08.2022 03:44 14,9 C 79 % 1024,0 hPa 0,0 l/m 9,7 km/h (2 Bft) N-NW 337 0 min 0,000 mm 0,0 UV-I 0 W/m 11,3 C 14,9 C 14,5 km/h (3 Bft) 100,00 %
09.08.2022 03:43 14,9 C 79 % 1024,2 hPa 0,0 l/m 9,7 km/h (2 Bft) N-NW 337 0 min 0,000 mm 0,0 UV-I 0 W/m 11,3 C 14,9 C 12,9 km/h (3 Bft) 100,00 %
09.08.2022 03:42 14,9 C 79 % 1024,0 hPa 0,0 l/m 11,3 km/h (2 Bft) N-NW 337 0 min 0,000 mm 0,0 UV-I 0 W/m 11,3 C 14,9 C 16,1 km/h (3 Bft) 100,00 %
09.08.2022 03:41 14,9 C 79 % 1024,1 hPa 0,0 l/m 11,3 km/h (2 Bft) N-NW 337 0 min 0,000 mm 0,0 UV-I 0 W/m 11,3 C 14,9 C 17,7 km/h (3 Bft) 100,00 %
09.08.2022 03:40 15,0 C 78 % 1024,2 hPa 0,0 l/m 12,9 km/h (3 Bft) N-NW 337 0 min 0,000 mm 0,0 UV-I 0 W/m 11,2 C 15,0 C 17,7 km/h (3 Bft) 100,00 %
09.08.2022 03:39 15,0 C 78 % 1024,1 hPa 0,0 l/m 11,3 km/h (2 Bft) N-NW 337 0 min 0,000 mm 0,0 UV-I 0 W/m 11,2 C 15,0 C 16,1 km/h (3 Bft) 100,00 %
09.08.2022 03:38 15,1 C 79 % 1024,2 hPa 0,0 l/m 12,9 km/h (3 Bft) N-NW 337 0 min 0,000 mm 0,0 UV-I 0 W/m 11,5 C 15,1 C 16,1 km/h (3 Bft) 100,00 %
09.08.2022 03:37 15,1 C 79 % 1024,2 hPa 0,0 l/m 11,3 km/h (2 Bft) N-NW 337 0 min 0,000 mm 0,0 UV-I 0 W/m 11,5 C 15,1 C 14,5 km/h (3 Bft) 100,00 %
09.08.2022 03:36 15,1 C 79 % 1024,2 hPa 0,0 l/m 12,9 km/h (3 Bft) N-NW 337 0 min 0,000 mm 0,0 UV-I 0 W/m 11,5 C 15,1 C 14,5 km/h (3 Bft) 100,00 %
09.08.2022 03:35 15,1 C 79 % 1024,1 hPa 0,0 l/m 8,0 km/h (2 Bft) N-NW 337 0 min 0,000 mm 0,0 UV-I 0 W/m 11,5 C 15,1 C 12,9 km/h (3 Bft) 100,00 %
09.08.2022 03:34 15,2 C 79 % 1024,2 hPa 0,0 l/m 8,0 km/h (2 Bft) N-NW 337 0 min 0,000 mm 0,0 UV-I 0 W/m 11,6 C 15,2 C 9,7 km/h (2 Bft) 100,00 %
09.08.2022 03:33 15,2 C 79 % 1024,2 hPa 0,0 l/m 9,7 km/h (2 Bft) N-NW 337 0 min 0,000 mm 0,0 UV-I 0 W/m 11,6 C 15,2 C 12,9 km/h (3 Bft) 100,00 %
09.08.2022 03:32 15,2 C 79 % 1024,1 hPa 0,0 l/m 11,3 km/h (2 Bft) NW 315 0 min 0,000 mm 0,0 UV-I 0 W/m 11,6 C 15,2 C 12,9 km/h (3 Bft) 100,00 %
09.08.2022 03:31 15,2 C 78 % 1024,1 hPa 0,0 l/m 11,3 km/h (2 Bft) N-NW 337 0 min 0,000 mm 0,0 UV-I 0 W/m 11,4 C 15,2 C 14,5 km/h (3 Bft) 100,00 %
09.08.2022 03:30 15,3 C 78 % 1024,1 hPa 0,0 l/m 12,9 km/h (3 Bft) N-NW 337 0 min 0,000 mm 0,0 UV-I 0 W/m 11,5 C 15,3 C 14,5 km/h (3 Bft) 100,00 %
09.08.2022 03:29 15,3 C 78 % 1024,0 hPa 0,0 l/m 11,3 km/h (2 Bft) N-NW 337 0 min 0,000 mm 0,0 UV-I 0 W/m 11,5 C 15,3 C 12,9 km/h (3 Bft) 100,00 %
09.08.2022 03:28 15,3 C 78 % 1024,1 hPa 0,0 l/m 9,7 km/h (2 Bft) N-NW 337 0 min 0,000 mm 0,0 UV-I 0 W/m 11,5 C 15,3 C 14,5 km/h (3 Bft) 100,00 %
09.08.2022 03:27 15,3 C 78 % 1024,1 hPa 0,0 l/m 11,3 km/h (2 Bft) NW 315 0 min 0,000 mm 0,0 UV-I 0 W/m 11,5 C 15,3 C 14,5 km/h (3 Bft) 95,65 %
09.08.2022 03:26 15,3 C 78 % 1024,2 hPa 0,0 l/m 9,7 km/h (2 Bft) N-NW 337 0 min 0,000 mm 0,0 UV-I 0 W/m 11,5 C 15,3 C 14,5 km/h (3 Bft) 100,00 %
09.08.2022 03:25 15,3 C 78 % 1024,1 hPa 0,0 l/m 11,3 km/h (2 Bft) N-NW 337 0 min 0,000 mm 0,0 UV-I 0 W/m 11,5 C 15,3 C 14,5 km/h (3 Bft) 100,00 %
09.08.2022 03:24 15,3 C 78 % 1024,1 hPa 0,0 l/m 9,7 km/h (2 Bft) N-NW 337 0 min 0,000 mm 0,0 UV-I 0 W/m 11,5 C 15,3 C 12,9 km/h (3 Bft) 100,00 %
09.08.2022 03:23 15,4 C 78 % 1024,0 hPa 0,0 l/m 9,7 km/h (2 Bft) N-NW 337 0 min 0,000 mm 0,0 UV-I 0 W/m 11,6 C 15,4 C 12,9 km/h (3 Bft) 91,30 %
09.08.2022 03:22 15,3 C 78 % 1024,1 hPa 0,0 l/m 9,7 km/h (2 Bft) N-NW 337 0 min 0,000 mm 0,0 UV-I 0 W/m 11,5 C 15,3 C 12,9 km/h (3 Bft) 100,00 %
09.08.2022 03:21 15,4 C 78 % 1024,1 hPa 0,0 l/m 9,7 km/h (2 Bft) N-NW 337 0 min 0,000 mm 0,0 UV-I 0 W/m 11,6 C 15,4 C 12,9 km/h (3 Bft) 100,00 %
09.08.2022 03:20 15,4 C 78 % 1024,1 hPa 0,0 l/m 9,7 km/h (2 Bft) N-NW 337 0 min 0,000 mm 0,0 UV-I 0 W/m 11,6 C 15,4 C 12,9 km/h (3 Bft) 95,65 %
09.08.2022 03:19 15,4 C 78 % 1024,1 hPa 0,0 l/m 8,0 km/h (2 Bft) N-NW 337 0 min 0,000 mm 0,0 UV-I 0 W/m 11,6 C 15,4 C 12,9 km/h (3 Bft) 100,00 %
09.08.2022 03:18 15,4 C 78 % 1024,1 hPa 0,0 l/m 9,7 km/h (2 Bft) N-NW 337 0 min 0,000 mm 0,0 UV-I 0 W/m 11,6 C 15,4 C 12,9 km/h (3 Bft) 100,00 %
09.08.2022 03:17 15,4 C 78 % 1024,1 hPa 0,0 l/m 8,0 km/h (2 Bft) N-NW 337 0 min 0,000 mm 0,0 UV-I 0 W/m 11,6 C 15,4 C 9,7 km/h (2 Bft) 95,65 %
09.08.2022 03:16 15,4 C 78 % 1024,1 hPa 0,0 l/m 8,0 km/h (2 Bft) N-NW 337 0 min 0,000 mm 0,0 UV-I 0 W/m 11,6 C 15,4 C 9,7 km/h (2 Bft) 100,00 %
09.08.2022 03:15 15,4 C 78 % 1024,1 hPa 0,0 l/m 6,4 km/h (2 Bft) N-NW 337 0 min 0,000 mm 0,0 UV-I 0 W/m 11,6 C 15,4 C 8,0 km/h (2 Bft) 95,65 %
09.08.2022 03:14 15,4 C 78 % 1024,0 hPa 0,0 l/m 6,4 km/h (2 Bft) N-NW 337 0 min 0,000 mm 0,0 UV-I 0 W/m 11,6 C 15,4 C 8,0 km/h (2 Bft) 100,00 %
09.08.2022 03:13 15,5 C 78 % 1024,1 hPa 0,0 l/m 4,8 km/h (1 Bft) N-NW 337 0 min 0,000 mm 0,0 UV-I 0 W/m 11,7 C 15,5 C 6,4 km/h (2 Bft) 95,65 %
09.08.2022 03:12 15,5 C 78 % 1024,1 hPa 0,0 l/m 4,8 km/h (1 Bft) N-NW 337 0 min 0,000 mm 0,0 UV-I 0 W/m 11,7 C 15,5 C 6,4 km/h (2 Bft) 100,00 %
09.08.2022 03:11 15,5 C 78 % 1024,0 hPa 0,0 l/m 4,8 km/h (1 Bft) N-NW 337 0 min 0,000 mm 0,0 UV-I 0 W/m 11,7 C 15,5 C 6,4 km/h (2 Bft) 100,00 %
09.08.2022 03:10 15,5 C 78 % 1024,0 hPa 0,0 l/m 4,8 km/h (1 Bft) N-NW 337 0 min 0,000 mm 0,0 UV-I 0 W/m 11,7 C 15,5 C 6,4 km/h (2 Bft) 100,00 %
09.08.2022 03:09 15,5 C 78 % 1024,0 hPa 0,0 l/m 3,2 km/h (1 Bft) N-NW 337 0 min 0,000 mm 0,0 UV-I 0 W/m 11,7 C 15,5 C 4,8 km/h (1 Bft) 100,00 %
09.08.2022 03:08 15,5 C 78 % 1024,0 hPa 0,0 l/m 3,2 km/h (1 Bft) N-NW 337 0 min 0,000 mm 0,0 UV-I 0 W/m 11,7 C 15,5 C 4,8 km/h (1 Bft) 100,00 %
09.08.2022 03:07 15,6 C 78 % 1023,9 hPa 0,0 l/m 3,2 km/h (1 Bft) N 360 0 min 0,000 mm 0,0 UV-I 0 W/m 11,8 C 15,6 C 4,8 km/h (1 Bft) 95,65 %
09.08.2022 03:06 15,6 C 78 % 1023,9 hPa 0,0 l/m 3,2 km/h (1 Bft) N 360 0 min 0,000 mm 0,0 UV-I 0 W/m 11,8 C 15,6 C 3,2 km/h (1 Bft) 95,65 %
09.08.2022 03:05 15,5 C 78 % 1023,9 hPa 0,0 l/m 1,6 km/h (1 Bft) N-NO 22 0 min 0,000 mm 0,0 UV-I 0 W/m 11,7 C 15,5 C 3,2 km/h (1 Bft) 100,00 %
09.08.2022 03:04 15,6 C 78 % 1023,9 hPa 0,0 l/m 3,2 km/h (1 Bft) N-NO 22 0 min 0,000 mm 0,0 UV-I 0 W/m 11,8 C 15,6 C 6,4 km/h (2 Bft) 100,00 %
09.08.2022 03:03 15,5 C 78 % 1023,9 hPa 0,0 l/m 3,2 km/h (1 Bft) N-NW 337 0 min 0,000 mm 0,0 UV-I 0 W/m 11,7 C 15,5 C 6,4 km/h (2 Bft) 95,65 %
09.08.2022 03:02 15,6 C 78 % 1023,9 hPa 0,0 l/m 3,2 km/h (1 Bft) N-NW 337 0 min 0,000 mm 0,0 UV-I 0 W/m 11,8 C 15,6 C 4,8 km/h (1 Bft) 100,00 %
09.08.2022 03:01 15,6 C 78 % 1023,9 hPa 0,0 l/m 1,6 km/h (1 Bft) N-NW 337 0 min 0,000 mm 0,0 UV-I 0 W/m 11,8 C 15,6 C 4,8 km/h (1 Bft) 95,65 %
09.08.2022 03:00 15,6 C 78 % 1023,9 hPa 0,0 l/m 1,6 km/h (1 Bft) N-NO 22 0 min 0,000 mm 0,0 UV-I 0 W/m 11,8 C 15,6 C 1,6 km/h (1 Bft) 100,00 %
09.08.2022 02:59 15,6 C 78 % 1023,9 hPa 0,0 l/m 0,0 km/h (0 Bft) N-NO 22 0 min 0,000 mm 0,0 UV-I 0 W/m 11,8 C 15,6 C 1,6 km/h (1 Bft) 100,00 %
09.08.2022 02:58 15,6 C 78 % 1024,0 hPa 0,0 l/m 0,0 km/h (0 Bft) N-NO 22 0 min 0,000 mm 0,0 UV-I 0 W/m 11,8 C 15,6 C 1,6 km/h (1 Bft) 95,65 %
09.08.2022 02:57 15,6 C 78 % 1023,9 hPa 0,0 l/m 0,0 km/h (0 Bft) N-NO 22 0 min 0,000 mm 0,0 UV-I 0 W/m 11,8 C 15,6 C 1,6 km/h (1 Bft) 100,00 %
09.08.2022 02:56 15,7 C 78 % 1024,0 hPa 0,0 l/m 0,0 km/h (0 Bft) N-NO 22 0 min 0,000 mm 0,0 UV-I 0 W/m 11,9 C 15,7 C 1,6 km/h (1 Bft) 95,65 %
09.08.2022 02:55 15,7 C 78 % 1023,9 hPa 0,0 l/m 0,0 km/h (0 Bft) N-NO 22 0 min 0,000 mm 0,0 UV-I 0 W/m 11,9 C 15,7 C 1,6 km/h (1 Bft) 100,00 %
09.08.2022 02:54 15,7 C 78 % 1023,9 hPa 0,0 l/m 0,0 km/h (0 Bft) N-NO 22 0 min 0,000 mm 0,0 UV-I 0 W/m 11,9 C 15,7 C 1,6 km/h (1 Bft) 100,00 %
09.08.2022 02:53 15,7 C 78 % 1023,9 hPa 0,0 l/m 0,0 km/h (0 Bft) N-NO 22 0 min 0,000 mm 0,0 UV-I 0 W/m 11,9 C 15,7 C 1,6 km/h (1 Bft) 91,30 %
09.08.2022 02:52 15,7 C 78 % 1023,9 hPa 0,0 l/m 0,0 km/h (0 Bft) N-NO 22 0 min 0,000 mm 0,0 UV-I 0 W/m 11,9 C 15,7 C 1,6 km/h (1 Bft) 100,00 %
09.08.2022 02:51 15,7 C 78 % 1023,9 hPa 0,0 l/m 1,6 km/h (1 Bft) N-NO 22 0 min 0,000 mm 0,0 UV-I 0 W/m 11,9 C 15,7 C 3,2 km/h (1 Bft) 100,00 %
09.08.2022 02:50 15,7 C 78 % 1023,9 hPa 0,0 l/m 1,6 km/h (1 Bft) N-NO 22 0 min 0,000 mm 0,0 UV-I 0 W/m 11,9 C 15,7 C 3,2 km/h (1 Bft) 100,00 %
09.08.2022 02:49 15,7 C 78 % 1023,9 hPa 0,0 l/m 1,6 km/h (1 Bft) N-NO 22 0 min 0,000 mm 0,0 UV-I 0 W/m 11,9 C 15,7 C 3,2 km/h (1 Bft) 100,00 %
09.08.2022 02:48 15,7 C 78 % 1023,9 hPa 0,0 l/m 3,2 km/h (1 Bft) N-NO 22 0 min 0,000 mm 0,0 UV-I 0 W/m 11,9 C 15,7 C 4,8 km/h (1 Bft) 100,00 %
09.08.2022 02:47 15,7 C 78 % 1023,9 hPa 0,0 l/m 3,2 km/h (1 Bft) N-NO 22 0 min 0,000 mm 0,0 UV-I 0 W/m 11,9 C 15,7 C 4,8 km/h (1 Bft) 100,00 %
09.08.2022 02:46 15,7 C 78 % 1023,9 hPa 0,0 l/m 3,2 km/h (1 Bft) N-NO 22 0 min 0,000 mm 0,0 UV-I 0 W/m 11,9 C 15,7 C 4,8 km/h (1 Bft) 100,00 %
09.08.2022 02:45 15,7 C 78 % 1023,9 hPa 0,0 l/m 1,6 km/h (1 Bft) N 360 0 min 0,000 mm 0,0 UV-I 0 W/m 11,9 C 15,7 C 3,2 km/h (1 Bft) 100,00 %
09.08.2022 02:44 15,8 C 78 % 1023,9 hPa 0,0 l/m 1,6 km/h (1 Bft) N 360 0 min 0,000 mm 0,0 UV-I 0 W/m 12,0 C 15,8 C 3,2 km/h (1 Bft) 100,00 %
09.08.2022 02:43 15,8 C 78 % 1023,9 hPa 0,0 l/m 1,6 km/h (1 Bft) NO 45 0 min 0,000 mm 0,0 UV-I 0 W/m 12,0 C 15,8 C 3,2 km/h (1 Bft) 100,00 %
09.08.2022 02:42 15,8 C 78 % 1024,0 hPa 0,0 l/m 0,0 km/h (0 Bft) N 0 0 min 0,000 mm 0,0 UV-I 0 W/m 12,0 C 15,8 C 0,0 km/h (0 Bft) 100,00 %
09.08.2022 02:41 15,8 C 78 % 1024,0 hPa 0,0 l/m 0,0 km/h (0 Bft) N 0 0 min 0,000 mm 0,0 UV-I 0 W/m 12,0 C 15,8 C 0,0 km/h (0 Bft) 100,00 %
09.08.2022 02:40 15,8 C 78 % 1023,9 hPa 0,0 l/m 0,0 km/h (0 Bft) N 0 0 min 0,000 mm 0,0 UV-I 0 W/m 12,0 C 15,8 C 0,0 km/h (0 Bft) 100,00 %
09.08.2022 02:39 15,8 C 78 % 1024,1 hPa 0,0 l/m 0,0 km/h (0 Bft) N 0 0 min 0,000 mm 0,0 UV-I 0 W/m 12,0 C 15,8 C 0,0 km/h (0 Bft) 100,00 %
09.08.2022 02:38 15,9 C 78 % 1023,9 hPa 0,0 l/m 0,0 km/h (0 Bft) N 0 0 min 0,000 mm 0,0 UV-I 0 W/m 12,1 C 15,9 C 0,0 km/h (0 Bft) 100,00 %
09.08.2022 02:37 15,9 C 78 % 1024,0 hPa 0,0 l/m 0,0 km/h (0 Bft) N 0 0 min 0,000 mm 0,0 UV-I 0 W/m 12,1 C 15,9 C 0,0 km/h (0 Bft) 100,00 %
09.08.2022 02:36 15,9 C 78 % 1024,1 hPa 0,0 l/m 0,0 km/h (0 Bft) N 0 0 min 0,000 mm 0,0 UV-I 0 W/m 12,1 C 15,9 C 0,0 km/h (0 Bft) 100,00 %
09.08.2022 02:35 16,0 C 77 % 1024,0 hPa 0,0 l/m 0,0 km/h (0 Bft) N 0 0 min 0,000 mm 0,0 UV-I 0 W/m 12,0 C 16,0 C 0,0 km/h (0 Bft) 95,65 %
09.08.2022 02:34 16,1 C 77 % 1024,0 hPa 0,0 l/m 0,0 km/h (0 Bft) N 0 0 min 0,000 mm 0,0 UV-I 0 W/m 12,1 C 16,1 C 0,0 km/h (0 Bft) 100,00 %
09.08.2022 02:33 16,1 C 77 % 1024,0 hPa 0,0 l/m 0,0 km/h (0 Bft) NO 45 0 min 0,000 mm 0,0 UV-I 0 W/m 12,1 C 16,1 C 1,6 km/h (1 Bft) 100,00 %
09.08.2022 02:32 16,1 C 77 % 1024,0 hPa 0,0 l/m 0,0 km/h (0 Bft) NO 45 0 min 0,000 mm 0,0 UV-I 0 W/m 12,1 C 16,1 C 1,6 km/h (1 Bft) 95,65 %
09.08.2022 02:31 16,1 C 77 % 1024,0 hPa 0,0 l/m 1,6 km/h (1 Bft) NO 45 0 min 0,000 mm 0,0 UV-I 0 W/m 12,1 C 16,1 C 3,2 km/h (1 Bft) 100,00 %
09.08.2022 02:30 16,1 C 77 % 1024,0 hPa 0,0 l/m 0,0 km/h (0 Bft) N 360 0 min 0,000 mm 0,0 UV-I 0 W/m 12,1 C 16,1 C 1,6 km/h (1 Bft) 100,00 %
09.08.2022 02:29 16,1 C 77 % 1024,0 hPa 0,0 l/m 1,6 km/h (1 Bft) N 360 0 min 0,000 mm 0,0 UV-I 0 W/m 12,1 C 16,1 C 3,2 km/h (1 Bft) 100,00 %
09.08.2022 02:28 16,1 C 76 % 1024,0 hPa 0,0 l/m 0,0 km/h (0 Bft) N 360 0 min 0,000 mm 0,0 UV-I 0 W/m 11,9 C 16,1 C 1,6 km/h (1 Bft) 100,00 %
09.08.2022 02:27 16,2 C 76 % 1024,1 hPa 0,0 l/m 0,0 km/h (0 Bft) N 360 0 min 0,000 mm 0,0 UV-I 0 W/m 12,0 C 16,2 C 1,6 km/h (1 Bft) 91,30 %
09.08.2022 02:26 16,2 C 76 % 1024,1 hPa 0,0 l/m 0,0 km/h (0 Bft) N 360 0 min 0,000 mm 0,0 UV-I 0 W/m 12,0 C 16,2 C 1,6 km/h (1 Bft) 100,00 %
09.08.2022 02:25 16,2 C 76 % 1024,0 hPa 0,0 l/m 0,0 km/h (0 Bft) N 0 0 min 0,000 mm 0,0 UV-I 0 W/m 12,0 C 16,2 C 0,0 km/h (0 Bft) 100,00 %
09.08.2022 02:24 16,3 C 76 % 1024,0 hPa 0,0 l/m 1,6 km/h (1 Bft) N 360 0 min 0,000 mm 0,0 UV-I 0 W/m 12,1 C 16,3 C 3,2 km/h (1 Bft) 100,00 %
09.08.2022 02:23 16,3 C 76 % 1024,1 hPa 0,0 l/m 0,0 km/h (0 Bft) N 360 0 min 0,000 mm 0,0 UV-I 0 W/m 12,1 C 16,3 C 1,6 km/h (1 Bft) 100,00 %
09.08.2022 02:22 16,3 C 76 % 1024,1 hPa 0,0 l/m 0,0 km/h (0 Bft) N 360 0 min 0,000 mm 0,0 UV-I 0 W/m 12,1 C 16,3 C 1,6 km/h (1 Bft) 100,00 %
09.08.2022 02:21 16,3 C 75 % 1024,1 hPa 0,0 l/m 0,0 km/h (0 Bft) N 0 0 min 0,000 mm 0,0 UV-I 0 W/m 11,9 C 16,3 C 0,0 km/h (0 Bft) 100,00 %
09.08.2022 02:20 16,3 C 75 % 1024,1 hPa 0,0 l/m 1,6 km/h (1 Bft) N 360 0 min 0,000 mm 0,0 UV-I 0 W/m 11,9 C 16,3 C 1,6 km/h (1 Bft) 100,00 %
09.08.2022 02:19 16,4 C 75 % 1024,0 hPa 0,0 l/m 1,6 km/h (1 Bft) N-NW 337 0 min 0,000 mm 0,0 UV-I 0 W/m 12,0 C 16,4 C 1,6 km/h (1 Bft) 100,00 %
09.08.2022 02:18 16,4 C 75 % 1024,0 hPa 0,0 l/m 1,6 km/h (1 Bft) N-NW 337 0 min 0,000 mm 0,0 UV-I 0 W/m 12,0 C 16,4 C 1,6 km/h (1 Bft) 100,00 %
09.08.2022 02:17 16,4 C 75 % 1024,0 hPa 0,0 l/m 0,0 km/h (0 Bft) N-NW 337 0 min 0,000 mm 0,0 UV-I 0 W/m 12,0 C 16,4 C 1,6 km/h (1 Bft) 100,00 %
09.08.2022 02:16 16,4 C 75 % 1024,1 hPa 0,0 l/m 0,0 km/h (0 Bft) N-NW 337 0 min 0,000 mm 0,0 UV-I 0 W/m 12,0 C 16,4 C 1,6 km/h (1 Bft) 100,00 %
09.08.2022 02:15 16,4 C 75 % 1024,0 hPa 0,0 l/m 0,0 km/h (0 Bft) N-NW 337 0 min 0,000 mm 0,0 UV-I 0 W/m 12,0 C 16,4 C 1,6 km/h (1 Bft) 100,00 %
09.08.2022 02:14 16,4 C 75 % 1024,0 hPa 0,0 l/m 0,0 km/h (0 Bft) N-NW 337 0 min 0,000 mm 0,0 UV-I 0 W/m 12,0 C 16,4 C 1,6 km/h (1 Bft) 100,00 %
09.08.2022 02:13 16,5 C 75 % 1024,1 hPa 0,0 l/m 0,0 km/h (0 Bft) N-NW 337 0 min 0,000 mm 0,0 UV-I 0 W/m 12,1 C 16,5 C 1,6 km/h (1 Bft) 95,65 %
09.08.2022 02:12 16,5 C 75 % 1024,1 hPa 0,0 l/m 0,0 km/h (0 Bft) N-NW 337 0 min 0,000 mm 0,0 UV-I 0 W/m 12,1 C 16,5 C 1,6 km/h (1 Bft) 100,00 %
09.08.2022 02:11 16,6 C 75 % 1024,0 hPa 0,0 l/m 0,0 km/h (0 Bft) N-NW 337 0 min 0,000 mm 0,0 UV-I 0 W/m 12,1 C 16,6 C 1,6 km/h (1 Bft) 95,65 %
09.08.2022 02:10 16,6 C 74 % 1024,1 hPa 0,0 l/m 1,6 km/h (1 Bft) N-NW 337 0 min 0,000 mm 0,0 UV-I 0 W/m 11,9 C 16,6 C 3,2 km/h (1 Bft) 100,00 %
09.08.2022 02:09 16,6 C 74 % 1024,0 hPa 0,0 l/m 0,0 km/h (0 Bft) N-NW 337 0 min 0,000 mm 0,0 UV-I 0 W/m 11,9 C 16,6 C 1,6 km/h (1 Bft) 100,00 %
09.08.2022 02:08 16,7 C 74 % 1024,0 hPa 0,0 l/m 0,0 km/h (0 Bft) N 0 0 min 0,000 mm 0,0 UV-I 0 W/m 12,0 C 16,7 C 0,0 km/h (0 Bft) 100,00 %
09.08.2022 02:07 16,7 C 74 % 1024,0 hPa 0,0 l/m 0,0 km/h (0 Bft) N-NW 337 0 min 0,000 mm 0,0 UV-I 0 W/m 12,0 C 16,7 C 1,6 km/h (1 Bft) 100,00 %
09.08.2022 02:06 16,7 C 74 % 1024,0 hPa 0,0 l/m 1,6 km/h (1 Bft) N-NW 337 0 min 0,000 mm 0,0 UV-I 0 W/m 12,0 C 16,7 C 1,6 km/h (1 Bft) 100,00 %
09.08.2022 02:05 16,7 C 74 % 1024,0 hPa 0,0 l/m 1,6 km/h (1 Bft) N-NW 337 0 min 0,000 mm 0,0 UV-I 0 W/m 12,0 C 16,7 C 3,2 km/h (1 Bft) 95,65 %
09.08.2022 02:04 16,8 C 74 % 1024,1 hPa 0,0 l/m 1,6 km/h (1 Bft) N-NW 337 0 min 0,000 mm 0,0 UV-I 0 W/m 12,1 C 16,8 C 3,2 km/h (1 Bft) 100,00 %
09.08.2022 02:03 16,8 C 73 % 1024,0 hPa 0,0 l/m 3,2 km/h (1 Bft) N-NW 337 0 min 0,000 mm 0,0 UV-I 0 W/m 11,9 C 16,8 C 3,2 km/h (1 Bft) 95,65 %
09.08.2022 02:02 16,8 C 73 % 1024,0 hPa 0,0 l/m 3,2 km/h (1 Bft) N-NW 337 0 min 0,000 mm 0,0 UV-I 0 W/m 11,9 C 16,8 C 4,8 km/h (1 Bft) 100,00 %
09.08.2022 02:01 16,8 C 73 % 1024,0 hPa 0,0 l/m 3,2 km/h (1 Bft) NW 315 0 min 0,000 mm 0,0 UV-I 0 W/m 11,9 C 16,8 C 6,4 km/h (2 Bft) 100,00 %
09.08.2022 02:00 16,8 C 73 % 1024,0 hPa 0,0 l/m 3,2 km/h (1 Bft) N-NW 337 0 min 0,000 mm 0,0 UV-I 0 W/m 11,9 C 16,8 C 4,8 km/h (1 Bft) 100,00 %
09.08.2022 01:59 16,8 C 73 % 1023,9 hPa 0,0 l/m 3,2 km/h (1 Bft) N 360 0 min 0,000 mm 0,0 UV-I 0 W/m 11,9 C 16,8 C 3,2 km/h (1 Bft) 100,00 %
09.08.2022 01:58 16,8 C 73 % 1024,0 hPa 0,0 l/m 1,6 km/h (1 Bft) N 360 0 min 0,000 mm 0,0 UV-I 0 W/m 11,9 C 16,8 C 3,2 km/h (1 Bft) 100,00 %
09.08.2022 01:57 16,8 C 73 % 1024,0 hPa 0,0 l/m 1,6 km/h (1 Bft) N 360 0 min 0,000 mm 0,0 UV-I 0 W/m 11,9 C 16,8 C 3,2 km/h (1 Bft) 100,00 %
09.08.2022 01:56 16,8 C 73 % 1024,0 hPa 0,0 l/m 1,6 km/h (1 Bft) N 360 0 min 0,000 mm 0,0 UV-I 0 W/m 11,9 C 16,8 C 3,2 km/h (1 Bft) 100,00 %
09.08.2022 01:55 16,8 C 73 % 1024,0 hPa 0,0 l/m 1,6 km/h (1 Bft) N 360 0 min 0,000 mm 0,0 UV-I 0 W/m 11,9 C 16,8 C 1,6 km/h (1 Bft) 100,00 %
09.08.2022 01:54 16,8 C 73 % 1024,0 hPa 0,0 l/m 0,0 km/h (0 Bft) N 360 0 min 0,000 mm 0,0 UV-I 0 W/m 11,9 C 16,8 C 1,6 km/h (1 Bft) 95,65 %
09.08.2022 01:53 16,9 C 73 % 1024,0 hPa 0,0 l/m 0,0 km/h (0 Bft) N 360 0 min 0,000 mm 0,0 UV-I 0 W/m 12,0 C 16,9 C 1,6 km/h (1 Bft) 100,00 %
09.08.2022 01:52 16,9 C 73 % 1024,0 hPa 0,0 l/m 1,6 km/h (1 Bft) N 360 0 min 0,000 mm 0,0 UV-I 0 W/m 12,0 C 16,9 C 1,6 km/h (1 Bft) 100,00 %
09.08.2022 01:51 16,9 C 73 % 1023,9 hPa 0,0 l/m 3,2 km/h (1 Bft) N 360 0 min 0,000 mm 0,0 UV-I 0 W/m 12,0 C 16,9 C 4,8 km/h (1 Bft) 100,00 %
09.08.2022 01:50 16,9 C 73 % 1023,9 hPa 0,0 l/m 3,2 km/h (1 Bft) N-NW 337 0 min 0,000 mm 0,0 UV-I 0 W/m 12,0 C 16,9 C 3,2 km/h (1 Bft) 100,00 %
09.08.2022 01:49 16,9 C 73 % 1024,0 hPa 0,0 l/m 3,2 km/h (1 Bft) NW 315 0 min 0,000 mm 0,0 UV-I 0 W/m 12,0 C 16,9 C 3,2 km/h (1 Bft) 100,00 %
09.08.2022 01:48 16,9 C 73 % 1023,9 hPa 0,0 l/m 3,2 km/h (1 Bft) N-NW 337 0 min 0,000 mm 0,0 UV-I 0 W/m 12,0 C 16,9 C 4,8 km/h (1 Bft) 95,65 %
09.08.2022 01:47 16,9 C 73 % 1023,9 hPa 0,0 l/m 3,2 km/h (1 Bft) N-NW 337 0 min 0,000 mm 0,0 UV-I 0 W/m 12,0 C 16,9 C 4,8 km/h (1 Bft) 100,00 %
09.08.2022 01:46 16,9 C 73 % 1024,0 hPa 0,0 l/m 4,8 km/h (1 Bft) N-NW 337 0 min 0,000 mm 0,0 UV-I 0 W/m 12,0 C 16,9 C 6,4 km/h (2 Bft) 100,00 %
09.08.2022 01:45 16,9 C 73 % 1024,0 hPa 0,0 l/m 4,8 km/h (1 Bft) N-NW 337 0 min 0,000 mm 0,0 UV-I 0 W/m 12,0 C 16,9 C 6,4 km/h (2 Bft) 100,00 %
09.08.2022 01:44 16,9 C 73 % 1024,0 hPa 0,0 l/m 3,2 km/h (1 Bft) N-NW 337 0 min 0,000 mm 0,0 UV-I 0 W/m 12,0 C 16,9 C 4,8 km/h (1 Bft) 100,00 %
09.08.2022 01:43 16,9 C 73 % 1023,9 hPa 0,0 l/m 3,2 km/h (1 Bft) N-NW 337 0 min 0,000 mm 0,0 UV-I 0 W/m 12,0 C 16,9 C 4,8 km/h (1 Bft) 100,00 %
09.08.2022 01:42 16,9 C 73 % 1023,9 hPa 0,0 l/m 3,2 km/h (1 Bft) N-NW 337 0 min 0,000 mm 0,0 UV-I 0 W/m 12,0 C 16,9 C 3,2 km/h (1 Bft) 100,00 %
09.08.2022 01:41 16,9 C 73 % 1024,0 hPa 0,0 l/m 3,2 km/h (1 Bft) N-NW 337 0 min 0,000 mm 0,0 UV-I 0 W/m 12,0 C 16,9 C 4,8 km/h (1 Bft) 100,00 %
09.08.2022 01:40 16,9 C 73 % 1023,9 hPa 0,0 l/m 1,6 km/h (1 Bft) N-NW 337 0 min 0,000 mm 0,0 UV-I 0 W/m 12,0 C 16,9 C 3,2 km/h (1 Bft) 100,00 %
09.08.2022 01:39 16,8 C 73 % 1023,9 hPa 0,0 l/m 3,2 km/h (1 Bft) N-NW 337 0 min 0,000 mm 0,0 UV-I 0 W/m 11,9 C 16,8 C 4,8 km/h (1 Bft) 100,00 %
09.08.2022 01:38 16,9 C 73 % 1024,0 hPa 0,0 l/m 1,6 km/h (1 Bft) N-NW 337 0 min 0,000 mm 0,0 UV-I 0 W/m 12,0 C 16,9 C 3,2 km/h (1 Bft) 100,00 %
09.08.2022 01:37 16,9 C 73 % 1024,0 hPa 0,0 l/m 1,6 km/h (1 Bft) N-NW 337 0 min 0,000 mm 0,0 UV-I 0 W/m 12,0 C 16,9 C 3,2 km/h (1 Bft) 95,65 %
09.08.2022 01:36 16,9 C 73 % 1024,0 hPa 0,0 l/m 1,6 km/h (1 Bft) N-NW 337 0 min 0,000 mm 0,0 UV-I 0 W/m 12,0 C 16,9 C 3,2 km/h (1 Bft) 100,00 %
09.08.2022 01:35 16,9 C 73 % 1024,0 hPa 0,0 l/m 1,6 km/h (1 Bft) N 360 0 min 0,000 mm 0,0 UV-I 0 W/m 12,0 C 16,9 C 3,2 km/h (1 Bft) 100,00 %
09.08.2022 01:34 16,9 C 73 % 1024,0 hPa 0,0 l/m 1,6 km/h (1 Bft) N 360 0 min 0,000 mm 0,0 UV-I 0 W/m 12,0 C 16,9 C 3,2 km/h (1 Bft) 100,00 %
09.08.2022 01:33 16,9 C 73 % 1024,0 hPa 0,0 l/m 1,6 km/h (1 Bft) N 360 0 min 0,000 mm 0,0 UV-I 0 W/m 12,0 C 16,9 C 3,2 km/h (1 Bft) 100,00 %
09.08.2022 01:32 16,9 C 73 % 1024,0 hPa 0,0 l/m 3,2 km/h (1 Bft) N 360 0 min 0,000 mm 0,0 UV-I 0 W/m 12,0 C 16,9 C 3,2 km/h (1 Bft) 100,00 %
09.08.2022 01:31 17,0 C 73 % 1024,0 hPa 0,0 l/m 3,2 km/h (1 Bft) N 360 0 min 0,000 mm 0,0 UV-I 0 W/m 12,1 C 17,0 C 4,8 km/h (1 Bft) 100,00 %
09.08.2022 01:30 17,0 C 73 % 1024,0 hPa 0,0 l/m 3,2 km/h (1 Bft) N 360 0 min 0,000 mm 0,0 UV-I 0 W/m 12,1 C 17,0 C 3,2 km/h (1 Bft) 100,00 %
09.08.2022 01:29 17,0 C 73 % 1024,0 hPa 0,0 l/m 3,2 km/h (1 Bft) N 360 0 min 0,000 mm 0,0 UV-I 0 W/m 12,1 C 17,0 C 4,8 km/h (1 Bft) 95,65 %
09.08.2022 01:28 17,0 C 73 % 1024,0 hPa 0,0 l/m 1,6 km/h (1 Bft) N 360 0 min 0,000 mm 0,0 UV-I 0 W/m 12,1 C 17,0 C 3,2 km/h (1 Bft) 100,00 %
09.08.2022 01:27 17,0 C 73 % 1023,9 hPa 0,0 l/m 3,2 km/h (1 Bft) N 360 0 min 0,000 mm 0,0 UV-I 0 W/m 12,1 C 17,0 C 3,2 km/h (1 Bft) 95,65 %
09.08.2022 01:26 17,0 C 73 % 1024,0 hPa 0,0 l/m 1,6 km/h (1 Bft) N 360 0 min 0,000 mm 0,0 UV-I 0 W/m 12,1 C 17,0 C 3,2 km/h (1 Bft) 100,00 %
09.08.2022 01:25 17,0 C 73 % 1023,9 hPa 0,0 l/m 3,2 km/h (1 Bft) N 360 0 min 0,000 mm 0,0 UV-I 0 W/m 12,1 C 17,0 C 3,2 km/h (1 Bft) 100,00 %
09.08.2022 01:24 17,0 C 73 % 1024,0 hPa 0,0 l/m 1,6 km/h (1 Bft) N 360 0 min 0,000 mm 0,0 UV-I 0 W/m 12,1 C 17,0 C 3,2 km/h (1 Bft) 95,65 %
09.08.2022 01:23 17,0 C 72 % 1024,0 hPa 0,0 l/m 3,2 km/h (1 Bft) N 360 0 min 0,000 mm 0,0 UV-I 0 W/m 11,9 C 17,0 C 4,8 km/h (1 Bft) 100,00 %
09.08.2022 01:22 17,1 C 72 % 1024,0 hPa 0,0 l/m 3,2 km/h (1 Bft) N-NW 337 0 min 0,000 mm 0,0 UV-I 0 W/m 12,0 C 17,1 C 4,8 km/h (1 Bft) 100,00 %
09.08.2022 01:21 17,1 C 72 % 1024,0 hPa 0,0 l/m 1,6 km/h (1 Bft) N 360 0 min 0,000 mm 0,0 UV-I 0 W/m 12,0 C 17,1 C 3,2 km/h (1 Bft) 100,00 %
09.08.2022 01:20 17,1 C 72 % 1024,0 hPa 0,0 l/m 0,0 km/h (0 Bft) N 360 0 min 0,000 mm 0,0 UV-I 0 W/m 12,0 C 17,1 C 1,6 km/h (1 Bft) 100,00 %
09.08.2022 01:19 17,1 C 72 % 1024,1 hPa 0,0 l/m 1,6 km/h (1 Bft) N 360 0 min 0,000 mm 0,0 UV-I 0 W/m 12,0 C 17,1 C 3,2 km/h (1 Bft) 100,00 %
09.08.2022 01:18 17,2 C 72 % 1024,1 hPa 0,0 l/m 0,0 km/h (0 Bft) N-NO 22 0 min 0,000 mm 0,0 UV-I 0 W/m 12,1 C 17,2 C 1,6 km/h (1 Bft) 100,00 %
09.08.2022 01:17 17,2 C 72 % 1024,0 hPa 0,0 l/m 0,0 km/h (0 Bft) N-NO 22 0 min 0,000 mm 0,0 UV-I 0 W/m 12,1 C 17,2 C 1,6 km/h (1 Bft) 100,00 %
09.08.2022 01:16 17,2 C 72 % 1024,1 hPa 0,0 l/m 0,0 km/h (0 Bft) N-NO 22 0 min 0,000 mm 0,0 UV-I 0 W/m 12,1 C 17,2 C 1,6 km/h (1 Bft) 100,00 %
09.08.2022 01:15 17,2 C 72 % 1024,0 hPa 0,0 l/m 1,6 km/h (1 Bft) N-NO 22 0 min 0,000 mm 0,0 UV-I 0 W/m 12,1 C 17,2 C 3,2 km/h (1 Bft) 100,00 %
09.08.2022 01:14 17,2 C 72 % 1024,0 hPa 0,0 l/m 1,6 km/h (1 Bft) N-NO 22 0 min 0,000 mm 0,0 UV-I 0 W/m 12,1 C 17,2 C 3,2 km/h (1 Bft) 100,00 %
09.08.2022 01:13 17,2 C 72 % 1024,0 hPa 0,0 l/m 1,6 km/h (1 Bft) N-NO 22 0 min 0,000 mm 0,0 UV-I 0 W/m 12,1 C 17,2 C 3,2 km/h (1 Bft) 95,65 %
09.08.2022 01:12 17,2 C 72 % 1024,0 hPa 0,0 l/m 1,6 km/h (1 Bft) N-NO 22 0 min 0,000 mm 0,0 UV-I 0 W/m 12,1 C 17,2 C 3,2 km/h (1 Bft) 100,00 %
09.08.2022 01:11 17,2 C 72 % 1024,1 hPa 0,0 l/m 1,6 km/h (1 Bft) N 360 0 min 0,000 mm 0,0 UV-I 0 W/m 12,1 C 17,2 C 3,2 km/h (1 Bft) 100,00 %
09.08.2022 01:10 17,2 C 72 % 1024,0 hPa 0,0 l/m 1,6 km/h (1 Bft) N-NW 337 0 min 0,000 mm 0,0 UV-I 0 W/m 12,1 C 17,2 C 3,2 km/h (1 Bft) 95,65 %
09.08.2022 01:09 17,2 C 72 % 1024,1 hPa 0,0 l/m 1,6 km/h (1 Bft) N 360 0 min 0,000 mm 0,0 UV-I 0 W/m 12,1 C 17,2 C 3,2 km/h (1 Bft) 100,00 %
09.08.2022 01:08 17,2 C 72 % 1024,0 hPa 0,0 l/m 3,2 km/h (1 Bft) N 360 0 min 0,000 mm 0,0 UV-I 0 W/m 12,1 C 17,2 C 4,8 km/h (1 Bft) 95,65 %
09.08.2022 01:07 17,2 C 72 % 1024,1 hPa 0,0 l/m 1,6 km/h (1 Bft) N-NW 337 0 min 0,000 mm 0,0 UV-I 0 W/m 12,1 C 17,2 C 1,6 km/h (1 Bft) 100,00 %
09.08.2022 01:06 17,2 C 72 % 1024,1 hPa 0,0 l/m 3,2 km/h (1 Bft) N 360 0 min 0,000 mm 0,0 UV-I 0 W/m 12,1 C 17,2 C 4,8 km/h (1 Bft) 100,00 %
09.08.2022 01:05 17,2 C 72 % 1024,0 hPa 0,0 l/m 3,2 km/h (1 Bft) N 360 0 min 0,000 mm 0,0 UV-I 0 W/m 12,1 C 17,2 C 4,8 km/h (1 Bft) 100,00 %
09.08.2022 01:04 17,2 C 72 % 1023,9 hPa 0,0 l/m 1,6 km/h (1 Bft) N 360 0 min 0,000 mm 0,0 UV-I 0 W/m 12,1 C 17,2 C 3,2 km/h (1 Bft) 100,00 %
09.08.2022 01:03 17,1 C 72 % 1023,9 hPa 0,0 l/m 3,2 km/h (1 Bft) N 360 0 min 0,000 mm 0,0 UV-I 0 W/m 12,0 C 17,1 C 4,8 km/h (1 Bft) 100,00 %
09.08.2022 01:02 17,1 C 72 % 1023,9 hPa 0,0 l/m 3,2 km/h (1 Bft) N 360 0 min 0,000 mm 0,0 UV-I 0 W/m 12,0 C 17,1 C 4,8 km/h (1 Bft) 100,00 %
09.08.2022 01:01 17,1 C 73 % 1023,9 hPa 0,0 l/m 3,2 km/h (1 Bft) N 360 0 min 0,000 mm 0,0 UV-I 0 W/m 12,2 C 17,1 C 4,8 km/h (1 Bft) 100,00 %
09.08.2022 01:00 17,1 C 73 % 1023,8 hPa 0,0 l/m 3,2 km/h (1 Bft) N 360 0 min 0,000 mm 0,0 UV-I 0 W/m 12,2 C 17,1 C 3,2 km/h (1 Bft) 100,00 %
09.08.2022 00:59 17,1 C 73 % 1023,8 hPa 0,0 l/m 1,6 km/h (1 Bft) N-NO 22 0 min 0,000 mm 0,0 UV-I 0 W/m 12,2 C 17,1 C 3,2 km/h (1 Bft) 100,00 %
09.08.2022 00:58 17,1 C 73 % 1023,8 hPa 0,0 l/m 1,6 km/h (1 Bft) N-NO 22 0 min 0,000 mm 0,0 UV-I 0 W/m 12,2 C 17,1 C 3,2 km/h (1 Bft) 100,00 %
09.08.2022 00:57 17,1 C 73 % 1023,8 hPa 0,0 l/m 0,0 km/h (0 Bft) N-NO 22 0 min 0,000 mm 0,0 UV-I 0 W/m 12,2 C 17,1 C 1,6 km/h (1 Bft) 100,00 %
09.08.2022 00:56 17,1 C 74 % 1023,7 hPa 0,0 l/m 0,0 km/h (0 Bft) N-NO 22 0 min 0,000 mm 0,0 UV-I 0 W/m 12,4 C 17,1 C 3,2 km/h (1 Bft) 100,00 %
09.08.2022 00:55 17,1 C 73 % 1023,9 hPa 0,0 l/m 1,6 km/h (1 Bft) N-NO 22 0 min 0,000 mm 0,0 UV-I 0 W/m 12,2 C 17,1 C 1,6 km/h (1 Bft) 100,00 %
09.08.2022 00:54 17,1 C 73 % 1023,7 hPa 0,0 l/m 1,6 km/h (1 Bft) N-NO 22 0 min 0,000 mm 0,0 UV-I 0 W/m 12,2 C 17,1 C 3,2 km/h (1 Bft) 100,00 %
09.08.2022 00:53 17,2 C 73 % 1023,8 hPa 0,0 l/m 1,6 km/h (1 Bft) N-NO 22 0 min 0,000 mm 0,0 UV-I 0 W/m 12,3 C 17,2 C 3,2 km/h (1 Bft) 100,00 %
09.08.2022 00:52 17,2 C 73 % 1023,8 hPa 0,0 l/m 1,6 km/h (1 Bft) N 360 0 min 0,000 mm 0,0 UV-I 0 W/m 12,3 C 17,2 C 3,2 km/h (1 Bft) 100,00 %
09.08.2022 00:51 17,2 C 73 % 1023,8 hPa 0,0 l/m 1,6 km/h (1 Bft) N-NO 22 0 min 0,000 mm 0,0 UV-I 0 W/m 12,3 C 17,2 C 1,6 km/h (1 Bft) 95,65 %
09.08.2022 00:50 17,2 C 73 % 1023,8 hPa 0,0 l/m 3,2 km/h (1 Bft) N-NO 22 0 min 0,000 mm 0,0 UV-I 0 W/m 12,3 C 17,2 C 4,8 km/h (1 Bft) 100,00 %
09.08.2022 00:49 17,2 C 73 % 1023,9 hPa 0,0 l/m 3,2 km/h (1 Bft) N 360 0 min 0,000 mm 0,0 UV-I 0 W/m 12,3 C 17,2 C 3,2 km/h (1 Bft) 100,00 %
09.08.2022 00:48 17,2 C 73 % 1023,9 hPa 0,0 l/m 3,2 km/h (1 Bft) N 360 0 min 0,000 mm 0,0 UV-I 0 W/m 12,3 C 17,2 C 3,2 km/h (1 Bft) 95,65 %
09.08.2022 00:47 17,3 C 73 % 1023,8 hPa 0,0 l/m 3,2 km/h (1 Bft) N 360 0 min 0,000 mm 0,0 UV-I 0 W/m 12,4 C 17,3 C 3,2 km/h (1 Bft) 100,00 %
09.08.2022 00:46 17,3 C 73 % 1023,9 hPa 0,0 l/m 3,2 km/h (1 Bft) N 360 0 min 0,000 mm 0,0 UV-I 0 W/m 12,4 C 17,3 C 4,8 km/h (1 Bft) 100,00 %
09.08.2022 00:45 17,3 C 73 % 1023,9 hPa 0,0 l/m 3,2 km/h (1 Bft) N-NW 337 0 min 0,000 mm 0,0 UV-I 0 W/m 12,4 C 17,3 C 4,8 km/h (1 Bft) 100,00 %
09.08.2022 00:44 17,3 C 73 % 1023,9 hPa 0,0 l/m 3,2 km/h (1 Bft) N 360 0 min 0,000 mm 0,0 UV-I 0 W/m 12,4 C 17,3 C 4,8 km/h (1 Bft) 100,00 %
09.08.2022 00:43 17,3 C 73 % 1023,8 hPa 0,0 l/m 3,2 km/h (1 Bft) N-NW 337 0 min 0,000 mm 0,0 UV-I 0 W/m 12,4 C 17,3 C 4,8 km/h (1 Bft) 100,00 %
09.08.2022 00:42 17,3 C 73 % 1023,8 hPa 0,0 l/m 3,2 km/h (1 Bft) N-NW 337 0 min 0,000 mm 0,0 UV-I 0 W/m 12,4 C 17,3 C 3,2 km/h (1 Bft) 100,00 %
09.08.2022 00:41 17,3 C 73 % 1023,8 hPa 0,0 l/m 1,6 km/h (1 Bft) N-NW 337 0 min 0,000 mm 0,0 UV-I 0 W/m 12,4 C 17,3 C 3,2 km/h (1 Bft) 95,65 %
09.08.2022 00:40 17,3 C 73 % 1023,9 hPa 0,0 l/m 1,6 km/h (1 Bft) N-NW 337 0 min 0,000 mm 0,0 UV-I 0 W/m 12,4 C 17,3 C 3,2 km/h (1 Bft) 100,00 %
09.08.2022 00:39 17,3 C 73 % 1023,9 hPa 0,0 l/m 1,6 km/h (1 Bft) N-NO 22 0 min 0,000 mm 0,0 UV-I 0 W/m 12,4 C 17,3 C 3,2 km/h (1 Bft) 100,00 %
09.08.2022 00:38 17,4 C 73 % 1023,8 hPa 0,0 l/m 3,2 km/h (1 Bft) N 360 0 min 0,000 mm 0,0 UV-I 0 W/m 12,5 C 17,4 C 4,8 km/h (1 Bft) 100,00 %
09.08.2022 00:37 17,4 C 72 % 1023,8 hPa 0,0 l/m 3,2 km/h (1 Bft) N 360 0 min 0,000 mm 0,0 UV-I 0 W/m 12,3 C 17,4 C 3,2 km/h (1 Bft) 100,00 %
09.08.2022 00:36 17,4 C 72 % 1023,9 hPa 0,0 l/m 3,2 km/h (1 Bft) N 360 0 min 0,000 mm 0,0 UV-I 0 W/m 12,3 C 17,4 C 4,8 km/h (1 Bft) 95,65 %
09.08.2022 00:35 17,4 C 72 % 1023,8 hPa 0,0 l/m 3,2 km/h (1 Bft) N 360 0 min 0,000 mm 0,0 UV-I 0 W/m 12,3 C 17,4 C 4,8 km/h (1 Bft) 100,00 %
09.08.2022 00:34 17,4 C 72 % 1023,9 hPa 0,0 l/m 3,2 km/h (1 Bft) N 360 0 min 0,000 mm 0,0 UV-I 0 W/m 12,3 C 17,4 C 4,8 km/h (1 Bft) 100,00 %
09.08.2022 00:33 17,4 C 72 % 1023,9 hPa 0,0 l/m 3,2 km/h (1 Bft) N-NW 337 0 min 0,000 mm 0,0 UV-I 0 W/m 12,3 C 17,4 C 4,8 km/h (1 Bft) 100,00 %
09.08.2022 00:32 17,4 C 72 % 1023,9 hPa 0,0 l/m 3,2 km/h (1 Bft) N-NW 337 0 min 0,000 mm 0,0 UV-I 0 W/m 12,3 C 17,4 C 4,8 km/h (1 Bft) 100,00 %
09.08.2022 00:31 17,4 C 72 % 1023,9 hPa 0,0 l/m 3,2 km/h (1 Bft) N 360 0 min 0,000 mm 0,0 UV-I 0 W/m 12,3 C 17,4 C 4,8 km/h (1 Bft) 100,00 %
09.08.2022 00:30 17,4 C 72 % 1023,9 hPa 0,0 l/m 3,2 km/h (1 Bft) N 360 0 min 0,000 mm 0,0 UV-I 0 W/m 12,3 C 17,4 C 4,8 km/h (1 Bft) 100,00 %
09.08.2022 00:29 17,4 C 72 % 1023,9 hPa 0,0 l/m 1,6 km/h (1 Bft) N-NO 22 0 min 0,000 mm 0,0 UV-I 0 W/m 12,3 C 17,4 C 3,2 km/h (1 Bft) 100,00 %
09.08.2022 00:28 17,4 C 72 % 1023,9 hPa 0,0 l/m 0,0 km/h (0 Bft) N-NO 22 0 min 0,000 mm 0,0 UV-I 0 W/m 12,3 C 17,4 C 1,6 km/h (1 Bft) 100,00 %
09.08.2022 00:27 17,5 C 72 % 1023,9 hPa 0,0 l/m 1,6 km/h (1 Bft) N-NO 22 0 min 0,000 mm 0,0 UV-I 0 W/m 12,4 C 17,5 C 1,6 km/h (1 Bft) 100,00 %
09.08.2022 00:26 17,5 C 72 % 1023,9 hPa 0,0 l/m 1,6 km/h (1 Bft) N-NO 22 0 min 0,000 mm 0,0 UV-I 0 W/m 12,4 C 17,5 C 3,2 km/h (1 Bft) 100,00 %
09.08.2022 00:25 17,5 C 72 % 1023,9 hPa 0,0 l/m 1,6 km/h (1 Bft) N-NO 22 0 min 0,000 mm 0,0 UV-I 0 W/m 12,4 C 17,5 C 3,2 km/h (1 Bft) 95,65 %
09.08.2022 00:24 17,4 C 72 % 1024,0 hPa 0,0 l/m 1,6 km/h (1 Bft) N-NO 22 0 min 0,000 mm 0,0 UV-I 0 W/m 12,3 C 17,4 C 3,2 km/h (1 Bft) 100,00 %
09.08.2022 00:23 17,4 C 72 % 1024,0 hPa 0,0 l/m 3,2 km/h (1 Bft) N-NO 22 0 min 0,000 mm 0,0 UV-I 0 W/m 12,3 C 17,4 C 3,2 km/h (1 Bft) 100,00 %
09.08.2022 00:22 17,6 C 72 % 1024,0 hPa 0,0 l/m 1,6 km/h (1 Bft) N-NO 22 0 min 0,000 mm 0,0 UV-I 0 W/m 12,5 C 17,6 C 3,2 km/h (1 Bft) 100,00 %
09.08.2022 00:21 17,5 C 72 % 1024,0 hPa 0,0 l/m 1,6 km/h (1 Bft) N-NO 22 0 min 0,000 mm 0,0 UV-I 0 W/m 12,4 C 17,5 C 3,2 km/h (1 Bft) 100,00 %
09.08.2022 00:20 17,5 C 72 % 1023,9 hPa 0,0 l/m 1,6 km/h (1 Bft) N 360 0 min 0,000 mm 0,0 UV-I 0 W/m 12,4 C 17,5 C 1,6 km/h (1 Bft) 100,00 %
09.08.2022 00:19 17,5 C 71 % 1024,0 hPa 0,0 l/m 1,6 km/h (1 Bft) N 360 0 min 0,000 mm 0,0 UV-I 0 W/m 12,2 C 17,5 C 1,6 km/h (1 Bft) 95,65 %
09.08.2022 00:18 17,5 C 71 % 1023,9 hPa 0,0 l/m 1,6 km/h (1 Bft) N 360 0 min 0,000 mm 0,0 UV-I 0 W/m 12,2 C 17,5 C 3,2 km/h (1 Bft) 100,00 %
09.08.2022 00:17 17,6 C 71 % 1023,9 hPa 0,0 l/m 3,2 km/h (1 Bft) N 360 0 min 0,000 mm 0,0 UV-I 0 W/m 12,3 C 17,6 C 4,8 km/h (1 Bft) 100,00 %
09.08.2022 00:16 17,6 C 71 % 1023,9 hPa 0,0 l/m 3,2 km/h (1 Bft) N 360 0 min 0,000 mm 0,0 UV-I 0 W/m 12,3 C 17,6 C 3,2 km/h (1 Bft) 100,00 %
09.08.2022 00:15 17,6 C 71 % 1023,9 hPa 0,0 l/m 3,2 km/h (1 Bft) N 360 0 min 0,000 mm 0,0 UV-I 0 W/m 12,3 C 17,6 C 4,8 km/h (1 Bft) 95,65 %
09.08.2022 00:14 17,6 C 71 % 1024,0 hPa 0,0 l/m 3,2 km/h (1 Bft) N 360 0 min 0,000 mm 0,0 UV-I 0 W/m 12,3 C 17,6 C 4,8 km/h (1 Bft) 100,00 %
09.08.2022 00:13 17,6 C 71 % 1024,0 hPa 0,0 l/m 3,2 km/h (1 Bft) N 360 0 min 0,000 mm 0,0 UV-I 0 W/m 12,3 C 17,6 C 4,8 km/h (1 Bft) 95,65 %
09.08.2022 00:12 17,7 C 71 % 1024,0 hPa 0,0 l/m 3,2 km/h (1 Bft) N 360 0 min 0,000 mm 0,0 UV-I 0 W/m 12,4 C 17,7 C 3,2 km/h (1 Bft) 100,00 %
09.08.2022 00:11 17,7 C 71 % 1024,0 hPa 0,0 l/m 3,2 km/h (1 Bft) N-NO 22 0 min 0,000 mm 0,0 UV-I 0 W/m 12,4 C 17,7 C 4,8 km/h (1 Bft) 100,00 %
09.08.2022 00:10 17,7 C 71 % 1024,0 hPa 0,0 l/m 3,2 km/h (1 Bft) N 360 0 min 0,000 mm 0,0 UV-I 0 W/m 12,4 C 17,7 C 4,8 km/h (1 Bft) 100,00 %
09.08.2022 00:09 17,7 C 71 % 1024,0 hPa 0,0 l/m 4,8 km/h (1 Bft) N 360 0 min 0,000 mm 0,0 UV-I 0 W/m 12,4 C 17,7 C 4,8 km/h (1 Bft) 100,00 %
09.08.2022 00:08 17,8 C 70 % 1024,0 hPa 0,0 l/m 3,2 km/h (1 Bft) N-NO 22 0 min 0,000 mm 0,0 UV-I 0 W/m 12,3 C 17,8 C 3,2 km/h (1 Bft) 100,00 %
09.08.2022 00:07 17,8 C 70 % 1024,0 hPa 0,0 l/m 3,2 km/h (1 Bft) N 360 0 min 0,000 mm 0,0 UV-I 0 W/m 12,3 C 17,8 C 4,8 km/h (1 Bft) 100,00 %
09.08.2022 00:06 17,8 C 70 % 1024,1 hPa 0,0 l/m 3,2 km/h (1 Bft) N-NO 22 0 min 0,000 mm 0,0 UV-I 0 W/m 12,3 C 17,8 C 6,4 km/h (2 Bft) 100,00 %
09.08.2022 00:05 17,8 C 70 % 1024,0 hPa 0,0 l/m 4,8 km/h (1 Bft) N-NO 22 0 min 0,000 mm 0,0 UV-I 0 W/m 12,3 C 17,8 C 6,4 km/h (2 Bft) 100,00 %
09.08.2022 00:04 17,8 C 70 % 1024,0 hPa 0,0 l/m 4,8 km/h (1 Bft) N-NO 22 0 min 0,000 mm 0,0 UV-I 0 W/m 12,3 C 17,8 C 4,8 km/h (1 Bft) 100,00 %
09.08.2022 00:03 17,8 C 70 % 1024,0 hPa 0,0 l/m 4,8 km/h (1 Bft) N-NO 22 0 min 0,000 mm 0,0 UV-I 0 W/m 12,3 C 17,8 C 6,4 km/h (2 Bft) 95,65 %
09.08.2022 00:02 17,8 C 70 % 1024,1 hPa 0,0 l/m 3,2 km/h (1 Bft) N-NO 22 0 min 0,000 mm 0,0 UV-I 0 W/m 12,3 C 17,8 C 4,8 km/h (1 Bft) 100,00 %
09.08.2022 00:01 17,8 C 70 % 1024,0 hPa 0,0 l/m 3,2 km/h (1 Bft) N 360 0 min 0,000 mm 0,0 UV-I 0 W/m 12,3 C 17,8 C 4,8 km/h (1 Bft) 95,65 %
09.08.2022 00:00 17,9 C 70 % 1024,0 hPa 0,0 l/m 4,8 km/h (1 Bft) N 360 0 min 0,000 mm 0,0 UV-I 0 W/m 12,3 C 17,9 C 4,8 km/h (1 Bft) 100,00 %
_ Min-Zeit 04:44 16:46 00:54 - 00:28 - - - - - - 12:34 04:44 02:08 17:22
Minimum _ 13,8 C 44 % 1023,7 hPa - 0,0 km/h (0 Bft) - - - - - - 9,9 C 13,8 C 0,0 km/h (0 Bft) 86,96 %
_ Max-Zeit 16:14 07:30 09:57 00:00 12:25 - - 07:26 15:00 12:54 13:27 10:31 16:14 12:25 00:00
Maximum _ 23,9 C 86 % 1026,0 hPa 0,0 l/m 24,1 km/h
N-NW (4 Bft)
- - 1 min 0,584 mm 6,6 UV-I 798 W/m 13,8 C 23,9 C 25,7 km/h
N-NW (4 Bft)
100,00 %
Durchschnitt _ 19,3 C 62 % 1024,6 hPa #0,0 l/m 6,1 km/h (2 Bft) N-NW - #7:39 h #3,708 mm 3,4 UV-I 298 W/m 11,5 C 19,3 C 8,5 km/h (2 Bft) 99,29 %